<?xml version="1.0" encoding="UTF-8" standalone="no" ?>
<gpx xmlns="http://www.topografix.com/GPX/1/1" xmlns:xsi="http://www.w3.org/2001/XMLSchema-instance" xsi:schemaLocation="http://www.topografix.com/GPX/1/1 http://www.topografix.com/GPX/1/1/gpx.xsd" version="1.1" creator="VisuGPX - https://www.visugpx.com">
  <metadata>
    <name>MOnt Jovet</name>
    <desc><![CDATA[Mont Jovet depuis Notre dame des prés]]></desc>
  </metadata>
  <trk>
    <name><![CDATA[2012-02-17-01]]></name>
    <trkseg>
      <trkpt lat="45.50982" lon="6.5937">
        <ele>1259.8</ele>
        <time>2012-02-17T07:47:48Z</time>
      </trkpt>
      <trkpt lat="45.50982" lon="6.5937">
        <ele>1259.9</ele>
        <time>2012-02-17T07:47:49Z</time>
      </trkpt>
      <trkpt lat="45.50974" lon="6.59365">
        <ele>1259.4</ele>
        <time>2012-02-17T07:49:16Z</time>
      </trkpt>
      <trkpt lat="45.50981" lon="6.59373">
        <ele>1257.1</ele>
        <time>2012-02-17T07:52:02Z</time>
      </trkpt>
      <trkpt lat="45.50971" lon="6.59374">
        <ele>1257.6</ele>
        <time>2012-02-17T07:54:01Z</time>
      </trkpt>
      <trkpt lat="45.50955" lon="6.5938">
        <ele>1259</ele>
        <time>2012-02-17T07:55:15Z</time>
      </trkpt>
      <trkpt lat="45.50955" lon="6.5938">
        <ele>1259</ele>
        <time>2012-02-17T07:55:16Z</time>
      </trkpt>
      <trkpt lat="45.50946" lon="6.59384">
        <ele>1260.3</ele>
        <time>2012-02-17T07:56:55Z</time>
      </trkpt>
      <trkpt lat="45.50931" lon="6.59379">
        <ele>1258.9</ele>
        <time>2012-02-17T07:57:13Z</time>
      </trkpt>
      <trkpt lat="45.50923" lon="6.59374">
        <ele>1260</ele>
        <time>2012-02-17T07:57:23Z</time>
      </trkpt>
      <trkpt lat="45.50914" lon="6.59371">
        <ele>1260.8</ele>
        <time>2012-02-17T07:57:34Z</time>
      </trkpt>
      <trkpt lat="45.50906" lon="6.59368">
        <ele>1262.5</ele>
        <time>2012-02-17T07:57:47Z</time>
      </trkpt>
      <trkpt lat="45.50898" lon="6.59371">
        <ele>1264.4</ele>
        <time>2012-02-17T07:57:59Z</time>
      </trkpt>
      <trkpt lat="45.50897" lon="6.59371">
        <ele>1264.1</ele>
        <time>2012-02-17T07:58:00Z</time>
      </trkpt>
      <trkpt lat="45.5088" lon="6.59377">
        <ele>1268.6</ele>
        <time>2012-02-17T07:58:40Z</time>
      </trkpt>
      <trkpt lat="45.50872" lon="6.59381">
        <ele>1271</ele>
        <time>2012-02-17T07:58:51Z</time>
      </trkpt>
      <trkpt lat="45.50864" lon="6.59385">
        <ele>1274</ele>
        <time>2012-02-17T07:59:04Z</time>
      </trkpt>
      <trkpt lat="45.50864" lon="6.59385">
        <ele>1274.1</ele>
        <time>2012-02-17T07:59:05Z</time>
      </trkpt>
      <trkpt lat="45.50847" lon="6.59391">
        <ele>1279.9</ele>
        <time>2012-02-17T07:59:33Z</time>
      </trkpt>
      <trkpt lat="45.50839" lon="6.59393">
        <ele>1282.4</ele>
        <time>2012-02-17T07:59:47Z</time>
      </trkpt>
      <trkpt lat="45.5083" lon="6.59395">
        <ele>1286.1</ele>
        <time>2012-02-17T08:00:03Z</time>
      </trkpt>
      <trkpt lat="45.50822" lon="6.59399">
        <ele>1289</ele>
        <time>2012-02-17T08:00:18Z</time>
      </trkpt>
      <trkpt lat="45.50821" lon="6.59399">
        <ele>1289.5</ele>
        <time>2012-02-17T08:00:19Z</time>
      </trkpt>
      <trkpt lat="45.50805" lon="6.59407">
        <ele>1297</ele>
        <time>2012-02-17T08:00:53Z</time>
      </trkpt>
      <trkpt lat="45.50798" lon="6.59413">
        <ele>1301</ele>
        <time>2012-02-17T08:01:09Z</time>
      </trkpt>
      <trkpt lat="45.5079" lon="6.5942">
        <ele>1305.1</ele>
        <time>2012-02-17T08:01:27Z</time>
      </trkpt>
      <trkpt lat="45.5079" lon="6.5942">
        <ele>1305.5</ele>
        <time>2012-02-17T08:01:28Z</time>
      </trkpt>
      <trkpt lat="45.50775" lon="6.59433">
        <ele>1313.9</ele>
        <time>2012-02-17T08:02:04Z</time>
      </trkpt>
      <trkpt lat="45.50769" lon="6.59442">
        <ele>1318.1</ele>
        <time>2012-02-17T08:02:24Z</time>
      </trkpt>
      <trkpt lat="45.50763" lon="6.59451">
        <ele>1322</ele>
        <time>2012-02-17T08:02:44Z</time>
      </trkpt>
      <trkpt lat="45.50762" lon="6.59451">
        <ele>1322</ele>
        <time>2012-02-17T08:02:45Z</time>
      </trkpt>
      <trkpt lat="45.50753" lon="6.59472">
        <ele>1332.5</ele>
        <time>2012-02-17T08:03:28Z</time>
      </trkpt>
      <trkpt lat="45.50748" lon="6.59482">
        <ele>1336.6</ele>
        <time>2012-02-17T08:03:47Z</time>
      </trkpt>
      <trkpt lat="45.50747" lon="6.59482">
        <ele>1336.8</ele>
        <time>2012-02-17T08:03:48Z</time>
      </trkpt>
      <trkpt lat="45.50737" lon="6.59501">
        <ele>1345.6</ele>
        <time>2012-02-17T08:04:24Z</time>
      </trkpt>
      <trkpt lat="45.50733" lon="6.59512">
        <ele>1348.6</ele>
        <time>2012-02-17T08:04:41Z</time>
      </trkpt>
      <trkpt lat="45.5073" lon="6.59524">
        <ele>1353.1</ele>
        <time>2012-02-17T08:04:57Z</time>
      </trkpt>
      <trkpt lat="45.5073" lon="6.59524">
        <ele>1353.3</ele>
        <time>2012-02-17T08:04:58Z</time>
      </trkpt>
      <trkpt lat="45.50727" lon="6.59548">
        <ele>1358.4</ele>
        <time>2012-02-17T08:05:28Z</time>
      </trkpt>
      <trkpt lat="45.50724" lon="6.5956">
        <ele>1362</ele>
        <time>2012-02-17T08:05:47Z</time>
      </trkpt>
      <trkpt lat="45.50718" lon="6.59568">
        <ele>1362.4</ele>
        <time>2012-02-17T08:07:37Z</time>
      </trkpt>
      <trkpt lat="45.50717" lon="6.59568">
        <ele>1362.5</ele>
        <time>2012-02-17T08:07:38Z</time>
      </trkpt>
      <trkpt lat="45.50714" lon="6.5958">
        <ele>1381</ele>
        <time>2012-02-17T08:10:39Z</time>
      </trkpt>
      <trkpt lat="45.50714" lon="6.59602">
        <ele>1382.9</ele>
        <time>2012-02-17T08:10:56Z</time>
      </trkpt>
      <trkpt lat="45.50714" lon="6.59615">
        <ele>1384.4</ele>
        <time>2012-02-17T08:11:06Z</time>
      </trkpt>
      <trkpt lat="45.50712" lon="6.59626">
        <ele>1385.3</ele>
        <time>2012-02-17T08:11:17Z</time>
      </trkpt>
      <trkpt lat="45.50708" lon="6.59637">
        <ele>1388.3</ele>
        <time>2012-02-17T08:11:30Z</time>
      </trkpt>
      <trkpt lat="45.50706" lon="6.5965">
        <ele>1390.9</ele>
        <time>2012-02-17T08:11:44Z</time>
      </trkpt>
      <trkpt lat="45.50706" lon="6.59651">
        <ele>1391.3</ele>
        <time>2012-02-17T08:11:45Z</time>
      </trkpt>
      <trkpt lat="45.507" lon="6.59672">
        <ele>1396.8</ele>
        <time>2012-02-17T08:12:14Z</time>
      </trkpt>
      <trkpt lat="45.50695" lon="6.59682">
        <ele>1400.9</ele>
        <time>2012-02-17T08:12:30Z</time>
      </trkpt>
      <trkpt lat="45.50692" lon="6.59694">
        <ele>1403.5</ele>
        <time>2012-02-17T08:12:46Z</time>
      </trkpt>
      <trkpt lat="45.50691" lon="6.59695">
        <ele>1403.8</ele>
        <time>2012-02-17T08:12:47Z</time>
      </trkpt>
      <trkpt lat="45.50682" lon="6.59714">
        <ele>1410.5</ele>
        <time>2012-02-17T08:13:15Z</time>
      </trkpt>
      <trkpt lat="45.50677" lon="6.59724">
        <ele>1413.6</ele>
        <time>2012-02-17T08:13:28Z</time>
      </trkpt>
      <trkpt lat="45.50671" lon="6.59733">
        <ele>1414</ele>
        <time>2012-02-17T08:13:41Z</time>
      </trkpt>
      <trkpt lat="45.50665" lon="6.59742">
        <ele>1418.5</ele>
        <time>2012-02-17T08:13:58Z</time>
      </trkpt>
      <trkpt lat="45.50664" lon="6.59743">
        <ele>1418.8</ele>
        <time>2012-02-17T08:13:59Z</time>
      </trkpt>
      <trkpt lat="45.50654" lon="6.59762">
        <ele>1426.8</ele>
        <time>2012-02-17T08:14:35Z</time>
      </trkpt>
      <trkpt lat="45.50648" lon="6.59771">
        <ele>1429.4</ele>
        <time>2012-02-17T08:14:50Z</time>
      </trkpt>
      <trkpt lat="45.50643" lon="6.59781">
        <ele>1433.8</ele>
        <time>2012-02-17T08:15:07Z</time>
      </trkpt>
      <trkpt lat="45.50643" lon="6.59781">
        <ele>1434.4</ele>
        <time>2012-02-17T08:15:08Z</time>
      </trkpt>
      <trkpt lat="45.50632" lon="6.598">
        <ele>1440.9</ele>
        <time>2012-02-17T08:15:39Z</time>
      </trkpt>
      <trkpt lat="45.50626" lon="6.59808">
        <ele>1445.5</ele>
        <time>2012-02-17T08:15:55Z</time>
      </trkpt>
      <trkpt lat="45.5062" lon="6.59817">
        <ele>1449.1</ele>
        <time>2012-02-17T08:16:12Z</time>
      </trkpt>
      <trkpt lat="45.5062" lon="6.59818">
        <ele>1449.4</ele>
        <time>2012-02-17T08:16:13Z</time>
      </trkpt>
      <trkpt lat="45.50607" lon="6.59833">
        <ele>1455</ele>
        <time>2012-02-17T08:16:41Z</time>
      </trkpt>
      <trkpt lat="45.50601" lon="6.59843">
        <ele>1458.4</ele>
        <time>2012-02-17T08:16:55Z</time>
      </trkpt>
      <trkpt lat="45.50598" lon="6.59854">
        <ele>1461.8</ele>
        <time>2012-02-17T08:17:10Z</time>
      </trkpt>
      <trkpt lat="45.50594" lon="6.59865">
        <ele>1464.5</ele>
        <time>2012-02-17T08:17:25Z</time>
      </trkpt>
      <trkpt lat="45.50594" lon="6.59866">
        <ele>1464.4</ele>
        <time>2012-02-17T08:17:26Z</time>
      </trkpt>
      <trkpt lat="45.50587" lon="6.59887">
        <ele>1471.9</ele>
        <time>2012-02-17T08:17:54Z</time>
      </trkpt>
      <trkpt lat="45.50583" lon="6.59898">
        <ele>1473.1</ele>
        <time>2012-02-17T08:18:08Z</time>
      </trkpt>
      <trkpt lat="45.5058" lon="6.5991">
        <ele>1477</ele>
        <time>2012-02-17T08:18:22Z</time>
      </trkpt>
      <trkpt lat="45.50576" lon="6.59921">
        <ele>1480.5</ele>
        <time>2012-02-17T08:18:35Z</time>
      </trkpt>
      <trkpt lat="45.50576" lon="6.59921">
        <ele>1480.6</ele>
        <time>2012-02-17T08:18:36Z</time>
      </trkpt>
      <trkpt lat="45.5057" lon="6.59944">
        <ele>1481.5</ele>
        <time>2012-02-17T08:18:56Z</time>
      </trkpt>
      <trkpt lat="45.50568" lon="6.59955">
        <ele>1482.9</ele>
        <time>2012-02-17T08:19:06Z</time>
      </trkpt>
      <trkpt lat="45.50566" lon="6.59967">
        <ele>1484.5</ele>
        <time>2012-02-17T08:19:17Z</time>
      </trkpt>
      <trkpt lat="45.50564" lon="6.59979">
        <ele>1485.5</ele>
        <time>2012-02-17T08:19:28Z</time>
      </trkpt>
      <trkpt lat="45.50561" lon="6.59991">
        <ele>1486.4</ele>
        <time>2012-02-17T08:19:39Z</time>
      </trkpt>
      <trkpt lat="45.50561" lon="6.59992">
        <ele>1487</ele>
        <time>2012-02-17T08:19:40Z</time>
      </trkpt>
      <trkpt lat="45.50555" lon="6.60014">
        <ele>1489.5</ele>
        <time>2012-02-17T08:20:02Z</time>
      </trkpt>
      <trkpt lat="45.50553" lon="6.60026">
        <ele>1491</ele>
        <time>2012-02-17T08:20:12Z</time>
      </trkpt>
      <trkpt lat="45.50551" lon="6.60038">
        <ele>1492.8</ele>
        <time>2012-02-17T08:20:23Z</time>
      </trkpt>
      <trkpt lat="45.50554" lon="6.6005">
        <ele>1494.5</ele>
        <time>2012-02-17T08:20:34Z</time>
      </trkpt>
      <trkpt lat="45.50556" lon="6.60062">
        <ele>1495.8</ele>
        <time>2012-02-17T08:20:45Z</time>
      </trkpt>
      <trkpt lat="45.50556" lon="6.60063">
        <ele>1495.9</ele>
        <time>2012-02-17T08:20:46Z</time>
      </trkpt>
      <trkpt lat="45.5056" lon="6.60086">
        <ele>1500</ele>
        <time>2012-02-17T08:21:09Z</time>
      </trkpt>
      <trkpt lat="45.50564" lon="6.60097">
        <ele>1501.6</ele>
        <time>2012-02-17T08:21:21Z</time>
      </trkpt>
      <trkpt lat="45.50568" lon="6.60107">
        <ele>1503.8</ele>
        <time>2012-02-17T08:21:36Z</time>
      </trkpt>
      <trkpt lat="45.50572" lon="6.60118">
        <ele>1506.4</ele>
        <time>2012-02-17T08:21:49Z</time>
      </trkpt>
      <trkpt lat="45.50572" lon="6.60119">
        <ele>1506.3</ele>
        <time>2012-02-17T08:21:50Z</time>
      </trkpt>
      <trkpt lat="45.50573" lon="6.60142">
        <ele>1510.6</ele>
        <time>2012-02-17T08:22:12Z</time>
      </trkpt>
      <trkpt lat="45.50574" lon="6.60155">
        <ele>1513.6</ele>
        <time>2012-02-17T08:22:25Z</time>
      </trkpt>
      <trkpt lat="45.50571" lon="6.60166">
        <ele>1515.5</ele>
        <time>2012-02-17T08:22:39Z</time>
      </trkpt>
      <trkpt lat="45.50565" lon="6.60176">
        <ele>1519</ele>
        <time>2012-02-17T08:22:55Z</time>
      </trkpt>
      <trkpt lat="45.50565" lon="6.60177">
        <ele>1519</ele>
        <time>2012-02-17T08:22:56Z</time>
      </trkpt>
      <trkpt lat="45.50563" lon="6.60197">
        <ele>1525</ele>
        <time>2012-02-17T08:23:30Z</time>
      </trkpt>
      <trkpt lat="45.50554" lon="6.60201">
        <ele>1526.8</ele>
        <time>2012-02-17T08:23:42Z</time>
      </trkpt>
      <trkpt lat="45.50549" lon="6.60211">
        <ele>1528.6</ele>
        <time>2012-02-17T08:23:58Z</time>
      </trkpt>
      <trkpt lat="45.50548" lon="6.60212">
        <ele>1528.9</ele>
        <time>2012-02-17T08:23:59Z</time>
      </trkpt>
      <trkpt lat="45.50544" lon="6.60232">
        <ele>1535</ele>
        <time>2012-02-17T08:24:34Z</time>
      </trkpt>
      <trkpt lat="45.50541" lon="6.60244">
        <ele>1538.5</ele>
        <time>2012-02-17T08:24:52Z</time>
      </trkpt>
      <trkpt lat="45.50536" lon="6.60253">
        <ele>1542</ele>
        <time>2012-02-17T08:25:09Z</time>
      </trkpt>
      <trkpt lat="45.50535" lon="6.60254">
        <ele>1542.5</ele>
        <time>2012-02-17T08:25:10Z</time>
      </trkpt>
      <trkpt lat="45.50539" lon="6.60276">
        <ele>1550.3</ele>
        <time>2012-02-17T08:25:51Z</time>
      </trkpt>
      <trkpt lat="45.50544" lon="6.60285">
        <ele>1551.1</ele>
        <time>2012-02-17T08:26:03Z</time>
      </trkpt>
      <trkpt lat="45.50549" lon="6.60294">
        <ele>1552.8</ele>
        <time>2012-02-17T08:26:13Z</time>
      </trkpt>
      <trkpt lat="45.5055" lon="6.60295">
        <ele>1553</ele>
        <time>2012-02-17T08:26:14Z</time>
      </trkpt>
      <trkpt lat="45.50553" lon="6.60317">
        <ele>1559.8</ele>
        <time>2012-02-17T08:26:44Z</time>
      </trkpt>
      <trkpt lat="45.50561" lon="6.60321">
        <ele>1562.5</ele>
        <time>2012-02-17T08:26:58Z</time>
      </trkpt>
      <trkpt lat="45.50569" lon="6.60325">
        <ele>1563.8</ele>
        <time>2012-02-17T08:27:10Z</time>
      </trkpt>
      <trkpt lat="45.50578" lon="6.60324">
        <ele>1566</ele>
        <time>2012-02-17T08:27:22Z</time>
      </trkpt>
      <trkpt lat="45.50578" lon="6.60325">
        <ele>1566.3</ele>
        <time>2012-02-17T08:27:23Z</time>
      </trkpt>
      <trkpt lat="45.50587" lon="6.60345">
        <ele>1572.5</ele>
        <time>2012-02-17T08:27:58Z</time>
      </trkpt>
      <trkpt lat="45.50593" lon="6.60354">
        <ele>1575</ele>
        <time>2012-02-17T08:28:11Z</time>
      </trkpt>
      <trkpt lat="45.50585" lon="6.60359">
        <ele>1580.8</ele>
        <time>2012-02-17T08:28:37Z</time>
      </trkpt>
      <trkpt lat="45.50584" lon="6.60359">
        <ele>1580.8</ele>
        <time>2012-02-17T08:28:38Z</time>
      </trkpt>
      <trkpt lat="45.50583" lon="6.60373">
        <ele>1588.5</ele>
        <time>2012-02-17T08:29:22Z</time>
      </trkpt>
      <trkpt lat="45.50589" lon="6.6038">
        <ele>1590.5</ele>
        <time>2012-02-17T08:29:32Z</time>
      </trkpt>
      <trkpt lat="45.50595" lon="6.6039">
        <ele>1592.8</ele>
        <time>2012-02-17T08:29:43Z</time>
      </trkpt>
      <trkpt lat="45.50595" lon="6.60391">
        <ele>1593</ele>
        <time>2012-02-17T08:29:44Z</time>
      </trkpt>
      <trkpt lat="45.50608" lon="6.60406">
        <ele>1596.6</ele>
        <time>2012-02-17T08:30:13Z</time>
      </trkpt>
      <trkpt lat="45.50615" lon="6.60411">
        <ele>1600.4</ele>
        <time>2012-02-17T08:30:32Z</time>
      </trkpt>
      <trkpt lat="45.50622" lon="6.6042">
        <ele>1602.5</ele>
        <time>2012-02-17T08:30:46Z</time>
      </trkpt>
      <trkpt lat="45.50622" lon="6.60421">
        <ele>1602.5</ele>
        <time>2012-02-17T08:30:47Z</time>
      </trkpt>
      <trkpt lat="45.50634" lon="6.60437">
        <ele>1606.8</ele>
        <time>2012-02-17T08:31:15Z</time>
      </trkpt>
      <trkpt lat="45.5064" lon="6.60447">
        <ele>1609</ele>
        <time>2012-02-17T08:31:33Z</time>
      </trkpt>
      <trkpt lat="45.50644" lon="6.60458">
        <ele>1610.1</ele>
        <time>2012-02-17T08:31:53Z</time>
      </trkpt>
      <trkpt lat="45.50644" lon="6.60458">
        <ele>1610</ele>
        <time>2012-02-17T08:31:54Z</time>
      </trkpt>
      <trkpt lat="45.50653" lon="6.60462">
        <ele>1612.4</ele>
        <time>2012-02-17T08:32:57Z</time>
      </trkpt>
      <trkpt lat="45.50646" lon="6.60452">
        <ele>1612.5</ele>
        <time>2012-02-17T08:34:35Z</time>
      </trkpt>
      <trkpt lat="45.50635" lon="6.60468">
        <ele>1620.5</ele>
        <time>2012-02-17T08:35:47Z</time>
      </trkpt>
      <trkpt lat="45.50635" lon="6.60468">
        <ele>1620.9</ele>
        <time>2012-02-17T08:35:48Z</time>
      </trkpt>
      <trkpt lat="45.50618" lon="6.60467">
        <ele>1625</ele>
        <time>2012-02-17T08:36:18Z</time>
      </trkpt>
      <trkpt lat="45.5061" lon="6.60463">
        <ele>1626.5</ele>
        <time>2012-02-17T08:36:29Z</time>
      </trkpt>
      <trkpt lat="45.50601" lon="6.60462">
        <ele>1627.8</ele>
        <time>2012-02-17T08:36:42Z</time>
      </trkpt>
      <trkpt lat="45.50592" lon="6.60462">
        <ele>1629.5</ele>
        <time>2012-02-17T08:36:56Z</time>
      </trkpt>
      <trkpt lat="45.50592" lon="6.60462">
        <ele>1629.6</ele>
        <time>2012-02-17T08:36:57Z</time>
      </trkpt>
      <trkpt lat="45.50575" lon="6.60462">
        <ele>1632.8</ele>
        <time>2012-02-17T08:37:19Z</time>
      </trkpt>
      <trkpt lat="45.50567" lon="6.6046">
        <ele>1633.9</ele>
        <time>2012-02-17T08:37:39Z</time>
      </trkpt>
      <trkpt lat="45.50559" lon="6.60462">
        <ele>1632.9</ele>
        <time>2012-02-17T08:37:50Z</time>
      </trkpt>
      <trkpt lat="45.50551" lon="6.6046">
        <ele>1635.1</ele>
        <time>2012-02-17T08:38:01Z</time>
      </trkpt>
      <trkpt lat="45.5055" lon="6.6046">
        <ele>1635</ele>
        <time>2012-02-17T08:38:02Z</time>
      </trkpt>
      <trkpt lat="45.50557" lon="6.60478">
        <ele>1638.6</ele>
        <time>2012-02-17T08:38:47Z</time>
      </trkpt>
      <trkpt lat="45.50565" lon="6.6048">
        <ele>1639</ele>
        <time>2012-02-17T08:39:05Z</time>
      </trkpt>
      <trkpt lat="45.50566" lon="6.60481">
        <ele>1639</ele>
        <time>2012-02-17T08:39:06Z</time>
      </trkpt>
      <trkpt lat="45.50582" lon="6.60478">
        <ele>1643.6</ele>
        <time>2012-02-17T08:39:55Z</time>
      </trkpt>
      <trkpt lat="45.5059" lon="6.60484">
        <ele>1646</ele>
        <time>2012-02-17T08:40:08Z</time>
      </trkpt>
      <trkpt lat="45.5059" lon="6.60485">
        <ele>1646.3</ele>
        <time>2012-02-17T08:40:09Z</time>
      </trkpt>
      <trkpt lat="45.50602" lon="6.60499">
        <ele>1648.8</ele>
        <time>2012-02-17T08:40:27Z</time>
      </trkpt>
      <trkpt lat="45.50593" lon="6.60502">
        <ele>1652.5</ele>
        <time>2012-02-17T08:40:57Z</time>
      </trkpt>
      <trkpt lat="45.50584" lon="6.60503">
        <ele>1654.8</ele>
        <time>2012-02-17T08:41:14Z</time>
      </trkpt>
      <trkpt lat="45.50584" lon="6.60503">
        <ele>1655</ele>
        <time>2012-02-17T08:41:15Z</time>
      </trkpt>
      <trkpt lat="45.50569" lon="6.60516">
        <ele>1659.3</ele>
        <time>2012-02-17T08:42:00Z</time>
      </trkpt>
      <trkpt lat="45.50561" lon="6.60519">
        <ele>1661.6</ele>
        <time>2012-02-17T08:42:15Z</time>
      </trkpt>
      <trkpt lat="45.50553" lon="6.6052">
        <ele>1664.4</ele>
        <time>2012-02-17T08:42:28Z</time>
      </trkpt>
      <trkpt lat="45.50552" lon="6.6052">
        <ele>1664.5</ele>
        <time>2012-02-17T08:42:29Z</time>
      </trkpt>
      <trkpt lat="45.50537" lon="6.60516">
        <ele>1667.5</ele>
        <time>2012-02-17T08:43:16Z</time>
      </trkpt>
      <trkpt lat="45.5053" lon="6.60522">
        <ele>1669</ele>
        <time>2012-02-17T08:43:34Z</time>
      </trkpt>
      <trkpt lat="45.50529" lon="6.60523">
        <ele>1669</ele>
        <time>2012-02-17T08:43:35Z</time>
      </trkpt>
      <trkpt lat="45.50514" lon="6.60533">
        <ele>1673.8</ele>
        <time>2012-02-17T08:44:06Z</time>
      </trkpt>
      <trkpt lat="45.50506" lon="6.60539">
        <ele>1675.5</ele>
        <time>2012-02-17T08:44:22Z</time>
      </trkpt>
      <trkpt lat="45.50498" lon="6.60545">
        <ele>1679</ele>
        <time>2012-02-17T08:44:46Z</time>
      </trkpt>
      <trkpt lat="45.50498" lon="6.60547">
        <ele>1679.5</ele>
        <time>2012-02-17T08:44:47Z</time>
      </trkpt>
      <trkpt lat="45.50513" lon="6.60554">
        <ele>1686</ele>
        <time>2012-02-17T08:45:31Z</time>
      </trkpt>
      <trkpt lat="45.50522" lon="6.60556">
        <ele>1688.1</ele>
        <time>2012-02-17T08:45:46Z</time>
      </trkpt>
      <trkpt lat="45.5052" lon="6.60568">
        <ele>1691.4</ele>
        <time>2012-02-17T08:46:07Z</time>
      </trkpt>
      <trkpt lat="45.50519" lon="6.60568">
        <ele>1691.4</ele>
        <time>2012-02-17T08:46:08Z</time>
      </trkpt>
      <trkpt lat="45.50518" lon="6.6058">
        <ele>1699</ele>
        <time>2012-02-17T08:47:02Z</time>
      </trkpt>
      <trkpt lat="45.50526" lon="6.60587">
        <ele>1700.9</ele>
        <time>2012-02-17T08:47:21Z</time>
      </trkpt>
      <trkpt lat="45.50526" lon="6.60588">
        <ele>1700.6</ele>
        <time>2012-02-17T08:47:22Z</time>
      </trkpt>
      <trkpt lat="45.50543" lon="6.60594">
        <ele>1705</ele>
        <time>2012-02-17T08:49:18Z</time>
      </trkpt>
      <trkpt lat="45.50543" lon="6.60594">
        <ele>1705</ele>
        <time>2012-02-17T08:49:19Z</time>
      </trkpt>
      <trkpt lat="45.50557" lon="6.60607">
        <ele>1710.6</ele>
        <time>2012-02-17T08:50:29Z</time>
      </trkpt>
      <trkpt lat="45.50557" lon="6.60607">
        <ele>1710.8</ele>
        <time>2012-02-17T08:50:30Z</time>
      </trkpt>
      <trkpt lat="45.50573" lon="6.60617">
        <ele>1715.9</ele>
        <time>2012-02-17T08:51:19Z</time>
      </trkpt>
      <trkpt lat="45.50581" lon="6.60622">
        <ele>1719.5</ele>
        <time>2012-02-17T08:51:37Z</time>
      </trkpt>
      <trkpt lat="45.50581" lon="6.60622">
        <ele>1719.1</ele>
        <time>2012-02-17T08:51:38Z</time>
      </trkpt>
      <trkpt lat="45.50597" lon="6.60629">
        <ele>1723.4</ele>
        <time>2012-02-17T08:52:13Z</time>
      </trkpt>
      <trkpt lat="45.50592" lon="6.60639">
        <ele>1727.5</ele>
        <time>2012-02-17T08:52:41Z</time>
      </trkpt>
      <trkpt lat="45.50591" lon="6.60639">
        <ele>1727.8</ele>
        <time>2012-02-17T08:52:42Z</time>
      </trkpt>
      <trkpt lat="45.50577" lon="6.6065">
        <ele>1730.5</ele>
        <time>2012-02-17T08:53:09Z</time>
      </trkpt>
      <trkpt lat="45.50571" lon="6.60659">
        <ele>1732.4</ele>
        <time>2012-02-17T08:53:31Z</time>
      </trkpt>
      <trkpt lat="45.50564" lon="6.60668">
        <ele>1733.6</ele>
        <time>2012-02-17T08:53:48Z</time>
      </trkpt>
      <trkpt lat="45.50564" lon="6.60669">
        <ele>1733.5</ele>
        <time>2012-02-17T08:53:49Z</time>
      </trkpt>
      <trkpt lat="45.50551" lon="6.60684">
        <ele>1737.8</ele>
        <time>2012-02-17T08:54:19Z</time>
      </trkpt>
      <trkpt lat="45.50544" lon="6.60692">
        <ele>1740</ele>
        <time>2012-02-17T08:54:42Z</time>
      </trkpt>
      <trkpt lat="45.50537" lon="6.60698">
        <ele>1741.6</ele>
        <time>2012-02-17T08:54:57Z</time>
      </trkpt>
      <trkpt lat="45.50536" lon="6.60699">
        <ele>1741.6</ele>
        <time>2012-02-17T08:54:58Z</time>
      </trkpt>
      <trkpt lat="45.50521" lon="6.60707">
        <ele>1746.4</ele>
        <time>2012-02-17T08:55:40Z</time>
      </trkpt>
      <trkpt lat="45.50512" lon="6.60712">
        <ele>1748.1</ele>
        <time>2012-02-17T08:56:05Z</time>
      </trkpt>
      <trkpt lat="45.50512" lon="6.60712">
        <ele>1748.1</ele>
        <time>2012-02-17T08:56:06Z</time>
      </trkpt>
      <trkpt lat="45.50497" lon="6.60724">
        <ele>1753.9</ele>
        <time>2012-02-17T08:56:46Z</time>
      </trkpt>
      <trkpt lat="45.50489" lon="6.60729">
        <ele>1756</ele>
        <time>2012-02-17T08:57:01Z</time>
      </trkpt>
      <trkpt lat="45.50481" lon="6.60735">
        <ele>1757.3</ele>
        <time>2012-02-17T08:57:14Z</time>
      </trkpt>
      <trkpt lat="45.50481" lon="6.60736">
        <ele>1757.4</ele>
        <time>2012-02-17T08:57:15Z</time>
      </trkpt>
      <trkpt lat="45.50479" lon="6.60754">
        <ele>1763</ele>
        <time>2012-02-17T08:57:42Z</time>
      </trkpt>
      <trkpt lat="45.50483" lon="6.60765">
        <ele>1766</ele>
        <time>2012-02-17T08:57:59Z</time>
      </trkpt>
      <trkpt lat="45.50475" lon="6.60771">
        <ele>1768.5</ele>
        <time>2012-02-17T08:58:12Z</time>
      </trkpt>
      <trkpt lat="45.50469" lon="6.6078">
        <ele>1772</ele>
        <time>2012-02-17T08:58:24Z</time>
      </trkpt>
      <trkpt lat="45.50468" lon="6.6078">
        <ele>1772</ele>
        <time>2012-02-17T08:58:25Z</time>
      </trkpt>
      <trkpt lat="45.50453" lon="6.60785">
        <ele>1775.3</ele>
        <time>2012-02-17T08:58:46Z</time>
      </trkpt>
      <trkpt lat="45.50445" lon="6.6079">
        <ele>1777.4</ele>
        <time>2012-02-17T08:58:58Z</time>
      </trkpt>
      <trkpt lat="45.50437" lon="6.60795">
        <ele>1779.1</ele>
        <time>2012-02-17T08:59:10Z</time>
      </trkpt>
      <trkpt lat="45.50429" lon="6.60799">
        <ele>1782.4</ele>
        <time>2012-02-17T08:59:21Z</time>
      </trkpt>
      <trkpt lat="45.50421" lon="6.60803">
        <ele>1785.1</ele>
        <time>2012-02-17T08:59:32Z</time>
      </trkpt>
      <trkpt lat="45.50421" lon="6.60804">
        <ele>1785.4</ele>
        <time>2012-02-17T08:59:33Z</time>
      </trkpt>
      <trkpt lat="45.50407" lon="6.60817">
        <ele>1789.5</ele>
        <time>2012-02-17T08:59:57Z</time>
      </trkpt>
      <trkpt lat="45.504" lon="6.60824">
        <ele>1790.4</ele>
        <time>2012-02-17T09:00:08Z</time>
      </trkpt>
      <trkpt lat="45.50392" lon="6.60828">
        <ele>1793.6</ele>
        <time>2012-02-17T09:00:21Z</time>
      </trkpt>
      <trkpt lat="45.50385" lon="6.60836">
        <ele>1797</ele>
        <time>2012-02-17T09:00:37Z</time>
      </trkpt>
      <trkpt lat="45.50385" lon="6.60837">
        <ele>1797.1</ele>
        <time>2012-02-17T09:00:38Z</time>
      </trkpt>
      <trkpt lat="45.50377" lon="6.60857">
        <ele>1802.1</ele>
        <time>2012-02-17T09:01:03Z</time>
      </trkpt>
      <trkpt lat="45.50376" lon="6.6087">
        <ele>1805</ele>
        <time>2012-02-17T09:01:24Z</time>
      </trkpt>
      <trkpt lat="45.50385" lon="6.60867">
        <ele>1806.5</ele>
        <time>2012-02-17T09:01:55Z</time>
      </trkpt>
      <trkpt lat="45.50385" lon="6.60866">
        <ele>1806.3</ele>
        <time>2012-02-17T09:01:56Z</time>
      </trkpt>
      <trkpt lat="45.5039" lon="6.60843">
        <ele>1805.6</ele>
        <time>2012-02-17T09:02:13Z</time>
      </trkpt>
      <trkpt lat="45.50389" lon="6.60856">
        <ele>1807</ele>
        <time>2012-02-17T09:02:34Z</time>
      </trkpt>
      <trkpt lat="45.50384" lon="6.60865">
        <ele>1806.8</ele>
        <time>2012-02-17T09:03:19Z</time>
      </trkpt>
      <trkpt lat="45.50383" lon="6.60866">
        <ele>1806.8</ele>
        <time>2012-02-17T09:03:20Z</time>
      </trkpt>
      <trkpt lat="45.50372" lon="6.60882">
        <ele>1810.5</ele>
        <time>2012-02-17T09:04:08Z</time>
      </trkpt>
      <trkpt lat="45.50363" lon="6.60884">
        <ele>1814.1</ele>
        <time>2012-02-17T09:04:19Z</time>
      </trkpt>
      <trkpt lat="45.50355" lon="6.6089">
        <ele>1816</ele>
        <time>2012-02-17T09:04:32Z</time>
      </trkpt>
      <trkpt lat="45.50355" lon="6.6089">
        <ele>1815.6</ele>
        <time>2012-02-17T09:04:33Z</time>
      </trkpt>
      <trkpt lat="45.50338" lon="6.60891">
        <ele>1821</ele>
        <time>2012-02-17T09:05:00Z</time>
      </trkpt>
      <trkpt lat="45.5033" lon="6.60897">
        <ele>1823.9</ele>
        <time>2012-02-17T09:05:13Z</time>
      </trkpt>
      <trkpt lat="45.50322" lon="6.60902">
        <ele>1826</ele>
        <time>2012-02-17T09:05:27Z</time>
      </trkpt>
      <trkpt lat="45.50315" lon="6.60908">
        <ele>1830.1</ele>
        <time>2012-02-17T09:05:41Z</time>
      </trkpt>
      <trkpt lat="45.50314" lon="6.60908">
        <ele>1830.3</ele>
        <time>2012-02-17T09:05:42Z</time>
      </trkpt>
      <trkpt lat="45.50298" lon="6.60914">
        <ele>1837</ele>
        <time>2012-02-17T09:06:22Z</time>
      </trkpt>
      <trkpt lat="45.50295" lon="6.60926">
        <ele>1838</ele>
        <time>2012-02-17T09:06:43Z</time>
      </trkpt>
      <trkpt lat="45.50289" lon="6.60935">
        <ele>1840.3</ele>
        <time>2012-02-17T09:06:57Z</time>
      </trkpt>
      <trkpt lat="45.50288" lon="6.60935">
        <ele>1840.6</ele>
        <time>2012-02-17T09:06:58Z</time>
      </trkpt>
      <trkpt lat="45.50275" lon="6.60949">
        <ele>1845.5</ele>
        <time>2012-02-17T09:07:20Z</time>
      </trkpt>
      <trkpt lat="45.50267" lon="6.60952">
        <ele>1847.5</ele>
        <time>2012-02-17T09:07:30Z</time>
      </trkpt>
      <trkpt lat="45.50258" lon="6.60954">
        <ele>1848.5</ele>
        <time>2012-02-17T09:07:40Z</time>
      </trkpt>
      <trkpt lat="45.5025" lon="6.60953">
        <ele>1849.6</ele>
        <time>2012-02-17T09:07:50Z</time>
      </trkpt>
      <trkpt lat="45.50241" lon="6.60954">
        <ele>1851.8</ele>
        <time>2012-02-17T09:08:03Z</time>
      </trkpt>
      <trkpt lat="45.50241" lon="6.60954">
        <ele>1852.3</ele>
        <time>2012-02-17T09:08:04Z</time>
      </trkpt>
      <trkpt lat="45.50236" lon="6.60968">
        <ele>1858.8</ele>
        <time>2012-02-17T09:08:41Z</time>
      </trkpt>
      <trkpt lat="45.50243" lon="6.60977">
        <ele>1861</ele>
        <time>2012-02-17T09:08:51Z</time>
      </trkpt>
      <trkpt lat="45.50248" lon="6.60987">
        <ele>1862.8</ele>
        <time>2012-02-17T09:09:03Z</time>
      </trkpt>
      <trkpt lat="45.5025" lon="6.60999">
        <ele>1863.6</ele>
        <time>2012-02-17T09:09:13Z</time>
      </trkpt>
      <trkpt lat="45.5025" lon="6.61">
        <ele>1864.3</ele>
        <time>2012-02-17T09:09:14Z</time>
      </trkpt>
      <trkpt lat="45.50264" lon="6.61015">
        <ele>1866.9</ele>
        <time>2012-02-17T09:10:08Z</time>
      </trkpt>
      <trkpt lat="45.5027" lon="6.61023">
        <ele>1868.6</ele>
        <time>2012-02-17T09:21:17Z</time>
      </trkpt>
      <trkpt lat="45.50271" lon="6.61023">
        <ele>1869</ele>
        <time>2012-02-17T09:21:18Z</time>
      </trkpt>
      <trkpt lat="45.50281" lon="6.6104">
        <ele>1873.5</ele>
        <time>2012-02-17T09:21:42Z</time>
      </trkpt>
      <trkpt lat="45.50282" lon="6.61052">
        <ele>1876</ele>
        <time>2012-02-17T09:21:56Z</time>
      </trkpt>
      <trkpt lat="45.50282" lon="6.61065">
        <ele>1877.1</ele>
        <time>2012-02-17T09:22:09Z</time>
      </trkpt>
      <trkpt lat="45.50283" lon="6.61077">
        <ele>1879.1</ele>
        <time>2012-02-17T09:22:22Z</time>
      </trkpt>
      <trkpt lat="45.50283" lon="6.61078">
        <ele>1879.3</ele>
        <time>2012-02-17T09:22:23Z</time>
      </trkpt>
      <trkpt lat="45.50286" lon="6.61102">
        <ele>1883.4</ele>
        <time>2012-02-17T09:22:51Z</time>
      </trkpt>
      <trkpt lat="45.50288" lon="6.61114">
        <ele>1885.3</ele>
        <time>2012-02-17T09:23:06Z</time>
      </trkpt>
      <trkpt lat="45.50286" lon="6.61126">
        <ele>1886.8</ele>
        <time>2012-02-17T09:23:20Z</time>
      </trkpt>
      <trkpt lat="45.50285" lon="6.61138">
        <ele>1888</ele>
        <time>2012-02-17T09:23:33Z</time>
      </trkpt>
      <trkpt lat="45.50285" lon="6.61139">
        <ele>1888.4</ele>
        <time>2012-02-17T09:23:34Z</time>
      </trkpt>
      <trkpt lat="45.50288" lon="6.61162">
        <ele>1890.8</ele>
        <time>2012-02-17T09:23:57Z</time>
      </trkpt>
      <trkpt lat="45.50288" lon="6.61175">
        <ele>1892</ele>
        <time>2012-02-17T09:24:09Z</time>
      </trkpt>
      <trkpt lat="45.50281" lon="6.61182">
        <ele>1892.8</ele>
        <time>2012-02-17T09:24:22Z</time>
      </trkpt>
      <trkpt lat="45.50273" lon="6.61186">
        <ele>1894.5</ele>
        <time>2012-02-17T09:24:34Z</time>
      </trkpt>
      <trkpt lat="45.50276" lon="6.61197">
        <ele>1896.4</ele>
        <time>2012-02-17T09:24:50Z</time>
      </trkpt>
      <trkpt lat="45.50277" lon="6.61198">
        <ele>1896.5</ele>
        <time>2012-02-17T09:24:51Z</time>
      </trkpt>
      <trkpt lat="45.50287" lon="6.61217">
        <ele>1900</ele>
        <time>2012-02-17T09:25:17Z</time>
      </trkpt>
      <trkpt lat="45.50285" lon="6.61229">
        <ele>1902.1</ele>
        <time>2012-02-17T09:25:35Z</time>
      </trkpt>
      <trkpt lat="45.5028" lon="6.61239">
        <ele>1905</ele>
        <time>2012-02-17T09:25:53Z</time>
      </trkpt>
      <trkpt lat="45.50279" lon="6.61239">
        <ele>1905.5</ele>
        <time>2012-02-17T09:25:54Z</time>
      </trkpt>
      <trkpt lat="45.50275" lon="6.61262">
        <ele>1908</ele>
        <time>2012-02-17T09:26:32Z</time>
      </trkpt>
      <trkpt lat="45.50272" lon="6.61274">
        <ele>1911.3</ele>
        <time>2012-02-17T09:26:49Z</time>
      </trkpt>
      <trkpt lat="45.5027" lon="6.61287">
        <ele>1914</ele>
        <time>2012-02-17T09:27:06Z</time>
      </trkpt>
      <trkpt lat="45.5027" lon="6.61287">
        <ele>1914.5</ele>
        <time>2012-02-17T09:27:07Z</time>
      </trkpt>
      <trkpt lat="45.50264" lon="6.6131">
        <ele>1919.9</ele>
        <time>2012-02-17T09:27:40Z</time>
      </trkpt>
      <trkpt lat="45.50256" lon="6.61309">
        <ele>1922.5</ele>
        <time>2012-02-17T09:28:05Z</time>
      </trkpt>
      <trkpt lat="45.50247" lon="6.61306">
        <ele>1925.3</ele>
        <time>2012-02-17T09:28:18Z</time>
      </trkpt>
      <trkpt lat="45.50247" lon="6.61306">
        <ele>1925.5</ele>
        <time>2012-02-17T09:28:19Z</time>
      </trkpt>
      <trkpt lat="45.5023" lon="6.61309">
        <ele>1927.9</ele>
        <time>2012-02-17T09:28:43Z</time>
      </trkpt>
      <trkpt lat="45.50221" lon="6.61308">
        <ele>1927.9</ele>
        <time>2012-02-17T09:28:52Z</time>
      </trkpt>
      <trkpt lat="45.50213" lon="6.61312">
        <ele>1928</ele>
        <time>2012-02-17T09:29:13Z</time>
      </trkpt>
      <trkpt lat="45.50209" lon="6.61322">
        <ele>1928</ele>
        <time>2012-02-17T09:29:23Z</time>
      </trkpt>
      <trkpt lat="45.50208" lon="6.61323">
        <ele>1928.5</ele>
        <time>2012-02-17T09:29:24Z</time>
      </trkpt>
      <trkpt lat="45.50206" lon="6.61344">
        <ele>1933</ele>
        <time>2012-02-17T09:29:46Z</time>
      </trkpt>
      <trkpt lat="45.50198" lon="6.61348">
        <ele>1933.5</ele>
        <time>2012-02-17T09:29:58Z</time>
      </trkpt>
      <trkpt lat="45.50189" lon="6.61348">
        <ele>1934.5</ele>
        <time>2012-02-17T09:30:11Z</time>
      </trkpt>
      <trkpt lat="45.50181" lon="6.6135">
        <ele>1935.4</ele>
        <time>2012-02-17T09:30:23Z</time>
      </trkpt>
      <trkpt lat="45.50173" lon="6.61354">
        <ele>1936.9</ele>
        <time>2012-02-17T09:30:36Z</time>
      </trkpt>
      <trkpt lat="45.50172" lon="6.61354">
        <ele>1936.8</ele>
        <time>2012-02-17T09:30:37Z</time>
      </trkpt>
      <trkpt lat="45.50168" lon="6.61377">
        <ele>1939.9</ele>
        <time>2012-02-17T09:31:02Z</time>
      </trkpt>
      <trkpt lat="45.50167" lon="6.6139">
        <ele>1941.5</ele>
        <time>2012-02-17T09:31:15Z</time>
      </trkpt>
      <trkpt lat="45.50162" lon="6.61399">
        <ele>1942.4</ele>
        <time>2012-02-17T09:31:30Z</time>
      </trkpt>
      <trkpt lat="45.50153" lon="6.61399">
        <ele>1943.8</ele>
        <time>2012-02-17T09:31:44Z</time>
      </trkpt>
      <trkpt lat="45.50152" lon="6.61399">
        <ele>1944.5</ele>
        <time>2012-02-17T09:31:45Z</time>
      </trkpt>
      <trkpt lat="45.50136" lon="6.61396">
        <ele>1947.5</ele>
        <time>2012-02-17T09:32:11Z</time>
      </trkpt>
      <trkpt lat="45.50127" lon="6.61394">
        <ele>1948</ele>
        <time>2012-02-17T09:32:24Z</time>
      </trkpt>
      <trkpt lat="45.50119" lon="6.61394">
        <ele>1950.5</ele>
        <time>2012-02-17T09:32:38Z</time>
      </trkpt>
      <trkpt lat="45.5011" lon="6.61394">
        <ele>1952.8</ele>
        <time>2012-02-17T09:32:53Z</time>
      </trkpt>
      <trkpt lat="45.5011" lon="6.61394">
        <ele>1953</ele>
        <time>2012-02-17T09:32:54Z</time>
      </trkpt>
      <trkpt lat="45.50093" lon="6.61395">
        <ele>1956.9</ele>
        <time>2012-02-17T09:33:22Z</time>
      </trkpt>
      <trkpt lat="45.50084" lon="6.61391">
        <ele>1957.3</ele>
        <time>2012-02-17T09:33:33Z</time>
      </trkpt>
      <trkpt lat="45.50076" lon="6.61388">
        <ele>1958.5</ele>
        <time>2012-02-17T09:33:47Z</time>
      </trkpt>
      <trkpt lat="45.50067" lon="6.61387">
        <ele>1960</ele>
        <time>2012-02-17T09:34:01Z</time>
      </trkpt>
      <trkpt lat="45.50066" lon="6.61387">
        <ele>1960.1</ele>
        <time>2012-02-17T09:34:02Z</time>
      </trkpt>
      <trkpt lat="45.5005" lon="6.61383">
        <ele>1963.5</ele>
        <time>2012-02-17T09:34:27Z</time>
      </trkpt>
      <trkpt lat="45.50041" lon="6.61383">
        <ele>1964.3</ele>
        <time>2012-02-17T09:34:40Z</time>
      </trkpt>
      <trkpt lat="45.50035" lon="6.61391">
        <ele>1965.5</ele>
        <time>2012-02-17T09:34:55Z</time>
      </trkpt>
      <trkpt lat="45.50038" lon="6.61403">
        <ele>1967.5</ele>
        <time>2012-02-17T09:35:10Z</time>
      </trkpt>
      <trkpt lat="45.50038" lon="6.61404">
        <ele>1967.4</ele>
        <time>2012-02-17T09:35:11Z</time>
      </trkpt>
      <trkpt lat="45.50042" lon="6.61428">
        <ele>1970.3</ele>
        <time>2012-02-17T09:35:38Z</time>
      </trkpt>
      <trkpt lat="45.50044" lon="6.6144">
        <ele>1972.8</ele>
        <time>2012-02-17T09:35:53Z</time>
      </trkpt>
      <trkpt lat="45.50044" lon="6.61452">
        <ele>1975.3</ele>
        <time>2012-02-17T09:36:08Z</time>
      </trkpt>
      <trkpt lat="45.5004" lon="6.61462">
        <ele>1977.8</ele>
        <time>2012-02-17T09:38:03Z</time>
      </trkpt>
      <trkpt lat="45.5004" lon="6.61463">
        <ele>1977.9</ele>
        <time>2012-02-17T09:38:04Z</time>
      </trkpt>
      <trkpt lat="45.50025" lon="6.61468">
        <ele>1981.5</ele>
        <time>2012-02-17T09:38:29Z</time>
      </trkpt>
      <trkpt lat="45.50016" lon="6.61466">
        <ele>1982.5</ele>
        <time>2012-02-17T09:38:41Z</time>
      </trkpt>
      <trkpt lat="45.50008" lon="6.61462">
        <ele>1986.4</ele>
        <time>2012-02-17T09:38:54Z</time>
      </trkpt>
      <trkpt lat="45.49999" lon="6.61459">
        <ele>1988.3</ele>
        <time>2012-02-17T09:39:08Z</time>
      </trkpt>
      <trkpt lat="45.49999" lon="6.61459">
        <ele>1988.4</ele>
        <time>2012-02-17T09:39:09Z</time>
      </trkpt>
      <trkpt lat="45.49982" lon="6.61458">
        <ele>1992.3</ele>
        <time>2012-02-17T09:39:35Z</time>
      </trkpt>
      <trkpt lat="45.49974" lon="6.61462">
        <ele>1995.6</ele>
        <time>2012-02-17T09:39:50Z</time>
      </trkpt>
      <trkpt lat="45.49966" lon="6.61467">
        <ele>1998</ele>
        <time>2012-02-17T09:40:02Z</time>
      </trkpt>
      <trkpt lat="45.49961" lon="6.61478">
        <ele>1998.5</ele>
        <time>2012-02-17T09:40:15Z</time>
      </trkpt>
      <trkpt lat="45.49961" lon="6.61479">
        <ele>1999</ele>
        <time>2012-02-17T09:40:16Z</time>
      </trkpt>
      <trkpt lat="45.49954" lon="6.615">
        <ele>1980</ele>
        <time>2012-02-17T09:50:01Z</time>
      </trkpt>
      <trkpt lat="45.49954" lon="6.61501">
        <ele>1980.1</ele>
        <time>2012-02-17T09:50:02Z</time>
      </trkpt>
      <trkpt lat="45.49953" lon="6.61524">
        <ele>1981.4</ele>
        <time>2012-02-17T09:50:35Z</time>
      </trkpt>
      <trkpt lat="45.49959" lon="6.61535">
        <ele>1983</ele>
        <time>2012-02-17T09:51:02Z</time>
      </trkpt>
      <trkpt lat="45.49964" lon="6.61545">
        <ele>1983.1</ele>
        <time>2012-02-17T09:51:14Z</time>
      </trkpt>
      <trkpt lat="45.49964" lon="6.61546">
        <ele>1983.6</ele>
        <time>2012-02-17T09:51:15Z</time>
      </trkpt>
      <trkpt lat="45.49957" lon="6.61566">
        <ele>1988.1</ele>
        <time>2012-02-17T09:51:40Z</time>
      </trkpt>
      <trkpt lat="45.4996" lon="6.61578">
        <ele>1990.5</ele>
        <time>2012-02-17T09:51:53Z</time>
      </trkpt>
      <trkpt lat="45.49965" lon="6.61588">
        <ele>1991.9</ele>
        <time>2012-02-17T09:52:06Z</time>
      </trkpt>
      <trkpt lat="45.4997" lon="6.61598">
        <ele>1995</ele>
        <time>2012-02-17T09:52:19Z</time>
      </trkpt>
      <trkpt lat="45.4997" lon="6.61599">
        <ele>1995.1</ele>
        <time>2012-02-17T09:52:20Z</time>
      </trkpt>
      <trkpt lat="45.49979" lon="6.6162">
        <ele>1998.1</ele>
        <time>2012-02-17T09:52:49Z</time>
      </trkpt>
      <trkpt lat="45.49986" lon="6.61627">
        <ele>1999.5</ele>
        <time>2012-02-17T09:53:04Z</time>
      </trkpt>
      <trkpt lat="45.4998" lon="6.61637">
        <ele>2002.1</ele>
        <time>2012-02-17T09:53:32Z</time>
      </trkpt>
      <trkpt lat="45.4998" lon="6.61637">
        <ele>2002.3</ele>
        <time>2012-02-17T09:53:33Z</time>
      </trkpt>
      <trkpt lat="45.49963" lon="6.61632">
        <ele>2005</ele>
        <time>2012-02-17T09:54:00Z</time>
      </trkpt>
      <trkpt lat="45.49954" lon="6.61631">
        <ele>2008</ele>
        <time>2012-02-17T09:54:14Z</time>
      </trkpt>
      <trkpt lat="45.49945" lon="6.61631">
        <ele>2009.5</ele>
        <time>2012-02-17T09:54:29Z</time>
      </trkpt>
      <trkpt lat="45.49948" lon="6.61643">
        <ele>2013.8</ele>
        <time>2012-02-17T09:54:57Z</time>
      </trkpt>
      <trkpt lat="45.49949" lon="6.61644">
        <ele>2013.9</ele>
        <time>2012-02-17T09:54:58Z</time>
      </trkpt>
      <trkpt lat="45.49962" lon="6.61658">
        <ele>2015.8</ele>
        <time>2012-02-17T09:55:22Z</time>
      </trkpt>
      <trkpt lat="45.49968" lon="6.61668">
        <ele>2016.9</ele>
        <time>2012-02-17T09:55:35Z</time>
      </trkpt>
      <trkpt lat="45.49974" lon="6.61676">
        <ele>2018.8</ele>
        <time>2012-02-17T09:55:48Z</time>
      </trkpt>
      <trkpt lat="45.4998" lon="6.61684">
        <ele>2019</ele>
        <time>2012-02-17T09:56:01Z</time>
      </trkpt>
      <trkpt lat="45.49981" lon="6.61685">
        <ele>2019</ele>
        <time>2012-02-17T09:56:02Z</time>
      </trkpt>
      <trkpt lat="45.49977" lon="6.61695">
        <ele>2025.3</ele>
        <time>2012-02-17T09:56:40Z</time>
      </trkpt>
      <trkpt lat="45.49968" lon="6.61692">
        <ele>2027.5</ele>
        <time>2012-02-17T09:57:03Z</time>
      </trkpt>
      <trkpt lat="45.49973" lon="6.61702">
        <ele>2030.3</ele>
        <time>2012-02-17T09:57:18Z</time>
      </trkpt>
      <trkpt lat="45.49973" lon="6.61703">
        <ele>2030.4</ele>
        <time>2012-02-17T09:57:19Z</time>
      </trkpt>
      <trkpt lat="45.49971" lon="6.61717">
        <ele>2037.5</ele>
        <time>2012-02-17T09:58:29Z</time>
      </trkpt>
      <trkpt lat="45.4997" lon="6.61717">
        <ele>2037.5</ele>
        <time>2012-02-17T09:58:30Z</time>
      </trkpt>
      <trkpt lat="45.49954" lon="6.61714">
        <ele>2042</ele>
        <time>2012-02-17T09:58:56Z</time>
      </trkpt>
      <trkpt lat="45.49946" lon="6.61712">
        <ele>2045</ele>
        <time>2012-02-17T09:59:11Z</time>
      </trkpt>
      <trkpt lat="45.49937" lon="6.61711">
        <ele>2047.8</ele>
        <time>2012-02-17T09:59:32Z</time>
      </trkpt>
      <trkpt lat="45.49936" lon="6.61711">
        <ele>2047.8</ele>
        <time>2012-02-17T09:59:33Z</time>
      </trkpt>
      <trkpt lat="45.49948" lon="6.61728">
        <ele>2050.5</ele>
        <time>2012-02-17T09:59:56Z</time>
      </trkpt>
      <trkpt lat="45.49953" lon="6.61738">
        <ele>2051.6</ele>
        <time>2012-02-17T10:00:11Z</time>
      </trkpt>
      <trkpt lat="45.49945" lon="6.6174">
        <ele>2053.8</ele>
        <time>2012-02-17T10:00:33Z</time>
      </trkpt>
      <trkpt lat="45.49947" lon="6.61753">
        <ele>2059.6</ele>
        <time>2012-02-17T10:01:15Z</time>
      </trkpt>
      <trkpt lat="45.49946" lon="6.61753">
        <ele>2059.6</ele>
        <time>2012-02-17T10:01:16Z</time>
      </trkpt>
      <trkpt lat="45.49954" lon="6.61774">
        <ele>2067.3</ele>
        <time>2012-02-17T10:02:02Z</time>
      </trkpt>
      <trkpt lat="45.49945" lon="6.61772">
        <ele>2069.8</ele>
        <time>2012-02-17T10:02:24Z</time>
      </trkpt>
      <trkpt lat="45.49945" lon="6.61772">
        <ele>2069.6</ele>
        <time>2012-02-17T10:02:25Z</time>
      </trkpt>
      <trkpt lat="45.49929" lon="6.61762">
        <ele>2071.1</ele>
        <time>2012-02-17T10:02:43Z</time>
      </trkpt>
      <trkpt lat="45.49922" lon="6.61757">
        <ele>2071.5</ele>
        <time>2012-02-17T10:02:52Z</time>
      </trkpt>
      <trkpt lat="45.49913" lon="6.61754">
        <ele>2073.1</ele>
        <time>2012-02-17T10:03:03Z</time>
      </trkpt>
      <trkpt lat="45.49905" lon="6.61753">
        <ele>2073.3</ele>
        <time>2012-02-17T10:03:14Z</time>
      </trkpt>
      <trkpt lat="45.49896" lon="6.61754">
        <ele>2075.1</ele>
        <time>2012-02-17T10:03:26Z</time>
      </trkpt>
      <trkpt lat="45.49888" lon="6.61752">
        <ele>2075.5</ele>
        <time>2012-02-17T10:03:38Z</time>
      </trkpt>
      <trkpt lat="45.49887" lon="6.61752">
        <ele>2075.3</ele>
        <time>2012-02-17T10:03:39Z</time>
      </trkpt>
      <trkpt lat="45.49871" lon="6.6175">
        <ele>2078.1</ele>
        <time>2012-02-17T10:03:58Z</time>
      </trkpt>
      <trkpt lat="45.49862" lon="6.61747">
        <ele>2078.5</ele>
        <time>2012-02-17T10:04:07Z</time>
      </trkpt>
      <trkpt lat="45.49855" lon="6.61743">
        <ele>2078.3</ele>
        <time>2012-02-17T10:04:16Z</time>
      </trkpt>
      <trkpt lat="45.49847" lon="6.61738">
        <ele>2078.6</ele>
        <time>2012-02-17T10:04:25Z</time>
      </trkpt>
      <trkpt lat="45.49839" lon="6.61735">
        <ele>2079.6</ele>
        <time>2012-02-17T10:04:36Z</time>
      </trkpt>
      <trkpt lat="45.4983" lon="6.61735">
        <ele>2081</ele>
        <time>2012-02-17T10:04:49Z</time>
      </trkpt>
      <trkpt lat="45.49829" lon="6.61735">
        <ele>2081.1</ele>
        <time>2012-02-17T10:04:50Z</time>
      </trkpt>
      <trkpt lat="45.49813" lon="6.61733">
        <ele>2082.8</ele>
        <time>2012-02-17T10:05:11Z</time>
      </trkpt>
      <trkpt lat="45.49805" lon="6.61729">
        <ele>2084.1</ele>
        <time>2012-02-17T10:05:22Z</time>
      </trkpt>
      <trkpt lat="45.49797" lon="6.61726">
        <ele>2084.3</ele>
        <time>2012-02-17T10:05:34Z</time>
      </trkpt>
      <trkpt lat="45.49788" lon="6.61725">
        <ele>2086.6</ele>
        <time>2012-02-17T10:05:47Z</time>
      </trkpt>
      <trkpt lat="45.4978" lon="6.61721">
        <ele>2087.3</ele>
        <time>2012-02-17T10:05:58Z</time>
      </trkpt>
      <trkpt lat="45.4978" lon="6.6172">
        <ele>2087.1</ele>
        <time>2012-02-17T10:05:59Z</time>
      </trkpt>
      <trkpt lat="45.49765" lon="6.61711">
        <ele>2089.3</ele>
        <time>2012-02-17T10:06:19Z</time>
      </trkpt>
      <trkpt lat="45.49756" lon="6.61708">
        <ele>2090.1</ele>
        <time>2012-02-17T10:06:31Z</time>
      </trkpt>
      <trkpt lat="45.49747" lon="6.61708">
        <ele>2091.3</ele>
        <time>2012-02-17T10:06:43Z</time>
      </trkpt>
      <trkpt lat="45.49739" lon="6.6171">
        <ele>2091.5</ele>
        <time>2012-02-17T10:06:55Z</time>
      </trkpt>
      <trkpt lat="45.4973" lon="6.61711">
        <ele>2092.6</ele>
        <time>2012-02-17T10:07:10Z</time>
      </trkpt>
      <trkpt lat="45.49729" lon="6.61711">
        <ele>2092.3</ele>
        <time>2012-02-17T10:07:11Z</time>
      </trkpt>
      <trkpt lat="45.49715" lon="6.61701">
        <ele>2095.6</ele>
        <time>2012-02-17T10:07:34Z</time>
      </trkpt>
      <trkpt lat="45.49714" lon="6.61713">
        <ele>2099.1</ele>
        <time>2012-02-17T10:08:06Z</time>
      </trkpt>
      <trkpt lat="45.4972" lon="6.61721">
        <ele>2100</ele>
        <time>2012-02-17T10:08:17Z</time>
      </trkpt>
      <trkpt lat="45.4972" lon="6.61722">
        <ele>2100.3</ele>
        <time>2012-02-17T10:08:18Z</time>
      </trkpt>
      <trkpt lat="45.49733" lon="6.61738">
        <ele>2103.3</ele>
        <time>2012-02-17T10:08:45Z</time>
      </trkpt>
      <trkpt lat="45.49741" lon="6.61744">
        <ele>2106.8</ele>
        <time>2012-02-17T10:09:03Z</time>
      </trkpt>
      <trkpt lat="45.49732" lon="6.61747">
        <ele>2108.8</ele>
        <time>2012-02-17T10:09:25Z</time>
      </trkpt>
      <trkpt lat="45.49732" lon="6.61747">
        <ele>2109</ele>
        <time>2012-02-17T10:09:26Z</time>
      </trkpt>
      <trkpt lat="45.49715" lon="6.61749">
        <ele>2111.8</ele>
        <time>2012-02-17T10:09:52Z</time>
      </trkpt>
      <trkpt lat="45.49707" lon="6.61745">
        <ele>2114.1</ele>
        <time>2012-02-17T10:10:07Z</time>
      </trkpt>
      <trkpt lat="45.49708" lon="6.61757">
        <ele>2117.3</ele>
        <time>2012-02-17T10:10:36Z</time>
      </trkpt>
      <trkpt lat="45.49709" lon="6.61759">
        <ele>2117.3</ele>
        <time>2012-02-17T10:10:37Z</time>
      </trkpt>
      <trkpt lat="45.4972" lon="6.61775">
        <ele>2119.6</ele>
        <time>2012-02-17T10:10:57Z</time>
      </trkpt>
      <trkpt lat="45.49728" lon="6.61781">
        <ele>2122.5</ele>
        <time>2012-02-17T10:11:12Z</time>
      </trkpt>
      <trkpt lat="45.4972" lon="6.61785">
        <ele>2126</ele>
        <time>2012-02-17T10:11:45Z</time>
      </trkpt>
      <trkpt lat="45.49719" lon="6.61785">
        <ele>2126.3</ele>
        <time>2012-02-17T10:11:46Z</time>
      </trkpt>
      <trkpt lat="45.49713" lon="6.61795">
        <ele>2131</ele>
        <time>2012-02-17T10:12:32Z</time>
      </trkpt>
      <trkpt lat="45.49719" lon="6.61804">
        <ele>2132.6</ele>
        <time>2012-02-17T10:12:43Z</time>
      </trkpt>
      <trkpt lat="45.49727" lon="6.61808">
        <ele>2135.6</ele>
        <time>2012-02-17T10:12:58Z</time>
      </trkpt>
      <trkpt lat="45.49728" lon="6.61809">
        <ele>2135.5</ele>
        <time>2012-02-17T10:12:59Z</time>
      </trkpt>
      <trkpt lat="45.49736" lon="6.61823">
        <ele>2141.8</ele>
        <time>2012-02-17T10:13:47Z</time>
      </trkpt>
      <trkpt lat="45.49744" lon="6.61826">
        <ele>2143.8</ele>
        <time>2012-02-17T10:14:02Z</time>
      </trkpt>
      <trkpt lat="45.49745" lon="6.61827">
        <ele>2143.8</ele>
        <time>2012-02-17T10:14:03Z</time>
      </trkpt>
      <trkpt lat="45.49733" lon="6.61846">
        <ele>2149.8</ele>
        <time>2012-02-17T10:14:38Z</time>
      </trkpt>
      <trkpt lat="45.49727" lon="6.61855">
        <ele>2149.6</ele>
        <time>2012-02-17T10:14:49Z</time>
      </trkpt>
      <trkpt lat="45.4973" lon="6.61866">
        <ele>2152.3</ele>
        <time>2012-02-17T10:15:10Z</time>
      </trkpt>
      <trkpt lat="45.49731" lon="6.61867">
        <ele>2152.3</ele>
        <time>2012-02-17T10:15:11Z</time>
      </trkpt>
      <trkpt lat="45.49746" lon="6.61871">
        <ele>2156</ele>
        <time>2012-02-17T10:15:35Z</time>
      </trkpt>
      <trkpt lat="45.49749" lon="6.61883">
        <ele>2160.1</ele>
        <time>2012-02-17T10:16:01Z</time>
      </trkpt>
      <trkpt lat="45.49746" lon="6.61895">
        <ele>2161</ele>
        <time>2012-02-17T10:16:15Z</time>
      </trkpt>
      <trkpt lat="45.49746" lon="6.61896">
        <ele>2161.1</ele>
        <time>2012-02-17T10:16:16Z</time>
      </trkpt>
      <trkpt lat="45.49755" lon="6.61907">
        <ele>2166.3</ele>
        <time>2012-02-17T10:16:53Z</time>
      </trkpt>
      <trkpt lat="45.49764" lon="6.61906">
        <ele>2167.8</ele>
        <time>2012-02-17T10:17:07Z</time>
      </trkpt>
      <trkpt lat="45.49756" lon="6.61911">
        <ele>2170.6</ele>
        <time>2012-02-17T10:17:27Z</time>
      </trkpt>
      <trkpt lat="45.49755" lon="6.61911">
        <ele>2170.8</ele>
        <time>2012-02-17T10:17:28Z</time>
      </trkpt>
      <trkpt lat="45.49741" lon="6.61925">
        <ele>2174.8</ele>
        <time>2012-02-17T10:17:57Z</time>
      </trkpt>
      <trkpt lat="45.49738" lon="6.61937">
        <ele>2176.6</ele>
        <time>2012-02-17T10:18:15Z</time>
      </trkpt>
      <trkpt lat="45.49743" lon="6.61946">
        <ele>2180.8</ele>
        <time>2012-02-17T10:18:32Z</time>
      </trkpt>
      <trkpt lat="45.49744" lon="6.61946">
        <ele>2181.1</ele>
        <time>2012-02-17T10:18:33Z</time>
      </trkpt>
      <trkpt lat="45.49756" lon="6.61962">
        <ele>2184.8</ele>
        <time>2012-02-17T10:19:02Z</time>
      </trkpt>
      <trkpt lat="45.49764" lon="6.61968">
        <ele>2188.1</ele>
        <time>2012-02-17T10:19:20Z</time>
      </trkpt>
      <trkpt lat="45.49771" lon="6.61976">
        <ele>2188.8</ele>
        <time>2012-02-17T10:19:38Z</time>
      </trkpt>
      <trkpt lat="45.49771" lon="6.61977">
        <ele>2189.8</ele>
        <time>2012-02-17T10:19:39Z</time>
      </trkpt>
      <trkpt lat="45.49768" lon="6.61999">
        <ele>2195.8</ele>
        <time>2012-02-17T10:20:17Z</time>
      </trkpt>
      <trkpt lat="45.49765" lon="6.6201">
        <ele>2196.6</ele>
        <time>2012-02-17T10:20:33Z</time>
      </trkpt>
      <trkpt lat="45.49762" lon="6.62023">
        <ele>2199.3</ele>
        <time>2012-02-17T10:20:49Z</time>
      </trkpt>
      <trkpt lat="45.49762" lon="6.62024">
        <ele>2199.6</ele>
        <time>2012-02-17T10:20:50Z</time>
      </trkpt>
      <trkpt lat="45.49779" lon="6.62026">
        <ele>2203.6</ele>
        <time>2012-02-17T10:23:16Z</time>
      </trkpt>
      <trkpt lat="45.49779" lon="6.62026">
        <ele>2204.1</ele>
        <time>2012-02-17T10:23:17Z</time>
      </trkpt>
      <trkpt lat="45.49786" lon="6.62035">
        <ele>2211.1</ele>
        <time>2012-02-17T10:23:58Z</time>
      </trkpt>
      <trkpt lat="45.49784" lon="6.62047">
        <ele>2211.8</ele>
        <time>2012-02-17T10:24:12Z</time>
      </trkpt>
      <trkpt lat="45.49784" lon="6.62059">
        <ele>2213.8</ele>
        <time>2012-02-17T10:24:23Z</time>
      </trkpt>
      <trkpt lat="45.49784" lon="6.6206">
        <ele>2214.1</ele>
        <time>2012-02-17T10:24:24Z</time>
      </trkpt>
      <trkpt lat="45.49799" lon="6.62048">
        <ele>2220.1</ele>
        <time>2012-02-17T10:24:56Z</time>
      </trkpt>
      <trkpt lat="45.49808" lon="6.62046">
        <ele>2221.6</ele>
        <time>2012-02-17T10:25:09Z</time>
      </trkpt>
      <trkpt lat="45.49805" lon="6.62058">
        <ele>2223.1</ele>
        <time>2012-02-17T10:25:22Z</time>
      </trkpt>
      <trkpt lat="45.49802" lon="6.62069">
        <ele>2224.1</ele>
        <time>2012-02-17T10:25:30Z</time>
      </trkpt>
      <trkpt lat="45.49802" lon="6.6207">
        <ele>2224.3</ele>
        <time>2012-02-17T10:25:31Z</time>
      </trkpt>
      <trkpt lat="45.498" lon="6.62093">
        <ele>2226.3</ele>
        <time>2012-02-17T10:25:50Z</time>
      </trkpt>
      <trkpt lat="45.49797" lon="6.62105">
        <ele>2228.5</ele>
        <time>2012-02-17T10:26:02Z</time>
      </trkpt>
      <trkpt lat="45.49792" lon="6.62115">
        <ele>2231.5</ele>
        <time>2012-02-17T10:26:14Z</time>
      </trkpt>
      <trkpt lat="45.49789" lon="6.62126">
        <ele>2232.1</ele>
        <time>2012-02-17T10:26:24Z</time>
      </trkpt>
      <trkpt lat="45.49786" lon="6.62137">
        <ele>2233.1</ele>
        <time>2012-02-17T10:26:34Z</time>
      </trkpt>
      <trkpt lat="45.49786" lon="6.62138">
        <ele>2233.3</ele>
        <time>2012-02-17T10:26:35Z</time>
      </trkpt>
      <trkpt lat="45.49772" lon="6.62148">
        <ele>2236.1</ele>
        <time>2012-02-17T10:26:54Z</time>
      </trkpt>
      <trkpt lat="45.49764" lon="6.62151">
        <ele>2237.1</ele>
        <time>2012-02-17T10:27:05Z</time>
      </trkpt>
      <trkpt lat="45.49756" lon="6.62157">
        <ele>2240</ele>
        <time>2012-02-17T10:27:25Z</time>
      </trkpt>
      <trkpt lat="45.49753" lon="6.62167">
        <ele>2239.1</ele>
        <time>2012-02-17T10:35:37Z</time>
      </trkpt>
      <trkpt lat="45.49753" lon="6.62169">
        <ele>2239.3</ele>
        <time>2012-02-17T10:35:38Z</time>
      </trkpt>
      <trkpt lat="45.49738" lon="6.62177">
        <ele>2239.6</ele>
        <time>2012-02-17T10:35:54Z</time>
      </trkpt>
      <trkpt lat="45.4973" lon="6.62181">
        <ele>2239.8</ele>
        <time>2012-02-17T10:36:03Z</time>
      </trkpt>
      <trkpt lat="45.49722" lon="6.62185">
        <ele>2239.8</ele>
        <time>2012-02-17T10:36:12Z</time>
      </trkpt>
      <trkpt lat="45.49713" lon="6.62188">
        <ele>2240.1</ele>
        <time>2012-02-17T10:36:20Z</time>
      </trkpt>
      <trkpt lat="45.49705" lon="6.62191">
        <ele>2240.1</ele>
        <time>2012-02-17T10:36:29Z</time>
      </trkpt>
      <trkpt lat="45.49696" lon="6.62193">
        <ele>2240.8</ele>
        <time>2012-02-17T10:36:38Z</time>
      </trkpt>
      <trkpt lat="45.49696" lon="6.62194">
        <ele>2240.6</ele>
        <time>2012-02-17T10:36:39Z</time>
      </trkpt>
      <trkpt lat="45.4968" lon="6.622">
        <ele>2242.1</ele>
        <time>2012-02-17T10:36:58Z</time>
      </trkpt>
      <trkpt lat="45.49671" lon="6.62202">
        <ele>2243.5</ele>
        <time>2012-02-17T10:37:08Z</time>
      </trkpt>
      <trkpt lat="45.49662" lon="6.62203">
        <ele>2243</ele>
        <time>2012-02-17T10:37:18Z</time>
      </trkpt>
      <trkpt lat="45.49654" lon="6.62203">
        <ele>2243.8</ele>
        <time>2012-02-17T10:37:26Z</time>
      </trkpt>
      <trkpt lat="45.49646" lon="6.62205">
        <ele>2241.8</ele>
        <time>2012-02-17T10:37:34Z</time>
      </trkpt>
      <trkpt lat="45.49637" lon="6.62208">
        <ele>2241.6</ele>
        <time>2012-02-17T10:37:54Z</time>
      </trkpt>
      <trkpt lat="45.49637" lon="6.62208">
        <ele>2241.3</ele>
        <time>2012-02-17T10:37:55Z</time>
      </trkpt>
      <trkpt lat="45.49623" lon="6.62219">
        <ele>2240.8</ele>
        <time>2012-02-17T10:38:15Z</time>
      </trkpt>
      <trkpt lat="45.49617" lon="6.62227">
        <ele>2239.6</ele>
        <time>2012-02-17T10:38:23Z</time>
      </trkpt>
      <trkpt lat="45.49612" lon="6.62237">
        <ele>2240.6</ele>
        <time>2012-02-17T10:38:31Z</time>
      </trkpt>
      <trkpt lat="45.49607" lon="6.62247">
        <ele>2240.8</ele>
        <time>2012-02-17T10:38:39Z</time>
      </trkpt>
      <trkpt lat="45.49604" lon="6.62258">
        <ele>2240.8</ele>
        <time>2012-02-17T10:38:47Z</time>
      </trkpt>
      <trkpt lat="45.496" lon="6.62269">
        <ele>2240.8</ele>
        <time>2012-02-17T10:38:55Z</time>
      </trkpt>
      <trkpt lat="45.496" lon="6.6227">
        <ele>2240.8</ele>
        <time>2012-02-17T10:38:56Z</time>
      </trkpt>
      <trkpt lat="45.49595" lon="6.62291">
        <ele>2242.3</ele>
        <time>2012-02-17T10:39:14Z</time>
      </trkpt>
      <trkpt lat="45.49594" lon="6.62304">
        <ele>2243.3</ele>
        <time>2012-02-17T10:39:26Z</time>
      </trkpt>
      <trkpt lat="45.49594" lon="6.62317">
        <ele>2245.1</ele>
        <time>2012-02-17T10:39:38Z</time>
      </trkpt>
      <trkpt lat="45.49594" lon="6.62329">
        <ele>2247.1</ele>
        <time>2012-02-17T10:39:48Z</time>
      </trkpt>
      <trkpt lat="45.49595" lon="6.62342">
        <ele>2247</ele>
        <time>2012-02-17T10:39:57Z</time>
      </trkpt>
      <trkpt lat="45.49595" lon="6.62343">
        <ele>2246.8</ele>
        <time>2012-02-17T10:39:58Z</time>
      </trkpt>
      <trkpt lat="45.49597" lon="6.62364">
        <ele>2243.8</ele>
        <time>2012-02-17T10:40:12Z</time>
      </trkpt>
      <trkpt lat="45.49593" lon="6.62374">
        <ele>2242.5</ele>
        <time>2012-02-17T10:40:20Z</time>
      </trkpt>
      <trkpt lat="45.49594" lon="6.62386">
        <ele>2244.6</ele>
        <time>2012-02-17T10:40:31Z</time>
      </trkpt>
      <trkpt lat="45.49596" lon="6.62399">
        <ele>2245.6</ele>
        <time>2012-02-17T10:40:44Z</time>
      </trkpt>
      <trkpt lat="45.49596" lon="6.62411">
        <ele>2247.3</ele>
        <time>2012-02-17T10:40:57Z</time>
      </trkpt>
      <trkpt lat="45.49596" lon="6.62424">
        <ele>2248.3</ele>
        <time>2012-02-17T10:41:09Z</time>
      </trkpt>
      <trkpt lat="45.49595" lon="6.62425">
        <ele>2248.3</ele>
        <time>2012-02-17T10:41:10Z</time>
      </trkpt>
      <trkpt lat="45.49597" lon="6.62449">
        <ele>2249.6</ele>
        <time>2012-02-17T10:41:31Z</time>
      </trkpt>
      <trkpt lat="45.49598" lon="6.6246">
        <ele>2251.3</ele>
        <time>2012-02-17T10:41:39Z</time>
      </trkpt>
      <trkpt lat="45.49599" lon="6.62473">
        <ele>2250.5</ele>
        <time>2012-02-17T10:41:47Z</time>
      </trkpt>
      <trkpt lat="45.49602" lon="6.62484">
        <ele>2250.3</ele>
        <time>2012-02-17T10:41:54Z</time>
      </trkpt>
      <trkpt lat="45.49604" lon="6.62496">
        <ele>2250.8</ele>
        <time>2012-02-17T10:42:03Z</time>
      </trkpt>
      <trkpt lat="45.49602" lon="6.62507">
        <ele>2250.5</ele>
        <time>2012-02-17T10:42:11Z</time>
      </trkpt>
      <trkpt lat="45.49602" lon="6.62509">
        <ele>2250.6</ele>
        <time>2012-02-17T10:42:12Z</time>
      </trkpt>
      <trkpt lat="45.49599" lon="6.62532">
        <ele>2251.3</ele>
        <time>2012-02-17T10:42:33Z</time>
      </trkpt>
      <trkpt lat="45.49596" lon="6.62543">
        <ele>2254.1</ele>
        <time>2012-02-17T10:42:45Z</time>
      </trkpt>
      <trkpt lat="45.49594" lon="6.62555">
        <ele>2255.6</ele>
        <time>2012-02-17T10:42:58Z</time>
      </trkpt>
      <trkpt lat="45.49593" lon="6.62567">
        <ele>2258.1</ele>
        <time>2012-02-17T10:43:13Z</time>
      </trkpt>
      <trkpt lat="45.49592" lon="6.62568">
        <ele>2258.6</ele>
        <time>2012-02-17T10:43:14Z</time>
      </trkpt>
      <trkpt lat="45.4959" lon="6.62591">
        <ele>2261.8</ele>
        <time>2012-02-17T10:43:43Z</time>
      </trkpt>
      <trkpt lat="45.49586" lon="6.62602">
        <ele>2262.6</ele>
        <time>2012-02-17T10:43:54Z</time>
      </trkpt>
      <trkpt lat="45.49582" lon="6.62614">
        <ele>2263.8</ele>
        <time>2012-02-17T10:44:03Z</time>
      </trkpt>
      <trkpt lat="45.49578" lon="6.62625">
        <ele>2266.3</ele>
        <time>2012-02-17T10:44:15Z</time>
      </trkpt>
      <trkpt lat="45.49578" lon="6.62626">
        <ele>2266.3</ele>
        <time>2012-02-17T10:44:16Z</time>
      </trkpt>
      <trkpt lat="45.49568" lon="6.62645">
        <ele>2269.3</ele>
        <time>2012-02-17T10:44:36Z</time>
      </trkpt>
      <trkpt lat="45.49564" lon="6.62656">
        <ele>2271</ele>
        <time>2012-02-17T10:44:51Z</time>
      </trkpt>
      <trkpt lat="45.4956" lon="6.62667">
        <ele>2270.1</ele>
        <time>2012-02-17T10:44:59Z</time>
      </trkpt>
      <trkpt lat="45.49558" lon="6.62679">
        <ele>2269.1</ele>
        <time>2012-02-17T10:45:04Z</time>
      </trkpt>
      <trkpt lat="45.49558" lon="6.62691">
        <ele>2269.1</ele>
        <time>2012-02-17T10:45:15Z</time>
      </trkpt>
      <trkpt lat="45.49556" lon="6.62703">
        <ele>2273.8</ele>
        <time>2012-02-17T10:45:30Z</time>
      </trkpt>
      <trkpt lat="45.49555" lon="6.62703">
        <ele>2273.6</ele>
        <time>2012-02-17T10:45:31Z</time>
      </trkpt>
      <trkpt lat="45.49546" lon="6.62719">
        <ele>2276.8</ele>
        <time>2012-02-17T10:45:58Z</time>
      </trkpt>
      <trkpt lat="45.49539" lon="6.62726">
        <ele>2282.1</ele>
        <time>2012-02-17T10:46:25Z</time>
      </trkpt>
      <trkpt lat="45.49531" lon="6.62722">
        <ele>2285.6</ele>
        <time>2012-02-17T10:46:40Z</time>
      </trkpt>
      <trkpt lat="45.49531" lon="6.62722">
        <ele>2286.1</ele>
        <time>2012-02-17T10:46:41Z</time>
      </trkpt>
      <trkpt lat="45.49526" lon="6.62741">
        <ele>2291.3</ele>
        <time>2012-02-17T10:47:19Z</time>
      </trkpt>
      <trkpt lat="45.49528" lon="6.62753">
        <ele>2293.1</ele>
        <time>2012-02-17T10:47:33Z</time>
      </trkpt>
      <trkpt lat="45.49523" lon="6.62764">
        <ele>2297.8</ele>
        <time>2012-02-17T10:48:01Z</time>
      </trkpt>
      <trkpt lat="45.49522" lon="6.62764">
        <ele>2298.1</ele>
        <time>2012-02-17T10:48:02Z</time>
      </trkpt>
      <trkpt lat="45.4951" lon="6.62779">
        <ele>2306.3</ele>
        <time>2012-02-17T10:48:51Z</time>
      </trkpt>
      <trkpt lat="45.49501" lon="6.62777">
        <ele>2308.8</ele>
        <time>2012-02-17T10:49:06Z</time>
      </trkpt>
      <trkpt lat="45.49501" lon="6.62778">
        <ele>2308.6</ele>
        <time>2012-02-17T10:49:07Z</time>
      </trkpt>
      <trkpt lat="45.49498" lon="6.62801">
        <ele>2311.8</ele>
        <time>2012-02-17T10:49:31Z</time>
      </trkpt>
      <trkpt lat="45.49501" lon="6.62812">
        <ele>2314.8</ele>
        <time>2012-02-17T10:49:43Z</time>
      </trkpt>
      <trkpt lat="45.49501" lon="6.62824">
        <ele>2315.6</ele>
        <time>2012-02-17T10:49:54Z</time>
      </trkpt>
      <trkpt lat="45.49503" lon="6.62837">
        <ele>2316</ele>
        <time>2012-02-17T10:50:04Z</time>
      </trkpt>
      <trkpt lat="45.49508" lon="6.62847">
        <ele>2316.3</ele>
        <time>2012-02-17T10:50:11Z</time>
      </trkpt>
      <trkpt lat="45.49508" lon="6.62848">
        <ele>2316.5</ele>
        <time>2012-02-17T10:50:12Z</time>
      </trkpt>
      <trkpt lat="45.49519" lon="6.62865">
        <ele>2316.8</ele>
        <time>2012-02-17T10:50:28Z</time>
      </trkpt>
      <trkpt lat="45.49524" lon="6.62875">
        <ele>2318.1</ele>
        <time>2012-02-17T10:50:38Z</time>
      </trkpt>
      <trkpt lat="45.49533" lon="6.62877">
        <ele>2320.5</ele>
        <time>2012-02-17T10:50:53Z</time>
      </trkpt>
      <trkpt lat="45.49542" lon="6.62873">
        <ele>2322.8</ele>
        <time>2012-02-17T10:51:06Z</time>
      </trkpt>
      <trkpt lat="45.49548" lon="6.62882">
        <ele>2324.6</ele>
        <time>2012-02-17T10:51:19Z</time>
      </trkpt>
      <trkpt lat="45.49548" lon="6.62883">
        <ele>2324.8</ele>
        <time>2012-02-17T10:51:20Z</time>
      </trkpt>
      <trkpt lat="45.4956" lon="6.62898">
        <ele>2328.6</ele>
        <time>2012-02-17T10:51:47Z</time>
      </trkpt>
      <trkpt lat="45.49561" lon="6.62911">
        <ele>2331.5</ele>
        <time>2012-02-17T10:52:02Z</time>
      </trkpt>
      <trkpt lat="45.49564" lon="6.62923">
        <ele>2334.1</ele>
        <time>2012-02-17T10:52:18Z</time>
      </trkpt>
      <trkpt lat="45.49565" lon="6.62935">
        <ele>2335.8</ele>
        <time>2012-02-17T10:52:31Z</time>
      </trkpt>
      <trkpt lat="45.49566" lon="6.62936">
        <ele>2336.3</ele>
        <time>2012-02-17T10:52:32Z</time>
      </trkpt>
      <trkpt lat="45.4957" lon="6.62959">
        <ele>2340.6</ele>
        <time>2012-02-17T10:52:56Z</time>
      </trkpt>
      <trkpt lat="45.49573" lon="6.6297">
        <ele>2340.3</ele>
        <time>2012-02-17T10:53:03Z</time>
      </trkpt>
      <trkpt lat="45.49575" lon="6.62982">
        <ele>2340.1</ele>
        <time>2012-02-17T10:53:13Z</time>
      </trkpt>
      <trkpt lat="45.49575" lon="6.62994">
        <ele>2340.3</ele>
        <time>2012-02-17T10:53:24Z</time>
      </trkpt>
      <trkpt lat="45.49576" lon="6.63006">
        <ele>2341.8</ele>
        <time>2012-02-17T10:53:34Z</time>
      </trkpt>
      <trkpt lat="45.49576" lon="6.63007">
        <ele>2342.3</ele>
        <time>2012-02-17T10:53:35Z</time>
      </trkpt>
      <trkpt lat="45.4958" lon="6.6303">
        <ele>2345.1</ele>
        <time>2012-02-17T10:54:02Z</time>
      </trkpt>
      <trkpt lat="45.49585" lon="6.6304">
        <ele>2348.1</ele>
        <time>2012-02-17T10:54:18Z</time>
      </trkpt>
      <trkpt lat="45.49588" lon="6.63051">
        <ele>2350.1</ele>
        <time>2012-02-17T10:54:33Z</time>
      </trkpt>
      <trkpt lat="45.49589" lon="6.63063">
        <ele>2353.1</ele>
        <time>2012-02-17T10:54:51Z</time>
      </trkpt>
      <trkpt lat="45.49589" lon="6.63064">
        <ele>2353.1</ele>
        <time>2012-02-17T10:54:52Z</time>
      </trkpt>
      <trkpt lat="45.49595" lon="6.63087">
        <ele>2357.6</ele>
        <time>2012-02-17T10:55:26Z</time>
      </trkpt>
      <trkpt lat="45.49593" lon="6.63099">
        <ele>2360.3</ele>
        <time>2012-02-17T10:55:44Z</time>
      </trkpt>
      <trkpt lat="45.49596" lon="6.6311">
        <ele>2363.5</ele>
        <time>2012-02-17T10:56:01Z</time>
      </trkpt>
      <trkpt lat="45.49596" lon="6.63111">
        <ele>2363.6</ele>
        <time>2012-02-17T10:56:02Z</time>
      </trkpt>
      <trkpt lat="45.49595" lon="6.63134">
        <ele>2367.8</ele>
        <time>2012-02-17T10:56:28Z</time>
      </trkpt>
      <trkpt lat="45.49591" lon="6.63144">
        <ele>2367.3</ele>
        <time>2012-02-17T10:56:38Z</time>
      </trkpt>
      <trkpt lat="45.49589" lon="6.63156">
        <ele>2368.3</ele>
        <time>2012-02-17T10:56:48Z</time>
      </trkpt>
      <trkpt lat="45.49586" lon="6.63168">
        <ele>2368.8</ele>
        <time>2012-02-17T10:56:57Z</time>
      </trkpt>
      <trkpt lat="45.49583" lon="6.63179">
        <ele>2368.8</ele>
        <time>2012-02-17T10:57:04Z</time>
      </trkpt>
      <trkpt lat="45.49583" lon="6.6318">
        <ele>2368.6</ele>
        <time>2012-02-17T10:57:05Z</time>
      </trkpt>
      <trkpt lat="45.49578" lon="6.63202">
        <ele>2369.8</ele>
        <time>2012-02-17T10:57:26Z</time>
      </trkpt>
      <trkpt lat="45.49573" lon="6.63212">
        <ele>2370.3</ele>
        <time>2012-02-17T10:57:37Z</time>
      </trkpt>
      <trkpt lat="45.49566" lon="6.63219">
        <ele>2371.3</ele>
        <time>2012-02-17T10:57:46Z</time>
      </trkpt>
      <trkpt lat="45.49559" lon="6.63225">
        <ele>2372.1</ele>
        <time>2012-02-17T10:57:55Z</time>
      </trkpt>
      <trkpt lat="45.49553" lon="6.63232">
        <ele>2372.1</ele>
        <time>2012-02-17T10:58:06Z</time>
      </trkpt>
      <trkpt lat="45.49552" lon="6.63232">
        <ele>2372.1</ele>
        <time>2012-02-17T10:58:07Z</time>
      </trkpt>
      <trkpt lat="45.49539" lon="6.63246">
        <ele>2372.6</ele>
        <time>2012-02-17T10:58:28Z</time>
      </trkpt>
      <trkpt lat="45.49533" lon="6.63255">
        <ele>2373.5</ele>
        <time>2012-02-17T10:58:42Z</time>
      </trkpt>
      <trkpt lat="45.49527" lon="6.63264">
        <ele>2374.6</ele>
        <time>2012-02-17T10:58:58Z</time>
      </trkpt>
      <trkpt lat="45.4952" lon="6.63272">
        <ele>2376.8</ele>
        <time>2012-02-17T10:59:13Z</time>
      </trkpt>
      <trkpt lat="45.4952" lon="6.63272">
        <ele>2376.6</ele>
        <time>2012-02-17T10:59:14Z</time>
      </trkpt>
      <trkpt lat="45.49505" lon="6.63283">
        <ele>2381</ele>
        <time>2012-02-17T10:59:45Z</time>
      </trkpt>
      <trkpt lat="45.49497" lon="6.63288">
        <ele>2381.6</ele>
        <time>2012-02-17T11:00:00Z</time>
      </trkpt>
      <trkpt lat="45.4949" lon="6.63296">
        <ele>2384.1</ele>
        <time>2012-02-17T11:00:16Z</time>
      </trkpt>
      <trkpt lat="45.49489" lon="6.63296">
        <ele>2384.3</ele>
        <time>2012-02-17T11:00:17Z</time>
      </trkpt>
      <trkpt lat="45.49478" lon="6.63314">
        <ele>2387</ele>
        <time>2012-02-17T11:00:43Z</time>
      </trkpt>
      <trkpt lat="45.49474" lon="6.63325">
        <ele>2389.6</ele>
        <time>2012-02-17T11:00:57Z</time>
      </trkpt>
      <trkpt lat="45.49472" lon="6.63337">
        <ele>2391.6</ele>
        <time>2012-02-17T11:01:10Z</time>
      </trkpt>
      <trkpt lat="45.49472" lon="6.63349">
        <ele>2392.5</ele>
        <time>2012-02-17T11:01:24Z</time>
      </trkpt>
      <trkpt lat="45.49472" lon="6.6335">
        <ele>2392.8</ele>
        <time>2012-02-17T11:01:25Z</time>
      </trkpt>
      <trkpt lat="45.49486" lon="6.63364">
        <ele>2399.1</ele>
        <time>2012-02-17T11:01:56Z</time>
      </trkpt>
      <trkpt lat="45.49494" lon="6.63369">
        <ele>2401.8</ele>
        <time>2012-02-17T11:02:13Z</time>
      </trkpt>
      <trkpt lat="45.495" lon="6.63379">
        <ele>2402.1</ele>
        <time>2012-02-17T11:02:26Z</time>
      </trkpt>
      <trkpt lat="45.49501" lon="6.6338">
        <ele>2402</ele>
        <time>2012-02-17T11:02:27Z</time>
      </trkpt>
      <trkpt lat="45.49501" lon="6.634">
        <ele>2404.1</ele>
        <time>2012-02-17T11:02:52Z</time>
      </trkpt>
      <trkpt lat="45.49493" lon="6.63406">
        <ele>2405.3</ele>
        <time>2012-02-17T11:03:05Z</time>
      </trkpt>
      <trkpt lat="45.49486" lon="6.63414">
        <ele>2407.8</ele>
        <time>2012-02-17T11:03:30Z</time>
      </trkpt>
      <trkpt lat="45.49486" lon="6.63414">
        <ele>2407.6</ele>
        <time>2012-02-17T11:03:31Z</time>
      </trkpt>
      <trkpt lat="45.49472" lon="6.63428">
        <ele>2411.6</ele>
        <time>2012-02-17T11:04:04Z</time>
      </trkpt>
      <trkpt lat="45.49464" lon="6.63435">
        <ele>2414.1</ele>
        <time>2012-02-17T11:04:27Z</time>
      </trkpt>
      <trkpt lat="45.49456" lon="6.63438">
        <ele>2415.3</ele>
        <time>2012-02-17T11:05:30Z</time>
      </trkpt>
      <trkpt lat="45.49456" lon="6.63439">
        <ele>2415.1</ele>
        <time>2012-02-17T11:05:31Z</time>
      </trkpt>
      <trkpt lat="45.49448" lon="6.63446">
        <ele>2416.8</ele>
        <time>2012-02-17T11:07:22Z</time>
      </trkpt>
      <trkpt lat="45.49436" lon="6.63463">
        <ele>2421.8</ele>
        <time>2012-02-17T11:07:53Z</time>
      </trkpt>
      <trkpt lat="45.49431" lon="6.63472">
        <ele>2423.8</ele>
        <time>2012-02-17T11:08:10Z</time>
      </trkpt>
      <trkpt lat="45.49427" lon="6.63483">
        <ele>2426.3</ele>
        <time>2012-02-17T11:08:24Z</time>
      </trkpt>
      <trkpt lat="45.49427" lon="6.63484">
        <ele>2426.3</ele>
        <time>2012-02-17T11:08:25Z</time>
      </trkpt>
      <trkpt lat="45.49426" lon="6.63508">
        <ele>2430.8</ele>
        <time>2012-02-17T11:08:57Z</time>
      </trkpt>
      <trkpt lat="45.49428" lon="6.63521">
        <ele>2432.6</ele>
        <time>2012-02-17T11:09:16Z</time>
      </trkpt>
      <trkpt lat="45.49426" lon="6.63533">
        <ele>2434.8</ele>
        <time>2012-02-17T11:10:17Z</time>
      </trkpt>
      <trkpt lat="45.49426" lon="6.63533">
        <ele>2434.8</ele>
        <time>2012-02-17T11:10:18Z</time>
      </trkpt>
      <trkpt lat="45.49432" lon="6.63522">
        <ele>2437.5</ele>
        <time>2012-02-17T11:21:32Z</time>
      </trkpt>
      <trkpt lat="45.4943" lon="6.63502">
        <ele>2434.3</ele>
        <time>2012-02-17T11:21:42Z</time>
      </trkpt>
      <trkpt lat="45.49429" lon="6.63491">
        <ele>2431.1</ele>
        <time>2012-02-17T11:21:46Z</time>
      </trkpt>
      <trkpt lat="45.4943" lon="6.6348">
        <ele>2428.8</ele>
        <time>2012-02-17T11:21:50Z</time>
      </trkpt>
      <trkpt lat="45.49434" lon="6.63471">
        <ele>2427.5</ele>
        <time>2012-02-17T11:21:54Z</time>
      </trkpt>
      <trkpt lat="45.49439" lon="6.63463">
        <ele>2424.1</ele>
        <time>2012-02-17T11:22:08Z</time>
      </trkpt>
      <trkpt lat="45.49445" lon="6.63455">
        <ele>2422.5</ele>
        <time>2012-02-17T11:22:14Z</time>
      </trkpt>
      <trkpt lat="45.49451" lon="6.63447">
        <ele>2419.8</ele>
        <time>2012-02-17T11:22:28Z</time>
      </trkpt>
      <trkpt lat="45.49457" lon="6.6344">
        <ele>2418.5</ele>
        <time>2012-02-17T11:22:32Z</time>
      </trkpt>
      <trkpt lat="45.49459" lon="6.63438">
        <ele>2418.1</ele>
        <time>2012-02-17T11:22:33Z</time>
      </trkpt>
      <trkpt lat="45.49469" lon="6.63429">
        <ele>2415.3</ele>
        <time>2012-02-17T11:22:37Z</time>
      </trkpt>
      <trkpt lat="45.49474" lon="6.63423">
        <ele>2414</ele>
        <time>2012-02-17T11:22:39Z</time>
      </trkpt>
      <trkpt lat="45.4948" lon="6.63416">
        <ele>2411.3</ele>
        <time>2012-02-17T11:22:41Z</time>
      </trkpt>
      <trkpt lat="45.49486" lon="6.6341">
        <ele>2409</ele>
        <time>2012-02-17T11:22:43Z</time>
      </trkpt>
      <trkpt lat="45.49492" lon="6.63404">
        <ele>2407.1</ele>
        <time>2012-02-17T11:22:47Z</time>
      </trkpt>
      <trkpt lat="45.49498" lon="6.63395">
        <ele>2405.6</ele>
        <time>2012-02-17T11:22:51Z</time>
      </trkpt>
      <trkpt lat="45.49498" lon="6.63383">
        <ele>2403.8</ele>
        <time>2012-02-17T11:22:56Z</time>
      </trkpt>
      <trkpt lat="45.49495" lon="6.63372">
        <ele>2402.8</ele>
        <time>2012-02-17T11:23:03Z</time>
      </trkpt>
      <trkpt lat="45.49494" lon="6.63361">
        <ele>2403.6</ele>
        <time>2012-02-17T11:23:14Z</time>
      </trkpt>
      <trkpt lat="45.49497" lon="6.63349">
        <ele>2401.8</ele>
        <time>2012-02-17T11:23:20Z</time>
      </trkpt>
      <trkpt lat="45.49503" lon="6.63339">
        <ele>2399.5</ele>
        <time>2012-02-17T11:23:29Z</time>
      </trkpt>
      <trkpt lat="45.49509" lon="6.63332">
        <ele>2398.8</ele>
        <time>2012-02-17T11:23:37Z</time>
      </trkpt>
      <trkpt lat="45.4951" lon="6.63331">
        <ele>2398.8</ele>
        <time>2012-02-17T11:23:38Z</time>
      </trkpt>
      <trkpt lat="45.49508" lon="6.63331">
        <ele>2397.6</ele>
        <time>2012-02-17T11:25:19Z</time>
      </trkpt>
      <trkpt lat="45.49508" lon="6.63332">
        <ele>2397.6</ele>
        <time>2012-02-17T11:25:20Z</time>
      </trkpt>
      <trkpt lat="45.49496" lon="6.63347">
        <ele>2399.8</ele>
        <time>2012-02-17T11:25:40Z</time>
      </trkpt>
      <trkpt lat="45.49493" lon="6.63358">
        <ele>2401.6</ele>
        <time>2012-02-17T11:25:51Z</time>
      </trkpt>
      <trkpt lat="45.49496" lon="6.6337">
        <ele>2403.6</ele>
        <time>2012-02-17T11:26:24Z</time>
      </trkpt>
      <trkpt lat="45.49497" lon="6.63372">
        <ele>2403.3</ele>
        <time>2012-02-17T11:26:25Z</time>
      </trkpt>
      <trkpt lat="45.495" lon="6.63393">
        <ele>2403.8</ele>
        <time>2012-02-17T11:26:40Z</time>
      </trkpt>
      <trkpt lat="45.49494" lon="6.63401">
        <ele>2405.1</ele>
        <time>2012-02-17T11:26:51Z</time>
      </trkpt>
      <trkpt lat="45.49487" lon="6.63408">
        <ele>2407.6</ele>
        <time>2012-02-17T11:27:01Z</time>
      </trkpt>
      <trkpt lat="45.4948" lon="6.63415">
        <ele>2409.3</ele>
        <time>2012-02-17T11:27:12Z</time>
      </trkpt>
      <trkpt lat="45.49472" lon="6.63422">
        <ele>2411.1</ele>
        <time>2012-02-17T11:27:23Z</time>
      </trkpt>
      <trkpt lat="45.49464" lon="6.63428">
        <ele>2413.3</ele>
        <time>2012-02-17T11:27:34Z</time>
      </trkpt>
      <trkpt lat="45.49464" lon="6.63429">
        <ele>2413.3</ele>
        <time>2012-02-17T11:27:35Z</time>
      </trkpt>
      <trkpt lat="45.49451" lon="6.63443">
        <ele>2418.1</ele>
        <time>2012-02-17T11:27:57Z</time>
      </trkpt>
      <trkpt lat="45.49445" lon="6.63452">
        <ele>2421.5</ele>
        <time>2012-02-17T11:28:11Z</time>
      </trkpt>
      <trkpt lat="45.49438" lon="6.6346">
        <ele>2423.3</ele>
        <time>2012-02-17T11:28:24Z</time>
      </trkpt>
      <trkpt lat="45.49433" lon="6.6347">
        <ele>2425.3</ele>
        <time>2012-02-17T11:28:36Z</time>
      </trkpt>
      <trkpt lat="45.49433" lon="6.63471">
        <ele>2425.3</ele>
        <time>2012-02-17T11:28:37Z</time>
      </trkpt>
      <trkpt lat="45.49427" lon="6.63492">
        <ele>2429.3</ele>
        <time>2012-02-17T11:28:57Z</time>
      </trkpt>
      <trkpt lat="45.49427" lon="6.63504">
        <ele>2431.6</ele>
        <time>2012-02-17T11:29:08Z</time>
      </trkpt>
      <trkpt lat="45.49428" lon="6.63516">
        <ele>2434.1</ele>
        <time>2012-02-17T11:29:20Z</time>
      </trkpt>
      <trkpt lat="45.4943" lon="6.63528">
        <ele>2436.1</ele>
        <time>2012-02-17T11:29:33Z</time>
      </trkpt>
      <trkpt lat="45.49438" lon="6.63529">
        <ele>2441.1</ele>
        <time>2012-02-17T11:31:54Z</time>
      </trkpt>
      <trkpt lat="45.49439" lon="6.63528">
        <ele>2441.1</ele>
        <time>2012-02-17T11:31:55Z</time>
      </trkpt>
      <trkpt lat="45.49454" lon="6.63518">
        <ele>2443.6</ele>
        <time>2012-02-17T11:32:12Z</time>
      </trkpt>
      <trkpt lat="45.49462" lon="6.63518">
        <ele>2446.1</ele>
        <time>2012-02-17T11:32:23Z</time>
      </trkpt>
      <trkpt lat="45.49471" lon="6.63523">
        <ele>2449.3</ele>
        <time>2012-02-17T11:32:44Z</time>
      </trkpt>
      <trkpt lat="45.49472" lon="6.63535">
        <ele>2453.8</ele>
        <time>2012-02-17T11:33:15Z</time>
      </trkpt>
      <trkpt lat="45.49472" lon="6.63536">
        <ele>2453.5</ele>
        <time>2012-02-17T11:33:16Z</time>
      </trkpt>
      <trkpt lat="45.49466" lon="6.63558">
        <ele>2457.8</ele>
        <time>2012-02-17T11:33:38Z</time>
      </trkpt>
      <trkpt lat="45.49464" lon="6.63569">
        <ele>2458.6</ele>
        <time>2012-02-17T11:33:48Z</time>
      </trkpt>
      <trkpt lat="45.49462" lon="6.63581">
        <ele>2461</ele>
        <time>2012-02-17T11:33:58Z</time>
      </trkpt>
      <trkpt lat="45.4946" lon="6.63592">
        <ele>2462.3</ele>
        <time>2012-02-17T11:34:08Z</time>
      </trkpt>
      <trkpt lat="45.49459" lon="6.63604">
        <ele>2464.8</ele>
        <time>2012-02-17T11:34:18Z</time>
      </trkpt>
      <trkpt lat="45.49459" lon="6.63605">
        <ele>2465</ele>
        <time>2012-02-17T11:34:19Z</time>
      </trkpt>
      <trkpt lat="45.49457" lon="6.63628">
        <ele>2467.8</ele>
        <time>2012-02-17T11:34:40Z</time>
      </trkpt>
      <trkpt lat="45.49455" lon="6.63641">
        <ele>2469.3</ele>
        <time>2012-02-17T11:34:51Z</time>
      </trkpt>
      <trkpt lat="45.49451" lon="6.63652">
        <ele>2470.8</ele>
        <time>2012-02-17T11:35:02Z</time>
      </trkpt>
      <trkpt lat="45.49447" lon="6.63663">
        <ele>2474.1</ele>
        <time>2012-02-17T11:35:15Z</time>
      </trkpt>
      <trkpt lat="45.49443" lon="6.63674">
        <ele>2475.8</ele>
        <time>2012-02-17T11:35:28Z</time>
      </trkpt>
      <trkpt lat="45.49442" lon="6.63675">
        <ele>2476.1</ele>
        <time>2012-02-17T11:35:29Z</time>
      </trkpt>
      <trkpt lat="45.49444" lon="6.63691">
        <ele>2482.3</ele>
        <time>2012-02-17T11:36:01Z</time>
      </trkpt>
      <trkpt lat="45.49446" lon="6.63703">
        <ele>2486.5</ele>
        <time>2012-02-17T11:36:27Z</time>
      </trkpt>
      <trkpt lat="45.49441" lon="6.63714">
        <ele>2488.3</ele>
        <time>2012-02-17T11:36:40Z</time>
      </trkpt>
      <trkpt lat="45.49441" lon="6.63715">
        <ele>2488.6</ele>
        <time>2012-02-17T11:36:41Z</time>
      </trkpt>
      <trkpt lat="45.49431" lon="6.63733">
        <ele>2492.3</ele>
        <time>2012-02-17T11:37:04Z</time>
      </trkpt>
      <trkpt lat="45.49426" lon="6.63743">
        <ele>2494.3</ele>
        <time>2012-02-17T11:37:15Z</time>
      </trkpt>
      <trkpt lat="45.49432" lon="6.6375">
        <ele>2499.6</ele>
        <time>2012-02-17T11:37:38Z</time>
      </trkpt>
      <trkpt lat="45.49441" lon="6.63748">
        <ele>2500.5</ele>
        <time>2012-02-17T11:37:52Z</time>
      </trkpt>
      <trkpt lat="45.49442" lon="6.63748">
        <ele>2501</ele>
        <time>2012-02-17T11:37:53Z</time>
      </trkpt>
      <trkpt lat="45.49445" lon="6.63756">
        <ele>2505.5</ele>
        <time>2012-02-17T11:38:23Z</time>
      </trkpt>
      <trkpt lat="45.49441" lon="6.63767">
        <ele>2507.6</ele>
        <time>2012-02-17T11:38:37Z</time>
      </trkpt>
      <trkpt lat="45.49437" lon="6.63778">
        <ele>2510.1</ele>
        <time>2012-02-17T11:38:50Z</time>
      </trkpt>
      <trkpt lat="45.49445" lon="6.6378">
        <ele>2512</ele>
        <time>2012-02-17T11:39:13Z</time>
      </trkpt>
      <trkpt lat="45.49446" lon="6.6378">
        <ele>2512.1</ele>
        <time>2012-02-17T11:39:14Z</time>
      </trkpt>
      <trkpt lat="45.49449" lon="6.63788">
        <ele>2517.6</ele>
        <time>2012-02-17T11:39:46Z</time>
      </trkpt>
      <trkpt lat="45.49444" lon="6.63797">
        <ele>2519.6</ele>
        <time>2012-02-17T11:39:59Z</time>
      </trkpt>
      <trkpt lat="45.49438" lon="6.63807">
        <ele>2521.3</ele>
        <time>2012-02-17T11:40:12Z</time>
      </trkpt>
      <trkpt lat="45.49446" lon="6.63813">
        <ele>2525.6</ele>
        <time>2012-02-17T11:40:33Z</time>
      </trkpt>
      <trkpt lat="45.49446" lon="6.63813">
        <ele>2525.6</ele>
        <time>2012-02-17T11:40:34Z</time>
      </trkpt>
      <trkpt lat="45.49463" lon="6.63812">
        <ele>2530.8</ele>
        <time>2012-02-17T11:41:01Z</time>
      </trkpt>
      <trkpt lat="45.49471" lon="6.63806">
        <ele>2533.1</ele>
        <time>2012-02-17T11:41:13Z</time>
      </trkpt>
      <trkpt lat="45.49471" lon="6.63819">
        <ele>2537.1</ele>
        <time>2012-02-17T11:41:44Z</time>
      </trkpt>
      <trkpt lat="45.4947" lon="6.6382">
        <ele>2537.3</ele>
        <time>2012-02-17T11:41:45Z</time>
      </trkpt>
      <trkpt lat="45.49463" lon="6.63841">
        <ele>2540.3</ele>
        <time>2012-02-17T11:42:07Z</time>
      </trkpt>
      <trkpt lat="45.49457" lon="6.6385">
        <ele>2543.1</ele>
        <time>2012-02-17T11:42:18Z</time>
      </trkpt>
      <trkpt lat="45.49451" lon="6.63859">
        <ele>2544.3</ele>
        <time>2012-02-17T11:42:29Z</time>
      </trkpt>
      <trkpt lat="45.49443" lon="6.63865">
        <ele>2547</ele>
        <time>2012-02-17T11:42:42Z</time>
      </trkpt>
      <trkpt lat="45.49436" lon="6.63872">
        <ele>2550.8</ele>
        <time>2012-02-17T11:42:57Z</time>
      </trkpt>
      <trkpt lat="45.49435" lon="6.63873">
        <ele>2551.3</ele>
        <time>2012-02-17T11:42:58Z</time>
      </trkpt>
      <trkpt lat="45.49446" lon="6.6389">
        <ele>2556.6</ele>
        <time>2012-02-17T11:43:33Z</time>
      </trkpt>
      <trkpt lat="45.49453" lon="6.63898">
        <ele>2560</ele>
        <time>2012-02-17T11:43:46Z</time>
      </trkpt>
      <trkpt lat="45.4946" lon="6.63905">
        <ele>2561.1</ele>
        <time>2012-02-17T11:43:58Z</time>
      </trkpt>
      <trkpt lat="45.49467" lon="6.63912">
        <ele>2564.5</ele>
        <time>2012-02-17T11:44:12Z</time>
      </trkpt>
      <trkpt lat="45.49467" lon="6.63913">
        <ele>2565.1</ele>
        <time>2012-02-17T11:44:13Z</time>
      </trkpt>
      <trkpt lat="45.49465" lon="6.63916">
        <ele>2567.3</ele>
        <time>2012-02-17T12:04:48Z</time>
      </trkpt>
      <trkpt lat="45.49464" lon="6.63916">
        <ele>2567.1</ele>
        <time>2012-02-17T12:04:49Z</time>
      </trkpt>
      <trkpt lat="45.49459" lon="6.63895">
        <ele>2561.6</ele>
        <time>2012-02-17T12:04:59Z</time>
      </trkpt>
      <trkpt lat="45.49456" lon="6.63884">
        <ele>2557.8</ele>
        <time>2012-02-17T12:05:04Z</time>
      </trkpt>
      <trkpt lat="45.49451" lon="6.63874">
        <ele>2552.1</ele>
        <time>2012-02-17T12:05:11Z</time>
      </trkpt>
      <trkpt lat="45.49448" lon="6.63864">
        <ele>2549.5</ele>
        <time>2012-02-17T12:05:15Z</time>
      </trkpt>
      <trkpt lat="45.49449" lon="6.63853">
        <ele>2544.3</ele>
        <time>2012-02-17T12:05:29Z</time>
      </trkpt>
      <trkpt lat="45.49446" lon="6.63843">
        <ele>2540.6</ele>
        <time>2012-02-17T12:05:34Z</time>
      </trkpt>
      <trkpt lat="45.49442" lon="6.63833">
        <ele>2538</ele>
        <time>2012-02-17T12:05:37Z</time>
      </trkpt>
      <trkpt lat="45.49447" lon="6.63825">
        <ele>2534.6</ele>
        <time>2012-02-17T12:05:40Z</time>
      </trkpt>
      <trkpt lat="45.4944" lon="6.63817">
        <ele>2531.6</ele>
        <time>2012-02-17T12:05:43Z</time>
      </trkpt>
      <trkpt lat="45.49441" lon="6.63805">
        <ele>2525.3</ele>
        <time>2012-02-17T12:05:50Z</time>
      </trkpt>
      <trkpt lat="45.49441" lon="6.63804">
        <ele>2524.6</ele>
        <time>2012-02-17T12:05:51Z</time>
      </trkpt>
      <trkpt lat="45.49437" lon="6.63786">
        <ele>2518.5</ele>
        <time>2012-02-17T12:05:58Z</time>
      </trkpt>
      <trkpt lat="45.49433" lon="6.63774">
        <ele>2514.1</ele>
        <time>2012-02-17T12:06:01Z</time>
      </trkpt>
      <trkpt lat="45.49436" lon="6.63764">
        <ele>2510.1</ele>
        <time>2012-02-17T12:06:04Z</time>
      </trkpt>
      <trkpt lat="45.49428" lon="6.63762">
        <ele>2502.3</ele>
        <time>2012-02-17T12:06:39Z</time>
      </trkpt>
      <trkpt lat="45.49427" lon="6.63752">
        <ele>2500.3</ele>
        <time>2012-02-17T12:06:50Z</time>
      </trkpt>
      <trkpt lat="45.49428" lon="6.63739">
        <ele>2496.8</ele>
        <time>2012-02-17T12:06:54Z</time>
      </trkpt>
      <trkpt lat="45.49426" lon="6.63737">
        <ele>2495.8</ele>
        <time>2012-02-17T12:06:55Z</time>
      </trkpt>
      <trkpt lat="45.4942" lon="6.6372">
        <ele>2489.3</ele>
        <time>2012-02-17T12:07:03Z</time>
      </trkpt>
      <trkpt lat="45.4942" lon="6.63709">
        <ele>2485.5</ele>
        <time>2012-02-17T12:07:07Z</time>
      </trkpt>
      <trkpt lat="45.49423" lon="6.63699">
        <ele>2482.6</ele>
        <time>2012-02-17T12:07:10Z</time>
      </trkpt>
      <trkpt lat="45.49418" lon="6.63691">
        <ele>2479.1</ele>
        <time>2012-02-17T12:07:13Z</time>
      </trkpt>
      <trkpt lat="45.49414" lon="6.63683">
        <ele>2477</ele>
        <time>2012-02-17T12:07:15Z</time>
      </trkpt>
      <trkpt lat="45.4941" lon="6.63674">
        <ele>2473.1</ele>
        <time>2012-02-17T12:07:18Z</time>
      </trkpt>
      <trkpt lat="45.49406" lon="6.63665">
        <ele>2470.8</ele>
        <time>2012-02-17T12:07:20Z</time>
      </trkpt>
      <trkpt lat="45.49404" lon="6.63653">
        <ele>2464.1</ele>
        <time>2012-02-17T12:07:27Z</time>
      </trkpt>
      <trkpt lat="45.49412" lon="6.6365">
        <ele>2461</ele>
        <time>2012-02-17T12:08:56Z</time>
      </trkpt>
      <trkpt lat="45.49413" lon="6.63648">
        <ele>2460.8</ele>
        <time>2012-02-17T12:08:57Z</time>
      </trkpt>
      <trkpt lat="45.49421" lon="6.63637">
        <ele>2460</ele>
        <time>2012-02-17T12:09:06Z</time>
      </trkpt>
      <trkpt lat="45.49427" lon="6.63629">
        <ele>2458.8</ele>
        <time>2012-02-17T12:09:08Z</time>
      </trkpt>
      <trkpt lat="45.49431" lon="6.63625">
        <ele>2458.1</ele>
        <time>2012-02-17T12:09:09Z</time>
      </trkpt>
      <trkpt lat="45.49434" lon="6.63619">
        <ele>2457.5</ele>
        <time>2012-02-17T12:09:10Z</time>
      </trkpt>
      <trkpt lat="45.49437" lon="6.63613">
        <ele>2456.8</ele>
        <time>2012-02-17T12:09:11Z</time>
      </trkpt>
      <trkpt lat="45.49441" lon="6.63604">
        <ele>2455.5</ele>
        <time>2012-02-17T12:09:13Z</time>
      </trkpt>
      <trkpt lat="45.49445" lon="6.63594">
        <ele>2454.6</ele>
        <time>2012-02-17T12:09:17Z</time>
      </trkpt>
      <trkpt lat="45.49441" lon="6.63584">
        <ele>2453.3</ele>
        <time>2012-02-17T12:09:22Z</time>
      </trkpt>
      <trkpt lat="45.49435" lon="6.63576">
        <ele>2451.6</ele>
        <time>2012-02-17T12:09:25Z</time>
      </trkpt>
      <trkpt lat="45.49431" lon="6.63567">
        <ele>2449.1</ele>
        <time>2012-02-17T12:09:28Z</time>
      </trkpt>
      <trkpt lat="45.49431" lon="6.63558">
        <ele>2446.3</ele>
        <time>2012-02-17T12:09:30Z</time>
      </trkpt>
      <trkpt lat="45.49433" lon="6.63547">
        <ele>2443.8</ele>
        <time>2012-02-17T12:09:32Z</time>
      </trkpt>
      <trkpt lat="45.49435" lon="6.63537">
        <ele>2442.1</ele>
        <time>2012-02-17T12:09:34Z</time>
      </trkpt>
      <trkpt lat="45.49437" lon="6.63527">
        <ele>2440.8</ele>
        <time>2012-02-17T12:09:36Z</time>
      </trkpt>
      <trkpt lat="45.49439" lon="6.63516">
        <ele>2439.8</ele>
        <time>2012-02-17T12:09:39Z</time>
      </trkpt>
      <trkpt lat="45.49445" lon="6.63506">
        <ele>2437.8</ele>
        <time>2012-02-17T12:11:24Z</time>
      </trkpt>
      <trkpt lat="45.49445" lon="6.63506">
        <ele>2437.3</ele>
        <time>2012-02-17T12:11:25Z</time>
      </trkpt>
      <trkpt lat="45.49447" lon="6.63486">
        <ele>2433.1</ele>
        <time>2012-02-17T12:12:01Z</time>
      </trkpt>
      <trkpt lat="45.49439" lon="6.63481">
        <ele>2431.1</ele>
        <time>2012-02-17T12:12:05Z</time>
      </trkpt>
      <trkpt lat="45.49443" lon="6.63471">
        <ele>2428</ele>
        <time>2012-02-17T12:12:13Z</time>
      </trkpt>
      <trkpt lat="45.4945" lon="6.63465">
        <ele>2426.3</ele>
        <time>2012-02-17T12:12:18Z</time>
      </trkpt>
      <trkpt lat="45.49457" lon="6.63459">
        <ele>2426</ele>
        <time>2012-02-17T12:12:22Z</time>
      </trkpt>
      <trkpt lat="45.49464" lon="6.63454">
        <ele>2425.3</ele>
        <time>2012-02-17T12:12:25Z</time>
      </trkpt>
      <trkpt lat="45.49471" lon="6.6345">
        <ele>2423.6</ele>
        <time>2012-02-17T12:12:28Z</time>
      </trkpt>
      <trkpt lat="45.49473" lon="6.63448">
        <ele>2423.3</ele>
        <time>2012-02-17T12:12:29Z</time>
      </trkpt>
      <trkpt lat="45.49484" lon="6.6344">
        <ele>2421.8</ele>
        <time>2012-02-17T12:12:33Z</time>
      </trkpt>
      <trkpt lat="45.4949" lon="6.63436">
        <ele>2421</ele>
        <time>2012-02-17T12:12:35Z</time>
      </trkpt>
      <trkpt lat="45.49497" lon="6.63431">
        <ele>2419.1</ele>
        <time>2012-02-17T12:12:38Z</time>
      </trkpt>
      <trkpt lat="45.49505" lon="6.63427">
        <ele>2419</ele>
        <time>2012-02-17T12:12:41Z</time>
      </trkpt>
      <trkpt lat="45.49511" lon="6.63425">
        <ele>2418.6</ele>
        <time>2012-02-17T12:12:43Z</time>
      </trkpt>
      <trkpt lat="45.49515" lon="6.63422">
        <ele>2418.3</ele>
        <time>2012-02-17T12:12:44Z</time>
      </trkpt>
      <trkpt lat="45.49518" lon="6.63417">
        <ele>2418</ele>
        <time>2012-02-17T12:12:45Z</time>
      </trkpt>
      <trkpt lat="45.49521" lon="6.63409">
        <ele>2416.8</ele>
        <time>2012-02-17T12:12:46Z</time>
      </trkpt>
      <trkpt lat="45.49523" lon="6.63401">
        <ele>2415.8</ele>
        <time>2012-02-17T12:12:47Z</time>
      </trkpt>
      <trkpt lat="45.49521" lon="6.63389">
        <ele>2412.8</ele>
        <time>2012-02-17T12:12:49Z</time>
      </trkpt>
      <trkpt lat="45.49515" lon="6.63379">
        <ele>2411</ele>
        <time>2012-02-17T12:12:53Z</time>
      </trkpt>
      <trkpt lat="45.49509" lon="6.63372">
        <ele>2410.3</ele>
        <time>2012-02-17T12:13:11Z</time>
      </trkpt>
      <trkpt lat="45.49501" lon="6.63367">
        <ele>2409</ele>
        <time>2012-02-17T12:13:13Z</time>
      </trkpt>
      <trkpt lat="45.49497" lon="6.63365">
        <ele>2407.8</ele>
        <time>2012-02-17T12:13:14Z</time>
      </trkpt>
      <trkpt lat="45.49491" lon="6.63359">
        <ele>2406.1</ele>
        <time>2012-02-17T12:13:16Z</time>
      </trkpt>
      <trkpt lat="45.49495" lon="6.63348">
        <ele>2402.8</ele>
        <time>2012-02-17T12:13:19Z</time>
      </trkpt>
      <trkpt lat="45.49501" lon="6.63339">
        <ele>2400.1</ele>
        <time>2012-02-17T12:15:53Z</time>
      </trkpt>
      <trkpt lat="45.49503" lon="6.63337">
        <ele>2399.8</ele>
        <time>2012-02-17T12:15:54Z</time>
      </trkpt>
      <trkpt lat="45.49513" lon="6.63326">
        <ele>2399.1</ele>
        <time>2012-02-17T12:15:58Z</time>
      </trkpt>
      <trkpt lat="45.49519" lon="6.6332">
        <ele>2397.8</ele>
        <time>2012-02-17T12:16:00Z</time>
      </trkpt>
      <trkpt lat="45.49526" lon="6.63315">
        <ele>2395</ele>
        <time>2012-02-17T12:16:43Z</time>
      </trkpt>
      <trkpt lat="45.49534" lon="6.63311">
        <ele>2393.6</ele>
        <time>2012-02-17T12:16:46Z</time>
      </trkpt>
      <trkpt lat="45.4954" lon="6.63308">
        <ele>2392.3</ele>
        <time>2012-02-17T12:16:48Z</time>
      </trkpt>
      <trkpt lat="45.49548" lon="6.63305">
        <ele>2391</ele>
        <time>2012-02-17T12:16:50Z</time>
      </trkpt>
      <trkpt lat="45.49556" lon="6.63302">
        <ele>2390.1</ele>
        <time>2012-02-17T12:16:52Z</time>
      </trkpt>
      <trkpt lat="45.49564" lon="6.63298">
        <ele>2388.6</ele>
        <time>2012-02-17T12:16:54Z</time>
      </trkpt>
      <trkpt lat="45.49571" lon="6.63294">
        <ele>2387</ele>
        <time>2012-02-17T12:16:56Z</time>
      </trkpt>
      <trkpt lat="45.49574" lon="6.63292">
        <ele>2386.6</ele>
        <time>2012-02-17T12:16:57Z</time>
      </trkpt>
      <trkpt lat="45.49563" lon="6.63277">
        <ele>2382.3</ele>
        <time>2012-02-17T12:17:03Z</time>
      </trkpt>
      <trkpt lat="45.49564" lon="6.63268">
        <ele>2381.6</ele>
        <time>2012-02-17T12:17:04Z</time>
      </trkpt>
      <trkpt lat="45.49565" lon="6.63259">
        <ele>2379.6</ele>
        <time>2012-02-17T12:17:05Z</time>
      </trkpt>
      <trkpt lat="45.49566" lon="6.63251">
        <ele>2378.1</ele>
        <time>2012-02-17T12:17:06Z</time>
      </trkpt>
      <trkpt lat="45.49567" lon="6.63243">
        <ele>2376.6</ele>
        <time>2012-02-17T12:17:07Z</time>
      </trkpt>
      <trkpt lat="45.49569" lon="6.63236">
        <ele>2375.5</ele>
        <time>2012-02-17T12:17:08Z</time>
      </trkpt>
      <trkpt lat="45.4957" lon="6.63224">
        <ele>2373.3</ele>
        <time>2012-02-17T12:17:10Z</time>
      </trkpt>
      <trkpt lat="45.49571" lon="6.63211">
        <ele>2372.3</ele>
        <time>2012-02-17T12:17:13Z</time>
      </trkpt>
      <trkpt lat="45.49574" lon="6.632">
        <ele>2372</ele>
        <time>2012-02-17T12:17:16Z</time>
      </trkpt>
      <trkpt lat="45.49576" lon="6.63189">
        <ele>2371.3</ele>
        <time>2012-02-17T12:17:18Z</time>
      </trkpt>
      <trkpt lat="45.49578" lon="6.63179">
        <ele>2371.1</ele>
        <time>2012-02-17T12:17:20Z</time>
      </trkpt>
      <trkpt lat="45.4958" lon="6.63168">
        <ele>2371</ele>
        <time>2012-02-17T12:17:30Z</time>
      </trkpt>
      <trkpt lat="45.49583" lon="6.63158">
        <ele>2370.6</ele>
        <time>2012-02-17T12:17:35Z</time>
      </trkpt>
      <trkpt lat="45.49589" lon="6.63149">
        <ele>2371.1</ele>
        <time>2012-02-17T12:17:42Z</time>
      </trkpt>
      <trkpt lat="45.49596" lon="6.6314">
        <ele>2371.1</ele>
        <time>2012-02-17T12:17:56Z</time>
      </trkpt>
      <trkpt lat="45.49604" lon="6.63135">
        <ele>2372.5</ele>
        <time>2012-02-17T12:27:07Z</time>
      </trkpt>
      <trkpt lat="45.49604" lon="6.63134">
        <ele>2372.6</ele>
        <time>2012-02-17T12:27:08Z</time>
      </trkpt>
      <trkpt lat="45.49618" lon="6.63124">
        <ele>2375</ele>
        <time>2012-02-17T12:27:31Z</time>
      </trkpt>
      <trkpt lat="45.49627" lon="6.63125">
        <ele>2374.8</ele>
        <time>2012-02-17T12:27:40Z</time>
      </trkpt>
      <trkpt lat="45.49635" lon="6.63127">
        <ele>2375.5</ele>
        <time>2012-02-17T12:27:56Z</time>
      </trkpt>
      <trkpt lat="45.49644" lon="6.63127">
        <ele>2376.3</ele>
        <time>2012-02-17T12:28:10Z</time>
      </trkpt>
      <trkpt lat="45.49645" lon="6.63127">
        <ele>2376.8</ele>
        <time>2012-02-17T12:28:11Z</time>
      </trkpt>
      <trkpt lat="45.49661" lon="6.63124">
        <ele>2380.6</ele>
        <time>2012-02-17T12:28:39Z</time>
      </trkpt>
      <trkpt lat="45.49668" lon="6.63116">
        <ele>2383.3</ele>
        <time>2012-02-17T12:28:57Z</time>
      </trkpt>
      <trkpt lat="45.49675" lon="6.6311">
        <ele>2385.6</ele>
        <time>2012-02-17T12:29:14Z</time>
      </trkpt>
      <trkpt lat="45.49676" lon="6.6311">
        <ele>2385.8</ele>
        <time>2012-02-17T12:29:15Z</time>
      </trkpt>
      <trkpt lat="45.49686" lon="6.63118">
        <ele>2391.3</ele>
        <time>2012-02-17T12:29:54Z</time>
      </trkpt>
      <trkpt lat="45.49686" lon="6.63131">
        <ele>2395.1</ele>
        <time>2012-02-17T12:30:11Z</time>
      </trkpt>
      <trkpt lat="45.49689" lon="6.63143">
        <ele>2396.6</ele>
        <time>2012-02-17T12:30:28Z</time>
      </trkpt>
      <trkpt lat="45.49689" lon="6.63144">
        <ele>2397.1</ele>
        <time>2012-02-17T12:30:29Z</time>
      </trkpt>
      <trkpt lat="45.49697" lon="6.63163">
        <ele>2402.8</ele>
        <time>2012-02-17T12:31:05Z</time>
      </trkpt>
      <trkpt lat="45.49706" lon="6.63159">
        <ele>2404.8</ele>
        <time>2012-02-17T12:31:24Z</time>
      </trkpt>
      <trkpt lat="45.49714" lon="6.63155">
        <ele>2408</ele>
        <time>2012-02-17T12:31:44Z</time>
      </trkpt>
      <trkpt lat="45.49714" lon="6.63155">
        <ele>2408</ele>
        <time>2012-02-17T12:31:45Z</time>
      </trkpt>
      <trkpt lat="45.49721" lon="6.63175">
        <ele>2414.3</ele>
        <time>2012-02-17T12:32:39Z</time>
      </trkpt>
      <trkpt lat="45.4972" lon="6.63187">
        <ele>2417.8</ele>
        <time>2012-02-17T12:32:58Z</time>
      </trkpt>
      <trkpt lat="45.4972" lon="6.63188">
        <ele>2418.3</ele>
        <time>2012-02-17T12:32:59Z</time>
      </trkpt>
      <trkpt lat="45.4972" lon="6.63212">
        <ele>2423.3</ele>
        <time>2012-02-17T12:33:35Z</time>
      </trkpt>
      <trkpt lat="45.49724" lon="6.63223">
        <ele>2427.1</ele>
        <time>2012-02-17T12:33:54Z</time>
      </trkpt>
      <trkpt lat="45.49732" lon="6.63229">
        <ele>2429.5</ele>
        <time>2012-02-17T12:34:20Z</time>
      </trkpt>
      <trkpt lat="45.49732" lon="6.63228">
        <ele>2429.3</ele>
        <time>2012-02-17T12:34:21Z</time>
      </trkpt>
      <trkpt lat="45.49747" lon="6.63217">
        <ele>2436.1</ele>
        <time>2012-02-17T12:34:52Z</time>
      </trkpt>
      <trkpt lat="45.49755" lon="6.63214">
        <ele>2438.1</ele>
        <time>2012-02-17T12:35:10Z</time>
      </trkpt>
      <trkpt lat="45.49761" lon="6.63222">
        <ele>2441.5</ele>
        <time>2012-02-17T12:35:49Z</time>
      </trkpt>
      <trkpt lat="45.49761" lon="6.63223">
        <ele>2441.5</ele>
        <time>2012-02-17T12:35:50Z</time>
      </trkpt>
      <trkpt lat="45.49771" lon="6.63229">
        <ele>2446.8</ele>
        <time>2012-02-17T12:36:29Z</time>
      </trkpt>
      <trkpt lat="45.49779" lon="6.63225">
        <ele>2449.8</ele>
        <time>2012-02-17T12:36:45Z</time>
      </trkpt>
      <trkpt lat="45.49788" lon="6.63221">
        <ele>2451.5</ele>
        <time>2012-02-17T12:37:03Z</time>
      </trkpt>
      <trkpt lat="45.49788" lon="6.6322">
        <ele>2451.6</ele>
        <time>2012-02-17T12:37:04Z</time>
      </trkpt>
      <trkpt lat="45.49803" lon="6.6321">
        <ele>2456.5</ele>
        <time>2012-02-17T12:37:35Z</time>
      </trkpt>
      <trkpt lat="45.49809" lon="6.63201">
        <ele>2459.5</ele>
        <time>2012-02-17T12:37:49Z</time>
      </trkpt>
      <trkpt lat="45.49815" lon="6.63192">
        <ele>2459.6</ele>
        <time>2012-02-17T12:38:01Z</time>
      </trkpt>
      <trkpt lat="45.49817" lon="6.6318">
        <ele>2461.1</ele>
        <time>2012-02-17T12:38:30Z</time>
      </trkpt>
      <trkpt lat="45.49817" lon="6.63179">
        <ele>2461.1</ele>
        <time>2012-02-17T12:38:31Z</time>
      </trkpt>
      <trkpt lat="45.49823" lon="6.63157">
        <ele>2461</ele>
        <time>2012-02-17T12:38:47Z</time>
      </trkpt>
      <trkpt lat="45.49828" lon="6.63148">
        <ele>2459.8</ele>
        <time>2012-02-17T12:38:56Z</time>
      </trkpt>
      <trkpt lat="45.49833" lon="6.63138">
        <ele>2462.8</ele>
        <time>2012-02-17T12:39:07Z</time>
      </trkpt>
      <trkpt lat="45.49837" lon="6.63127">
        <ele>2464.3</ele>
        <time>2012-02-17T12:39:21Z</time>
      </trkpt>
      <trkpt lat="45.49841" lon="6.63117">
        <ele>2466.8</ele>
        <time>2012-02-17T12:39:34Z</time>
      </trkpt>
      <trkpt lat="45.49842" lon="6.63116">
        <ele>2466.8</ele>
        <time>2012-02-17T12:39:35Z</time>
      </trkpt>
      <trkpt lat="45.4985" lon="6.63096">
        <ele>2468.8</ele>
        <time>2012-02-17T12:40:13Z</time>
      </trkpt>
      <trkpt lat="45.49853" lon="6.63085">
        <ele>2468.6</ele>
        <time>2012-02-17T12:40:25Z</time>
      </trkpt>
      <trkpt lat="45.49857" lon="6.63074">
        <ele>2467.1</ele>
        <time>2012-02-17T12:40:30Z</time>
      </trkpt>
      <trkpt lat="45.49863" lon="6.63067">
        <ele>2465.8</ele>
        <time>2012-02-17T12:40:33Z</time>
      </trkpt>
      <trkpt lat="45.49869" lon="6.63059">
        <ele>2462.6</ele>
        <time>2012-02-17T12:40:49Z</time>
      </trkpt>
      <trkpt lat="45.4987" lon="6.63059">
        <ele>2462.5</ele>
        <time>2012-02-17T12:40:50Z</time>
      </trkpt>
      <trkpt lat="45.49878" lon="6.63041">
        <ele>2461.8</ele>
        <time>2012-02-17T12:40:57Z</time>
      </trkpt>
      <trkpt lat="45.49884" lon="6.63032">
        <ele>2459.8</ele>
        <time>2012-02-17T12:41:03Z</time>
      </trkpt>
      <trkpt lat="45.49892" lon="6.63027">
        <ele>2458.3</ele>
        <time>2012-02-17T12:41:07Z</time>
      </trkpt>
      <trkpt lat="45.49899" lon="6.63021">
        <ele>2454.6</ele>
        <time>2012-02-17T12:41:13Z</time>
      </trkpt>
      <trkpt lat="45.49904" lon="6.63014">
        <ele>2452</ele>
        <time>2012-02-17T12:41:17Z</time>
      </trkpt>
      <trkpt lat="45.49911" lon="6.6301">
        <ele>2449.8</ele>
        <time>2012-02-17T12:41:21Z</time>
      </trkpt>
      <trkpt lat="45.49917" lon="6.63006">
        <ele>2448.6</ele>
        <time>2012-02-17T12:41:24Z</time>
      </trkpt>
      <trkpt lat="45.49923" lon="6.63">
        <ele>2446.8</ele>
        <time>2012-02-17T12:41:26Z</time>
      </trkpt>
      <trkpt lat="45.4993" lon="6.62993">
        <ele>2444.1</ele>
        <time>2012-02-17T12:41:31Z</time>
      </trkpt>
      <trkpt lat="45.49938" lon="6.62987">
        <ele>2443.3</ele>
        <time>2012-02-17T12:41:37Z</time>
      </trkpt>
      <trkpt lat="45.49945" lon="6.6298">
        <ele>2442.3</ele>
        <time>2012-02-17T12:41:43Z</time>
      </trkpt>
      <trkpt lat="45.49949" lon="6.6297">
        <ele>2441.6</ele>
        <time>2012-02-17T12:41:51Z</time>
      </trkpt>
      <trkpt lat="45.4995" lon="6.62969">
        <ele>2441.6</ele>
        <time>2012-02-17T12:41:52Z</time>
      </trkpt>
      <trkpt lat="45.49954" lon="6.62947">
        <ele>2439.3</ele>
        <time>2012-02-17T12:42:03Z</time>
      </trkpt>
      <trkpt lat="45.49961" lon="6.62941">
        <ele>2440.1</ele>
        <time>2012-02-17T12:42:08Z</time>
      </trkpt>
      <trkpt lat="45.49969" lon="6.62939">
        <ele>2438.6</ele>
        <time>2012-02-17T12:42:12Z</time>
      </trkpt>
      <trkpt lat="45.49976" lon="6.62937">
        <ele>2437.1</ele>
        <time>2012-02-17T12:42:16Z</time>
      </trkpt>
      <trkpt lat="45.49984" lon="6.62936">
        <ele>2436</ele>
        <time>2012-02-17T12:42:20Z</time>
      </trkpt>
      <trkpt lat="45.49991" lon="6.62934">
        <ele>2434.6</ele>
        <time>2012-02-17T12:42:23Z</time>
      </trkpt>
      <trkpt lat="45.49999" lon="6.62929">
        <ele>2432.6</ele>
        <time>2012-02-17T12:42:28Z</time>
      </trkpt>
      <trkpt lat="45.50005" lon="6.62923">
        <ele>2432.1</ele>
        <time>2012-02-17T12:42:33Z</time>
      </trkpt>
      <trkpt lat="45.50009" lon="6.62913">
        <ele>2430.5</ele>
        <time>2012-02-17T12:42:39Z</time>
      </trkpt>
      <trkpt lat="45.50014" lon="6.62903">
        <ele>2430.6</ele>
        <time>2012-02-17T12:42:45Z</time>
      </trkpt>
      <trkpt lat="45.50018" lon="6.62893">
        <ele>2430.3</ele>
        <time>2012-02-17T12:42:52Z</time>
      </trkpt>
      <trkpt lat="45.50021" lon="6.62881">
        <ele>2430.6</ele>
        <time>2012-02-17T12:43:01Z</time>
      </trkpt>
      <trkpt lat="45.50021" lon="6.6288">
        <ele>2430.5</ele>
        <time>2012-02-17T12:43:02Z</time>
      </trkpt>
      <trkpt lat="45.5002" lon="6.62857">
        <ele>2432.3</ele>
        <time>2012-02-17T12:43:19Z</time>
      </trkpt>
      <trkpt lat="45.5002" lon="6.62845">
        <ele>2433.3</ele>
        <time>2012-02-17T12:43:29Z</time>
      </trkpt>
      <trkpt lat="45.50021" lon="6.62833">
        <ele>2434.1</ele>
        <time>2012-02-17T12:43:38Z</time>
      </trkpt>
      <trkpt lat="45.50021" lon="6.62821">
        <ele>2434.1</ele>
        <time>2012-02-17T12:43:45Z</time>
      </trkpt>
      <trkpt lat="45.5002" lon="6.62809">
        <ele>2434.1</ele>
        <time>2012-02-17T12:43:51Z</time>
      </trkpt>
      <trkpt lat="45.5002" lon="6.62798">
        <ele>2433.6</ele>
        <time>2012-02-17T12:43:57Z</time>
      </trkpt>
      <trkpt lat="45.50022" lon="6.62786">
        <ele>2433.3</ele>
        <time>2012-02-17T12:44:03Z</time>
      </trkpt>
      <trkpt lat="45.50022" lon="6.62784">
        <ele>2433</ele>
        <time>2012-02-17T12:44:04Z</time>
      </trkpt>
      <trkpt lat="45.50025" lon="6.62763">
        <ele>2434.1</ele>
        <time>2012-02-17T12:44:21Z</time>
      </trkpt>
      <trkpt lat="45.50028" lon="6.62752">
        <ele>2434.8</ele>
        <time>2012-02-17T12:44:32Z</time>
      </trkpt>
      <trkpt lat="45.50029" lon="6.6274">
        <ele>2436.3</ele>
        <time>2012-02-17T12:44:42Z</time>
      </trkpt>
      <trkpt lat="45.50032" lon="6.62728">
        <ele>2437.6</ele>
        <time>2012-02-17T12:44:56Z</time>
      </trkpt>
      <trkpt lat="45.5004" lon="6.62727">
        <ele>2441.6</ele>
        <time>2012-02-17T12:45:13Z</time>
      </trkpt>
      <trkpt lat="45.50041" lon="6.62727">
        <ele>2441.6</ele>
        <time>2012-02-17T12:45:14Z</time>
      </trkpt>
      <trkpt lat="45.50047" lon="6.62735">
        <ele>2445</ele>
        <time>2012-02-17T12:46:59Z</time>
      </trkpt>
      <trkpt lat="45.50056" lon="6.62737">
        <ele>2446.3</ele>
        <time>2012-02-17T13:17:19Z</time>
      </trkpt>
      <trkpt lat="45.50049" lon="6.62727">
        <ele>2447.3</ele>
        <time>2012-02-17T13:26:22Z</time>
      </trkpt>
      <trkpt lat="45.50035" lon="6.62715">
        <ele>2442.3</ele>
        <time>2012-02-17T13:26:32Z</time>
      </trkpt>
      <trkpt lat="45.50027" lon="6.62709">
        <ele>2440.1</ele>
        <time>2012-02-17T13:26:38Z</time>
      </trkpt>
      <trkpt lat="45.5003" lon="6.62699">
        <ele>2436.6</ele>
        <time>2012-02-17T13:26:49Z</time>
      </trkpt>
      <trkpt lat="45.5003" lon="6.6269">
        <ele>2435.3</ele>
        <time>2012-02-17T13:26:54Z</time>
      </trkpt>
      <trkpt lat="45.50025" lon="6.6268">
        <ele>2434.5</ele>
        <time>2012-02-17T13:26:56Z</time>
      </trkpt>
      <trkpt lat="45.50019" lon="6.62673">
        <ele>2432</ele>
        <time>2012-02-17T13:27:02Z</time>
      </trkpt>
      <trkpt lat="45.50015" lon="6.62664">
        <ele>2431.3</ele>
        <time>2012-02-17T13:27:05Z</time>
      </trkpt>
      <trkpt lat="45.50021" lon="6.62655">
        <ele>2429.3</ele>
        <time>2012-02-17T13:27:09Z</time>
      </trkpt>
      <trkpt lat="45.5003" lon="6.62657">
        <ele>2427.6</ele>
        <time>2012-02-17T13:27:14Z</time>
      </trkpt>
      <trkpt lat="45.50037" lon="6.62658">
        <ele>2426.5</ele>
        <time>2012-02-17T13:27:19Z</time>
      </trkpt>
      <trkpt lat="45.50045" lon="6.62659">
        <ele>2425.3</ele>
        <time>2012-02-17T13:27:22Z</time>
      </trkpt>
      <trkpt lat="45.50053" lon="6.62663">
        <ele>2423.8</ele>
        <time>2012-02-17T13:27:35Z</time>
      </trkpt>
      <trkpt lat="45.50055" lon="6.62664">
        <ele>2423.8</ele>
        <time>2012-02-17T13:27:36Z</time>
      </trkpt>
      <trkpt lat="45.50056" lon="6.62645">
        <ele>2420.8</ele>
        <time>2012-02-17T13:27:45Z</time>
      </trkpt>
      <trkpt lat="45.50056" lon="6.62633">
        <ele>2418.5</ele>
        <time>2012-02-17T13:27:49Z</time>
      </trkpt>
      <trkpt lat="45.50062" lon="6.62627">
        <ele>2416.5</ele>
        <time>2012-02-17T13:27:52Z</time>
      </trkpt>
      <trkpt lat="45.50069" lon="6.62625">
        <ele>2413.3</ele>
        <time>2012-02-17T13:27:54Z</time>
      </trkpt>
      <trkpt lat="45.50074" lon="6.62627">
        <ele>2411.8</ele>
        <time>2012-02-17T13:27:55Z</time>
      </trkpt>
      <trkpt lat="45.50082" lon="6.62631">
        <ele>2409.8</ele>
        <time>2012-02-17T13:27:57Z</time>
      </trkpt>
      <trkpt lat="45.50089" lon="6.62635">
        <ele>2408.1</ele>
        <time>2012-02-17T13:27:59Z</time>
      </trkpt>
      <trkpt lat="45.50098" lon="6.62639">
        <ele>2406.8</ele>
        <time>2012-02-17T13:28:02Z</time>
      </trkpt>
      <trkpt lat="45.50101" lon="6.62628">
        <ele>2404.1</ele>
        <time>2012-02-17T13:28:08Z</time>
      </trkpt>
      <trkpt lat="45.50098" lon="6.62622">
        <ele>2403.8</ele>
        <time>2012-02-17T13:28:09Z</time>
      </trkpt>
      <trkpt lat="45.50093" lon="6.62613">
        <ele>2401.1</ele>
        <time>2012-02-17T13:28:11Z</time>
      </trkpt>
      <trkpt lat="45.50097" lon="6.62606">
        <ele>2396.1</ele>
        <time>2012-02-17T13:28:34Z</time>
      </trkpt>
      <trkpt lat="45.50105" lon="6.62606">
        <ele>2394.8</ele>
        <time>2012-02-17T13:28:36Z</time>
      </trkpt>
      <trkpt lat="45.50107" lon="6.62594">
        <ele>2391</ele>
        <time>2012-02-17T13:28:41Z</time>
      </trkpt>
      <trkpt lat="45.50104" lon="6.62589">
        <ele>2390.1</ele>
        <time>2012-02-17T13:28:42Z</time>
      </trkpt>
      <trkpt lat="45.50106" lon="6.62574">
        <ele>2379.8</ele>
        <time>2012-02-17T13:29:58Z</time>
      </trkpt>
      <trkpt lat="45.50107" lon="6.62575">
        <ele>2379.5</ele>
        <time>2012-02-17T13:29:59Z</time>
      </trkpt>
      <trkpt lat="45.50111" lon="6.62558">
        <ele>2373.1</ele>
        <time>2012-02-17T13:30:10Z</time>
      </trkpt>
      <trkpt lat="45.5011" lon="6.62545">
        <ele>2368.8</ele>
        <time>2012-02-17T13:30:16Z</time>
      </trkpt>
      <trkpt lat="45.50116" lon="6.62538">
        <ele>2362.1</ele>
        <time>2012-02-17T13:30:41Z</time>
      </trkpt>
      <trkpt lat="45.50121" lon="6.62528">
        <ele>2356.1</ele>
        <time>2012-02-17T13:30:49Z</time>
      </trkpt>
      <trkpt lat="45.50129" lon="6.62527">
        <ele>2351.1</ele>
        <time>2012-02-17T13:31:14Z</time>
      </trkpt>
      <trkpt lat="45.50131" lon="6.62527">
        <ele>2350.8</ele>
        <time>2012-02-17T13:31:15Z</time>
      </trkpt>
      <trkpt lat="45.50143" lon="6.62515">
        <ele>2345.8</ele>
        <time>2012-02-17T13:31:24Z</time>
      </trkpt>
      <trkpt lat="45.50143" lon="6.62503">
        <ele>2337.8</ele>
        <time>2012-02-17T13:31:33Z</time>
      </trkpt>
      <trkpt lat="45.50147" lon="6.62492">
        <ele>2334.5</ele>
        <time>2012-02-17T13:31:42Z</time>
      </trkpt>
      <trkpt lat="45.50154" lon="6.62488">
        <ele>2328.6</ele>
        <time>2012-02-17T13:32:21Z</time>
      </trkpt>
      <trkpt lat="45.50156" lon="6.62487">
        <ele>2328.6</ele>
        <time>2012-02-17T13:32:22Z</time>
      </trkpt>
      <trkpt lat="45.50167" lon="6.62477">
        <ele>2323.6</ele>
        <time>2012-02-17T13:32:31Z</time>
      </trkpt>
      <trkpt lat="45.50165" lon="6.62465">
        <ele>2318.8</ele>
        <time>2012-02-17T13:32:35Z</time>
      </trkpt>
      <trkpt lat="45.50171" lon="6.62457">
        <ele>2314.1</ele>
        <time>2012-02-17T13:32:46Z</time>
      </trkpt>
      <trkpt lat="45.50166" lon="6.62448">
        <ele>2311.1</ele>
        <time>2012-02-17T13:32:50Z</time>
      </trkpt>
      <trkpt lat="45.50169" lon="6.62437">
        <ele>2305.6</ele>
        <time>2012-02-17T13:33:24Z</time>
      </trkpt>
      <trkpt lat="45.5017" lon="6.62435">
        <ele>2304.6</ele>
        <time>2012-02-17T13:33:25Z</time>
      </trkpt>
      <trkpt lat="45.50168" lon="6.62419">
        <ele>2297.3</ele>
        <time>2012-02-17T13:33:40Z</time>
      </trkpt>
      <trkpt lat="45.50173" lon="6.62409">
        <ele>2290.5</ele>
        <time>2012-02-17T13:34:09Z</time>
      </trkpt>
      <trkpt lat="45.50172" lon="6.62397">
        <ele>2286.1</ele>
        <time>2012-02-17T13:34:17Z</time>
      </trkpt>
      <trkpt lat="45.50178" lon="6.62389">
        <ele>2281</ele>
        <time>2012-02-17T13:34:26Z</time>
      </trkpt>
      <trkpt lat="45.50179" lon="6.62378">
        <ele>2275.3</ele>
        <time>2012-02-17T13:35:30Z</time>
      </trkpt>
      <trkpt lat="45.50177" lon="6.62376">
        <ele>2274.8</ele>
        <time>2012-02-17T13:35:31Z</time>
      </trkpt>
      <trkpt lat="45.50181" lon="6.62368">
        <ele>2266.8</ele>
        <time>2012-02-17T13:35:50Z</time>
      </trkpt>
      <trkpt lat="45.50177" lon="6.62357">
        <ele>2262.5</ele>
        <time>2012-02-17T13:35:58Z</time>
      </trkpt>
      <trkpt lat="45.50185" lon="6.62353">
        <ele>2258.1</ele>
        <time>2012-02-17T13:36:13Z</time>
      </trkpt>
      <trkpt lat="45.50193" lon="6.62353">
        <ele>2256.6</ele>
        <time>2012-02-17T13:36:18Z</time>
      </trkpt>
      <trkpt lat="45.502" lon="6.62356">
        <ele>2255.3</ele>
        <time>2012-02-17T13:36:21Z</time>
      </trkpt>
      <trkpt lat="45.50208" lon="6.6236">
        <ele>2251.6</ele>
        <time>2012-02-17T13:36:55Z</time>
      </trkpt>
      <trkpt lat="45.50209" lon="6.62359">
        <ele>2251.6</ele>
        <time>2012-02-17T13:36:56Z</time>
      </trkpt>
      <trkpt lat="45.50219" lon="6.62342">
        <ele>2244.8</ele>
        <time>2012-02-17T13:37:02Z</time>
      </trkpt>
      <trkpt lat="45.50226" lon="6.62334">
        <ele>2240.8</ele>
        <time>2012-02-17T13:37:05Z</time>
      </trkpt>
      <trkpt lat="45.50226" lon="6.62324">
        <ele>2237.3</ele>
        <time>2012-02-17T13:37:07Z</time>
      </trkpt>
      <trkpt lat="45.50228" lon="6.62312">
        <ele>2228.8</ele>
        <time>2012-02-17T13:37:13Z</time>
      </trkpt>
      <trkpt lat="45.50232" lon="6.62303">
        <ele>2225</ele>
        <time>2012-02-17T13:37:18Z</time>
      </trkpt>
      <trkpt lat="45.50233" lon="6.62291">
        <ele>2221</ele>
        <time>2012-02-17T13:37:22Z</time>
      </trkpt>
      <trkpt lat="45.5023" lon="6.6228">
        <ele>2214.8</ele>
        <time>2012-02-17T13:37:32Z</time>
      </trkpt>
      <trkpt lat="45.50236" lon="6.62271">
        <ele>2213.6</ele>
        <time>2012-02-17T13:37:35Z</time>
      </trkpt>
      <trkpt lat="45.50239" lon="6.62262">
        <ele>2211.3</ele>
        <time>2012-02-17T13:37:37Z</time>
      </trkpt>
      <trkpt lat="45.50247" lon="6.62257">
        <ele>2200.6</ele>
        <time>2012-02-17T13:39:30Z</time>
      </trkpt>
      <trkpt lat="45.50247" lon="6.62254">
        <ele>2200.1</ele>
        <time>2012-02-17T13:39:31Z</time>
      </trkpt>
      <trkpt lat="45.50253" lon="6.6224">
        <ele>2191.1</ele>
        <time>2012-02-17T13:40:02Z</time>
      </trkpt>
      <trkpt lat="45.50261" lon="6.62243">
        <ele>2187.1</ele>
        <time>2012-02-17T13:40:25Z</time>
      </trkpt>
      <trkpt lat="45.50263" lon="6.62231">
        <ele>2182.5</ele>
        <time>2012-02-17T13:41:15Z</time>
      </trkpt>
      <trkpt lat="45.50262" lon="6.62229">
        <ele>2182.1</ele>
        <time>2012-02-17T13:41:16Z</time>
      </trkpt>
      <trkpt lat="45.50275" lon="6.62222">
        <ele>2172.6</ele>
        <time>2012-02-17T13:41:36Z</time>
      </trkpt>
      <trkpt lat="45.5028" lon="6.62212">
        <ele>2165</ele>
        <time>2012-02-17T13:42:00Z</time>
      </trkpt>
      <trkpt lat="45.50276" lon="6.62201">
        <ele>2161.1</ele>
        <time>2012-02-17T13:42:06Z</time>
      </trkpt>
      <trkpt lat="45.50283" lon="6.62193">
        <ele>2151.1</ele>
        <time>2012-02-17T13:42:23Z</time>
      </trkpt>
      <trkpt lat="45.50284" lon="6.62193">
        <ele>2150.5</ele>
        <time>2012-02-17T13:42:24Z</time>
      </trkpt>
      <trkpt lat="45.50288" lon="6.62177">
        <ele>2142.3</ele>
        <time>2012-02-17T13:42:49Z</time>
      </trkpt>
      <trkpt lat="45.50284" lon="6.62166">
        <ele>2139</ele>
        <time>2012-02-17T13:42:54Z</time>
      </trkpt>
      <trkpt lat="45.50284" lon="6.62155">
        <ele>2136.3</ele>
        <time>2012-02-17T13:42:58Z</time>
      </trkpt>
      <trkpt lat="45.50292" lon="6.62152">
        <ele>2133.1</ele>
        <time>2012-02-17T13:43:01Z</time>
      </trkpt>
      <trkpt lat="45.50297" lon="6.62146">
        <ele>2130.3</ele>
        <time>2012-02-17T13:43:03Z</time>
      </trkpt>
      <trkpt lat="45.50303" lon="6.62139">
        <ele>2126.6</ele>
        <time>2012-02-17T13:43:05Z</time>
      </trkpt>
      <trkpt lat="45.50303" lon="6.6213">
        <ele>2123.6</ele>
        <time>2012-02-17T13:43:07Z</time>
      </trkpt>
      <trkpt lat="45.50304" lon="6.62117">
        <ele>2117.8</ele>
        <time>2012-02-17T13:43:11Z</time>
      </trkpt>
      <trkpt lat="45.50303" lon="6.62108">
        <ele>2112.5</ele>
        <time>2012-02-17T13:47:01Z</time>
      </trkpt>
      <trkpt lat="45.50301" lon="6.62105">
        <ele>2112</ele>
        <time>2012-02-17T13:47:02Z</time>
      </trkpt>
      <trkpt lat="45.50294" lon="6.62089">
        <ele>2109.1</ele>
        <time>2012-02-17T13:47:07Z</time>
      </trkpt>
      <trkpt lat="45.50295" lon="6.62079">
        <ele>2107.6</ele>
        <time>2012-02-17T13:47:09Z</time>
      </trkpt>
      <trkpt lat="45.503" lon="6.6207">
        <ele>2103.8</ele>
        <time>2012-02-17T13:47:12Z</time>
      </trkpt>
      <trkpt lat="45.50298" lon="6.62058">
        <ele>2099</ele>
        <time>2012-02-17T13:47:16Z</time>
      </trkpt>
      <trkpt lat="45.50303" lon="6.62049">
        <ele>2093</ele>
        <time>2012-02-17T13:47:44Z</time>
      </trkpt>
      <trkpt lat="45.50302" lon="6.62039">
        <ele>2091.5</ele>
        <time>2012-02-17T13:47:47Z</time>
      </trkpt>
      <trkpt lat="45.50299" lon="6.62027">
        <ele>2083</ele>
        <time>2012-02-17T13:48:14Z</time>
      </trkpt>
      <trkpt lat="45.50299" lon="6.62027">
        <ele>2083</ele>
        <time>2012-02-17T13:48:15Z</time>
      </trkpt>
      <trkpt lat="45.50299" lon="6.62005">
        <ele>2076.1</ele>
        <time>2012-02-17T13:48:27Z</time>
      </trkpt>
      <trkpt lat="45.50299" lon="6.61994">
        <ele>2072.6</ele>
        <time>2012-02-17T13:48:30Z</time>
      </trkpt>
      <trkpt lat="45.50299" lon="6.61983">
        <ele>2069.1</ele>
        <time>2012-02-17T13:48:33Z</time>
      </trkpt>
      <trkpt lat="45.50306" lon="6.61979">
        <ele>2056.5</ele>
        <time>2012-02-17T13:49:02Z</time>
      </trkpt>
      <trkpt lat="45.50311" lon="6.61971">
        <ele>2054.6</ele>
        <time>2012-02-17T13:49:06Z</time>
      </trkpt>
      <trkpt lat="45.50316" lon="6.61963">
        <ele>2052.3</ele>
        <time>2012-02-17T13:49:08Z</time>
      </trkpt>
      <trkpt lat="45.5032" lon="6.61955">
        <ele>2049.8</ele>
        <time>2012-02-17T13:49:10Z</time>
      </trkpt>
      <trkpt lat="45.50321" lon="6.61947">
        <ele>2046.3</ele>
        <time>2012-02-17T13:49:12Z</time>
      </trkpt>
      <trkpt lat="45.50324" lon="6.61937">
        <ele>2043</ele>
        <time>2012-02-17T13:49:14Z</time>
      </trkpt>
      <trkpt lat="45.50325" lon="6.6193">
        <ele>2041.1</ele>
        <time>2012-02-17T13:49:15Z</time>
      </trkpt>
      <trkpt lat="45.50327" lon="6.61922">
        <ele>2039.8</ele>
        <time>2012-02-17T13:49:16Z</time>
      </trkpt>
      <trkpt lat="45.50328" lon="6.61913">
        <ele>2036.8</ele>
        <time>2012-02-17T13:49:17Z</time>
      </trkpt>
      <trkpt lat="45.50329" lon="6.61903">
        <ele>2034.5</ele>
        <time>2012-02-17T13:49:18Z</time>
      </trkpt>
      <trkpt lat="45.5033" lon="6.61892">
        <ele>2031.6</ele>
        <time>2012-02-17T13:49:19Z</time>
      </trkpt>
      <trkpt lat="45.50331" lon="6.61882">
        <ele>2029.5</ele>
        <time>2012-02-17T13:49:20Z</time>
      </trkpt>
      <trkpt lat="45.50332" lon="6.61873">
        <ele>2027.9</ele>
        <time>2012-02-17T13:49:21Z</time>
      </trkpt>
      <trkpt lat="45.50333" lon="6.61862">
        <ele>2025</ele>
        <time>2012-02-17T13:49:23Z</time>
      </trkpt>
      <trkpt lat="45.50338" lon="6.61851">
        <ele>2021.4</ele>
        <time>2012-02-17T13:49:35Z</time>
      </trkpt>
      <trkpt lat="45.5033" lon="6.61843">
        <ele>2020.3</ele>
        <time>2012-02-17T13:55:39Z</time>
      </trkpt>
      <trkpt lat="45.50329" lon="6.61839">
        <ele>2019.5</ele>
        <time>2012-02-17T13:55:40Z</time>
      </trkpt>
      <trkpt lat="45.50327" lon="6.61821">
        <ele>2013.5</ele>
        <time>2012-02-17T13:55:48Z</time>
      </trkpt>
      <trkpt lat="45.50323" lon="6.61811">
        <ele>2011.5</ele>
        <time>2012-02-17T13:55:52Z</time>
      </trkpt>
      <trkpt lat="45.50319" lon="6.618">
        <ele>2009</ele>
        <time>2012-02-17T13:55:55Z</time>
      </trkpt>
      <trkpt lat="45.50317" lon="6.61789">
        <ele>2004.1</ele>
        <time>2012-02-17T13:56:01Z</time>
      </trkpt>
      <trkpt lat="45.50317" lon="6.61777">
        <ele>2001.9</ele>
        <time>2012-02-17T13:56:06Z</time>
      </trkpt>
      <trkpt lat="45.50321" lon="6.61767">
        <ele>1995.5</ele>
        <time>2012-02-17T13:56:12Z</time>
      </trkpt>
      <trkpt lat="45.50325" lon="6.61755">
        <ele>1992.5</ele>
        <time>2012-02-17T13:56:16Z</time>
      </trkpt>
      <trkpt lat="45.50329" lon="6.61747">
        <ele>1989.3</ele>
        <time>2012-02-17T13:56:18Z</time>
      </trkpt>
      <trkpt lat="45.50332" lon="6.61737">
        <ele>1984.8</ele>
        <time>2012-02-17T13:56:38Z</time>
      </trkpt>
      <trkpt lat="45.50334" lon="6.61724">
        <ele>1982.9</ele>
        <time>2012-02-17T13:56:42Z</time>
      </trkpt>
      <trkpt lat="45.50336" lon="6.61721">
        <ele>1981.9</ele>
        <time>2012-02-17T13:56:43Z</time>
      </trkpt>
      <trkpt lat="45.50338" lon="6.6171">
        <ele>1980.5</ele>
        <time>2012-02-17T13:56:45Z</time>
      </trkpt>
      <trkpt lat="45.50339" lon="6.61703">
        <ele>1978.9</ele>
        <time>2012-02-17T13:56:46Z</time>
      </trkpt>
      <trkpt lat="45.50339" lon="6.61696">
        <ele>1977.5</ele>
        <time>2012-02-17T13:56:47Z</time>
      </trkpt>
      <trkpt lat="45.50339" lon="6.6169">
        <ele>1975.5</ele>
        <time>2012-02-17T13:56:48Z</time>
      </trkpt>
      <trkpt lat="45.5034" lon="6.61683">
        <ele>1974</ele>
        <time>2012-02-17T13:56:49Z</time>
      </trkpt>
      <trkpt lat="45.5034" lon="6.61676">
        <ele>1971.9</ele>
        <time>2012-02-17T13:56:50Z</time>
      </trkpt>
      <trkpt lat="45.5034" lon="6.61669">
        <ele>1970.4</ele>
        <time>2012-02-17T13:56:51Z</time>
      </trkpt>
      <trkpt lat="45.50339" lon="6.61662">
        <ele>1969.1</ele>
        <time>2012-02-17T13:56:52Z</time>
      </trkpt>
      <trkpt lat="45.50339" lon="6.61655">
        <ele>1967.3</ele>
        <time>2012-02-17T13:56:53Z</time>
      </trkpt>
      <trkpt lat="45.50338" lon="6.61648">
        <ele>1966</ele>
        <time>2012-02-17T13:56:54Z</time>
      </trkpt>
      <trkpt lat="45.50339" lon="6.61641">
        <ele>1963.5</ele>
        <time>2012-02-17T13:56:55Z</time>
      </trkpt>
      <trkpt lat="45.50341" lon="6.61634">
        <ele>1961.8</ele>
        <time>2012-02-17T13:56:56Z</time>
      </trkpt>
      <trkpt lat="45.50344" lon="6.61627">
        <ele>1959.3</ele>
        <time>2012-02-17T13:56:57Z</time>
      </trkpt>
      <trkpt lat="45.50347" lon="6.61619">
        <ele>1957.3</ele>
        <time>2012-02-17T13:56:58Z</time>
      </trkpt>
      <trkpt lat="45.5035" lon="6.6161">
        <ele>1955.9</ele>
        <time>2012-02-17T13:56:59Z</time>
      </trkpt>
      <trkpt lat="45.50352" lon="6.61601">
        <ele>1954.1</ele>
        <time>2012-02-17T13:57:00Z</time>
      </trkpt>
      <trkpt lat="45.50354" lon="6.61592">
        <ele>1953</ele>
        <time>2012-02-17T13:57:01Z</time>
      </trkpt>
      <trkpt lat="45.50355" lon="6.61583">
        <ele>1951.3</ele>
        <time>2012-02-17T13:57:02Z</time>
      </trkpt>
      <trkpt lat="45.50355" lon="6.61573">
        <ele>1950</ele>
        <time>2012-02-17T13:57:03Z</time>
      </trkpt>
      <trkpt lat="45.50356" lon="6.61564">
        <ele>1949.1</ele>
        <time>2012-02-17T13:57:04Z</time>
      </trkpt>
      <trkpt lat="45.50356" lon="6.61556">
        <ele>1948.3</ele>
        <time>2012-02-17T13:57:05Z</time>
      </trkpt>
      <trkpt lat="45.50355" lon="6.61548">
        <ele>1947.5</ele>
        <time>2012-02-17T13:57:06Z</time>
      </trkpt>
      <trkpt lat="45.50356" lon="6.6154">
        <ele>1947</ele>
        <time>2012-02-17T13:57:07Z</time>
      </trkpt>
      <trkpt lat="45.50356" lon="6.61533">
        <ele>1946.5</ele>
        <time>2012-02-17T13:57:08Z</time>
      </trkpt>
      <trkpt lat="45.50357" lon="6.61522">
        <ele>1946</ele>
        <time>2012-02-17T13:57:10Z</time>
      </trkpt>
      <trkpt lat="45.50359" lon="6.6151">
        <ele>1945.9</ele>
        <time>2012-02-17T13:58:18Z</time>
      </trkpt>
      <trkpt lat="45.5036" lon="6.61509">
        <ele>1945.8</ele>
        <time>2012-02-17T13:58:19Z</time>
      </trkpt>
      <trkpt lat="45.50361" lon="6.61494">
        <ele>1945.4</ele>
        <time>2012-02-17T13:59:45Z</time>
      </trkpt>
      <trkpt lat="45.50363" lon="6.61477">
        <ele>1944.9</ele>
        <time>2012-02-17T13:59:49Z</time>
      </trkpt>
      <trkpt lat="45.50363" lon="6.61465">
        <ele>1944</ele>
        <time>2012-02-17T13:59:51Z</time>
      </trkpt>
      <trkpt lat="45.50361" lon="6.61453">
        <ele>1942.4</ele>
        <time>2012-02-17T13:59:53Z</time>
      </trkpt>
      <trkpt lat="45.5036" lon="6.61442">
        <ele>1940.4</ele>
        <time>2012-02-17T13:59:55Z</time>
      </trkpt>
      <trkpt lat="45.50359" lon="6.61433">
        <ele>1938.8</ele>
        <time>2012-02-17T13:59:57Z</time>
      </trkpt>
      <trkpt lat="45.50357" lon="6.61423">
        <ele>1937.9</ele>
        <time>2012-02-17T13:59:59Z</time>
      </trkpt>
      <trkpt lat="45.50355" lon="6.61413">
        <ele>1936.5</ele>
        <time>2012-02-17T14:00:03Z</time>
      </trkpt>
      <trkpt lat="45.50349" lon="6.61403">
        <ele>1936.4</ele>
        <time>2012-02-17T14:00:09Z</time>
      </trkpt>
      <trkpt lat="45.50342" lon="6.61397">
        <ele>1935.5</ele>
        <time>2012-02-17T14:00:13Z</time>
      </trkpt>
      <trkpt lat="45.50338" lon="6.61391">
        <ele>1934</ele>
        <time>2012-02-17T14:00:15Z</time>
      </trkpt>
      <trkpt lat="45.50332" lon="6.61384">
        <ele>1932.9</ele>
        <time>2012-02-17T14:00:17Z</time>
      </trkpt>
      <trkpt lat="45.50327" lon="6.61376">
        <ele>1931.4</ele>
        <time>2012-02-17T14:00:19Z</time>
      </trkpt>
      <trkpt lat="45.50322" lon="6.61366">
        <ele>1930.1</ele>
        <time>2012-02-17T14:00:21Z</time>
      </trkpt>
      <trkpt lat="45.50317" lon="6.61356">
        <ele>1928.5</ele>
        <time>2012-02-17T14:00:23Z</time>
      </trkpt>
      <trkpt lat="45.50314" lon="6.61346">
        <ele>1926.3</ele>
        <time>2012-02-17T14:00:25Z</time>
      </trkpt>
      <trkpt lat="45.50315" lon="6.61337">
        <ele>1924</ele>
        <time>2012-02-17T14:00:27Z</time>
      </trkpt>
      <trkpt lat="45.50317" lon="6.61327">
        <ele>1922.5</ele>
        <time>2012-02-17T14:00:30Z</time>
      </trkpt>
      <trkpt lat="45.50317" lon="6.61316">
        <ele>1919.6</ele>
        <time>2012-02-17T14:00:48Z</time>
      </trkpt>
      <trkpt lat="45.50314" lon="6.61313">
        <ele>1919.5</ele>
        <time>2012-02-17T14:00:49Z</time>
      </trkpt>
      <trkpt lat="45.50312" lon="6.61299">
        <ele>1916.9</ele>
        <time>2012-02-17T14:00:52Z</time>
      </trkpt>
      <trkpt lat="45.50312" lon="6.6129">
        <ele>1915.3</ele>
        <time>2012-02-17T14:00:54Z</time>
      </trkpt>
      <trkpt lat="45.50311" lon="6.6128">
        <ele>1912.6</ele>
        <time>2012-02-17T14:00:56Z</time>
      </trkpt>
      <trkpt lat="45.50309" lon="6.61271">
        <ele>1909.5</ele>
        <time>2012-02-17T14:00:58Z</time>
      </trkpt>
      <trkpt lat="45.50308" lon="6.61262">
        <ele>1905.5</ele>
        <time>2012-02-17T14:01:00Z</time>
      </trkpt>
      <trkpt lat="45.50308" lon="6.61251">
        <ele>1902.3</ele>
        <time>2012-02-17T14:01:02Z</time>
      </trkpt>
      <trkpt lat="45.5031" lon="6.6124">
        <ele>1898.6</ele>
        <time>2012-02-17T14:01:04Z</time>
      </trkpt>
      <trkpt lat="45.50312" lon="6.61232">
        <ele>1897</ele>
        <time>2012-02-17T14:01:05Z</time>
      </trkpt>
      <trkpt lat="45.50312" lon="6.61223">
        <ele>1895.8</ele>
        <time>2012-02-17T14:01:06Z</time>
      </trkpt>
      <trkpt lat="45.50313" lon="6.61215">
        <ele>1893.5</ele>
        <time>2012-02-17T14:01:07Z</time>
      </trkpt>
      <trkpt lat="45.50313" lon="6.61207">
        <ele>1892</ele>
        <time>2012-02-17T14:01:08Z</time>
      </trkpt>
      <trkpt lat="45.50313" lon="6.612">
        <ele>1890.1</ele>
        <time>2012-02-17T14:01:09Z</time>
      </trkpt>
      <trkpt lat="45.50314" lon="6.61193">
        <ele>1888.8</ele>
        <time>2012-02-17T14:01:10Z</time>
      </trkpt>
      <trkpt lat="45.50314" lon="6.61186">
        <ele>1887</ele>
        <time>2012-02-17T14:01:11Z</time>
      </trkpt>
      <trkpt lat="45.50315" lon="6.6118">
        <ele>1885.6</ele>
        <time>2012-02-17T14:01:12Z</time>
      </trkpt>
      <trkpt lat="45.50316" lon="6.61169">
        <ele>1883.1</ele>
        <time>2012-02-17T14:01:14Z</time>
      </trkpt>
      <trkpt lat="45.50322" lon="6.61159">
        <ele>1878.1</ele>
        <time>2012-02-17T14:01:42Z</time>
      </trkpt>
      <trkpt lat="45.50323" lon="6.61147">
        <ele>1876.8</ele>
        <time>2012-02-17T14:01:51Z</time>
      </trkpt>
      <trkpt lat="45.50324" lon="6.61146">
        <ele>1877.5</ele>
        <time>2012-02-17T14:01:52Z</time>
      </trkpt>
      <trkpt lat="45.50325" lon="6.61128">
        <ele>1875.8</ele>
        <time>2012-02-17T14:01:58Z</time>
      </trkpt>
      <trkpt lat="45.50325" lon="6.61117">
        <ele>1875.1</ele>
        <time>2012-02-17T14:02:00Z</time>
      </trkpt>
      <trkpt lat="45.50325" lon="6.61111">
        <ele>1874</ele>
        <time>2012-02-17T14:02:01Z</time>
      </trkpt>
      <trkpt lat="45.50326" lon="6.61104">
        <ele>1873.3</ele>
        <time>2012-02-17T14:02:02Z</time>
      </trkpt>
      <trkpt lat="45.50327" lon="6.61091">
        <ele>1871.6</ele>
        <time>2012-02-17T14:02:04Z</time>
      </trkpt>
      <trkpt lat="45.50328" lon="6.61081">
        <ele>1870.3</ele>
        <time>2012-02-17T14:02:06Z</time>
      </trkpt>
      <trkpt lat="45.50337" lon="6.61077">
        <ele>1867.6</ele>
        <time>2012-02-17T14:02:47Z</time>
      </trkpt>
      <trkpt lat="45.5033" lon="6.61068">
        <ele>1867.5</ele>
        <time>2012-02-17T14:05:25Z</time>
      </trkpt>
      <trkpt lat="45.5033" lon="6.61068">
        <ele>1867.8</ele>
        <time>2012-02-17T14:05:26Z</time>
      </trkpt>
      <trkpt lat="45.50322" lon="6.61056">
        <ele>1866.4</ele>
        <time>2012-02-17T14:05:42Z</time>
      </trkpt>
      <trkpt lat="45.50315" lon="6.61048">
        <ele>1865.3</ele>
        <time>2012-02-17T14:05:44Z</time>
      </trkpt>
      <trkpt lat="45.50312" lon="6.61043">
        <ele>1864.5</ele>
        <time>2012-02-17T14:05:45Z</time>
      </trkpt>
      <trkpt lat="45.50305" lon="6.61035">
        <ele>1863</ele>
        <time>2012-02-17T14:05:47Z</time>
      </trkpt>
      <trkpt lat="45.50298" lon="6.61029">
        <ele>1862</ele>
        <time>2012-02-17T14:05:49Z</time>
      </trkpt>
      <trkpt lat="45.50294" lon="6.61026">
        <ele>1861.8</ele>
        <time>2012-02-17T14:05:50Z</time>
      </trkpt>
      <trkpt lat="45.50286" lon="6.61021">
        <ele>1860.1</ele>
        <time>2012-02-17T14:05:52Z</time>
      </trkpt>
      <trkpt lat="45.50279" lon="6.6102">
        <ele>1859</ele>
        <time>2012-02-17T14:05:54Z</time>
      </trkpt>
      <trkpt lat="45.5027" lon="6.61019">
        <ele>1857.4</ele>
        <time>2012-02-17T14:05:56Z</time>
      </trkpt>
      <trkpt lat="45.50262" lon="6.61018">
        <ele>1856</ele>
        <time>2012-02-17T14:05:58Z</time>
      </trkpt>
      <trkpt lat="45.50253" lon="6.61015">
        <ele>1854.4</ele>
        <time>2012-02-17T14:06:01Z</time>
      </trkpt>
      <trkpt lat="45.50262" lon="6.61016">
        <ele>1853</ele>
        <time>2012-02-17T14:07:48Z</time>
      </trkpt>
      <trkpt lat="45.50263" lon="6.61016">
        <ele>1853.1</ele>
        <time>2012-02-17T14:07:49Z</time>
      </trkpt>
      <trkpt lat="45.50253" lon="6.61001">
        <ele>1850.5</ele>
        <time>2012-02-17T14:08:11Z</time>
      </trkpt>
      <trkpt lat="45.5025" lon="6.6099">
        <ele>1848.4</ele>
        <time>2012-02-17T14:08:14Z</time>
      </trkpt>
      <trkpt lat="45.50244" lon="6.6098">
        <ele>1845.5</ele>
        <time>2012-02-17T14:08:30Z</time>
      </trkpt>
      <trkpt lat="45.50237" lon="6.60972">
        <ele>1844.1</ele>
        <time>2012-02-17T14:08:34Z</time>
      </trkpt>
      <trkpt lat="45.50238" lon="6.6096">
        <ele>1841.8</ele>
        <time>2012-02-17T14:08:42Z</time>
      </trkpt>
      <trkpt lat="45.50247" lon="6.60957">
        <ele>1839.5</ele>
        <time>2012-02-17T14:08:48Z</time>
      </trkpt>
      <trkpt lat="45.50255" lon="6.60953">
        <ele>1836.1</ele>
        <time>2012-02-17T14:08:52Z</time>
      </trkpt>
      <trkpt lat="45.50257" lon="6.60953">
        <ele>1835.6</ele>
        <time>2012-02-17T14:08:53Z</time>
      </trkpt>
      <trkpt lat="45.50271" lon="6.60952">
        <ele>1832.1</ele>
        <time>2012-02-17T14:09:02Z</time>
      </trkpt>
      <trkpt lat="45.50279" lon="6.60946">
        <ele>1829</ele>
        <time>2012-02-17T14:09:13Z</time>
      </trkpt>
      <trkpt lat="45.50286" lon="6.60943">
        <ele>1827</ele>
        <time>2012-02-17T14:09:25Z</time>
      </trkpt>
      <trkpt lat="45.50295" lon="6.60938">
        <ele>1825</ele>
        <time>2012-02-17T14:09:40Z</time>
      </trkpt>
      <trkpt lat="45.50298" lon="6.60927">
        <ele>1823.1</ele>
        <time>2012-02-17T14:09:48Z</time>
      </trkpt>
      <trkpt lat="45.50305" lon="6.6092">
        <ele>1821.6</ele>
        <time>2012-02-17T14:10:07Z</time>
      </trkpt>
      <trkpt lat="45.50306" lon="6.60919">
        <ele>1822</ele>
        <time>2012-02-17T14:10:08Z</time>
      </trkpt>
      <trkpt lat="45.50317" lon="6.60909">
        <ele>1815.4</ele>
        <time>2012-02-17T14:10:21Z</time>
      </trkpt>
      <trkpt lat="45.50325" lon="6.60905">
        <ele>1813.8</ele>
        <time>2012-02-17T14:10:28Z</time>
      </trkpt>
      <trkpt lat="45.50333" lon="6.609">
        <ele>1809</ele>
        <time>2012-02-17T14:10:38Z</time>
      </trkpt>
      <trkpt lat="45.50341" lon="6.60898">
        <ele>1806.1</ele>
        <time>2012-02-17T14:10:50Z</time>
      </trkpt>
      <trkpt lat="45.5035" lon="6.60895">
        <ele>1802.4</ele>
        <time>2012-02-17T14:10:57Z</time>
      </trkpt>
      <trkpt lat="45.50358" lon="6.60891">
        <ele>1800.9</ele>
        <time>2012-02-17T14:11:12Z</time>
      </trkpt>
      <trkpt lat="45.50359" lon="6.60891">
        <ele>1800.9</ele>
        <time>2012-02-17T14:11:13Z</time>
      </trkpt>
      <trkpt lat="45.50373" lon="6.60883">
        <ele>1795</ele>
        <time>2012-02-17T14:11:47Z</time>
      </trkpt>
      <trkpt lat="45.50381" lon="6.60879">
        <ele>1791.5</ele>
        <time>2012-02-17T14:11:55Z</time>
      </trkpt>
      <trkpt lat="45.50374" lon="6.60873">
        <ele>1789.8</ele>
        <time>2012-02-17T14:12:07Z</time>
      </trkpt>
      <trkpt lat="45.50367" lon="6.60865">
        <ele>1789.1</ele>
        <time>2012-02-17T14:12:12Z</time>
      </trkpt>
      <trkpt lat="45.5036" lon="6.60859">
        <ele>1788.5</ele>
        <time>2012-02-17T14:12:16Z</time>
      </trkpt>
      <trkpt lat="45.50358" lon="6.60858">
        <ele>1788.3</ele>
        <time>2012-02-17T14:12:17Z</time>
      </trkpt>
      <trkpt lat="45.50346" lon="6.60845">
        <ele>1786.5</ele>
        <time>2012-02-17T14:12:22Z</time>
      </trkpt>
      <trkpt lat="45.50352" lon="6.60837">
        <ele>1784</ele>
        <time>2012-02-17T14:12:33Z</time>
      </trkpt>
      <trkpt lat="45.50359" lon="6.60831">
        <ele>1781.5</ele>
        <time>2012-02-17T14:12:37Z</time>
      </trkpt>
      <trkpt lat="45.50366" lon="6.60826">
        <ele>1776.9</ele>
        <time>2012-02-17T14:12:43Z</time>
      </trkpt>
      <trkpt lat="45.50372" lon="6.6082">
        <ele>1774.9</ele>
        <time>2012-02-17T14:12:46Z</time>
      </trkpt>
      <trkpt lat="45.50376" lon="6.60808">
        <ele>1770.5</ele>
        <time>2012-02-17T14:12:54Z</time>
      </trkpt>
      <trkpt lat="45.50384" lon="6.60808">
        <ele>1769.8</ele>
        <time>2012-02-17T14:13:23Z</time>
      </trkpt>
      <trkpt lat="45.50385" lon="6.60808">
        <ele>1769.6</ele>
        <time>2012-02-17T14:13:24Z</time>
      </trkpt>
      <trkpt lat="45.50393" lon="6.60791">
        <ele>1766.1</ele>
        <time>2012-02-17T14:13:57Z</time>
      </trkpt>
      <trkpt lat="45.50401" lon="6.60784">
        <ele>1764.3</ele>
        <time>2012-02-17T14:14:01Z</time>
      </trkpt>
      <trkpt lat="45.50407" lon="6.60778">
        <ele>1762.5</ele>
        <time>2012-02-17T14:14:03Z</time>
      </trkpt>
      <trkpt lat="45.50414" lon="6.60774">
        <ele>1760.9</ele>
        <time>2012-02-17T14:14:05Z</time>
      </trkpt>
      <trkpt lat="45.50422" lon="6.60771">
        <ele>1759.5</ele>
        <time>2012-02-17T14:14:08Z</time>
      </trkpt>
      <trkpt lat="45.50416" lon="6.60761">
        <ele>1755.6</ele>
        <time>2012-02-17T14:15:37Z</time>
      </trkpt>
      <trkpt lat="45.50414" lon="6.60759">
        <ele>1755</ele>
        <time>2012-02-17T14:15:38Z</time>
      </trkpt>
      <trkpt lat="45.50408" lon="6.6074">
        <ele>1749</ele>
        <time>2012-02-17T14:16:58Z</time>
      </trkpt>
      <trkpt lat="45.50408" lon="6.6074">
        <ele>1749.3</ele>
        <time>2012-02-17T14:16:59Z</time>
      </trkpt>
      <trkpt lat="45.50414" lon="6.6073">
        <ele>1748.3</ele>
        <time>2012-02-17T14:20:28Z</time>
      </trkpt>
      <trkpt lat="45.50418" lon="6.60711">
        <ele>1745.6</ele>
        <time>2012-02-17T14:20:37Z</time>
      </trkpt>
      <trkpt lat="45.50424" lon="6.60701">
        <ele>1742.5</ele>
        <time>2012-02-17T14:20:42Z</time>
      </trkpt>
      <trkpt lat="45.50429" lon="6.60696">
        <ele>1740.5</ele>
        <time>2012-02-17T14:20:44Z</time>
      </trkpt>
      <trkpt lat="45.50434" lon="6.60686">
        <ele>1736.3</ele>
        <time>2012-02-17T14:20:50Z</time>
      </trkpt>
      <trkpt lat="45.50442" lon="6.60681">
        <ele>1734.5</ele>
        <time>2012-02-17T14:20:53Z</time>
      </trkpt>
      <trkpt lat="45.50445" lon="6.6067">
        <ele>1731.8</ele>
        <time>2012-02-17T14:20:56Z</time>
      </trkpt>
      <trkpt lat="45.50447" lon="6.60657">
        <ele>1728.9</ele>
        <time>2012-02-17T14:21:00Z</time>
      </trkpt>
      <trkpt lat="45.50453" lon="6.60648">
        <ele>1726.8</ele>
        <time>2012-02-17T14:21:03Z</time>
      </trkpt>
      <trkpt lat="45.50459" lon="6.60641">
        <ele>1722.5</ele>
        <time>2012-02-17T14:21:06Z</time>
      </trkpt>
      <trkpt lat="45.50467" lon="6.60643">
        <ele>1716</ele>
        <time>2012-02-17T14:21:24Z</time>
      </trkpt>
      <trkpt lat="45.50476" lon="6.60642">
        <ele>1715.3</ele>
        <time>2012-02-17T14:21:27Z</time>
      </trkpt>
      <trkpt lat="45.50484" lon="6.60639">
        <ele>1714.1</ele>
        <time>2012-02-17T14:21:29Z</time>
      </trkpt>
      <trkpt lat="45.50487" lon="6.60639">
        <ele>1713.6</ele>
        <time>2012-02-17T14:21:30Z</time>
      </trkpt>
      <trkpt lat="45.50498" lon="6.60637">
        <ele>1713</ele>
        <time>2012-02-17T14:21:33Z</time>
      </trkpt>
      <trkpt lat="45.50502" lon="6.60634">
        <ele>1712</ele>
        <time>2012-02-17T14:21:34Z</time>
      </trkpt>
      <trkpt lat="45.50509" lon="6.60631">
        <ele>1711</ele>
        <time>2012-02-17T14:21:36Z</time>
      </trkpt>
      <trkpt lat="45.50517" lon="6.60628">
        <ele>1708</ele>
        <time>2012-02-17T14:22:20Z</time>
      </trkpt>
      <trkpt lat="45.50524" lon="6.60624">
        <ele>1706.5</ele>
        <time>2012-02-17T14:22:25Z</time>
      </trkpt>
      <trkpt lat="45.50531" lon="6.60618">
        <ele>1705</ele>
        <time>2012-02-17T14:22:30Z</time>
      </trkpt>
      <trkpt lat="45.50539" lon="6.60613">
        <ele>1702</ele>
        <time>2012-02-17T14:22:36Z</time>
      </trkpt>
      <trkpt lat="45.50541" lon="6.60612">
        <ele>1701.8</ele>
        <time>2012-02-17T14:22:37Z</time>
      </trkpt>
      <trkpt lat="45.50553" lon="6.60607">
        <ele>1697.1</ele>
        <time>2012-02-17T14:22:55Z</time>
      </trkpt>
      <trkpt lat="45.50547" lon="6.60599">
        <ele>1692.5</ele>
        <time>2012-02-17T14:23:11Z</time>
      </trkpt>
      <trkpt lat="45.5054" lon="6.60591">
        <ele>1691.6</ele>
        <time>2012-02-17T14:23:31Z</time>
      </trkpt>
      <trkpt lat="45.50537" lon="6.60579">
        <ele>1685.8</ele>
        <time>2012-02-17T14:24:26Z</time>
      </trkpt>
      <trkpt lat="45.50537" lon="6.60579">
        <ele>1684.9</ele>
        <time>2012-02-17T14:24:27Z</time>
      </trkpt>
      <trkpt lat="45.50544" lon="6.60572">
        <ele>1674</ele>
        <time>2012-02-17T14:26:14Z</time>
      </trkpt>
      <trkpt lat="45.50558" lon="6.60559">
        <ele>1667.1</ele>
        <time>2012-02-17T14:26:46Z</time>
      </trkpt>
      <trkpt lat="45.50557" lon="6.60546">
        <ele>1662.5</ele>
        <time>2012-02-17T14:27:09Z</time>
      </trkpt>
      <trkpt lat="45.50561" lon="6.60535">
        <ele>1656.9</ele>
        <time>2012-02-17T14:27:45Z</time>
      </trkpt>
      <trkpt lat="45.50562" lon="6.60535">
        <ele>1656.4</ele>
        <time>2012-02-17T14:27:46Z</time>
      </trkpt>
      <trkpt lat="45.50562" lon="6.60511">
        <ele>1642.5</ele>
        <time>2012-02-17T14:29:31Z</time>
      </trkpt>
      <trkpt lat="45.50563" lon="6.60511">
        <ele>1642.1</ele>
        <time>2012-02-17T14:29:32Z</time>
      </trkpt>
      <trkpt lat="45.50567" lon="6.60489">
        <ele>1627.9</ele>
        <time>2012-02-17T14:30:57Z</time>
      </trkpt>
      <trkpt lat="45.50567" lon="6.60488">
        <ele>1627.6</ele>
        <time>2012-02-17T14:30:58Z</time>
      </trkpt>
      <trkpt lat="45.50556" lon="6.60477">
        <ele>1624.8</ele>
        <time>2012-02-17T14:31:11Z</time>
      </trkpt>
      <trkpt lat="45.50563" lon="6.60472">
        <ele>1619.3</ele>
        <time>2012-02-17T14:31:26Z</time>
      </trkpt>
      <trkpt lat="45.5057" lon="6.60472">
        <ele>1617.9</ele>
        <time>2012-02-17T14:31:30Z</time>
      </trkpt>
      <trkpt lat="45.50578" lon="6.60472">
        <ele>1617</ele>
        <time>2012-02-17T14:31:34Z</time>
      </trkpt>
      <trkpt lat="45.50586" lon="6.6047">
        <ele>1615.5</ele>
        <time>2012-02-17T14:31:51Z</time>
      </trkpt>
      <trkpt lat="45.50595" lon="6.6047">
        <ele>1614.6</ele>
        <time>2012-02-17T14:32:05Z</time>
      </trkpt>
      <trkpt lat="45.50597" lon="6.60469">
        <ele>1614.6</ele>
        <time>2012-02-17T14:32:06Z</time>
      </trkpt>
      <trkpt lat="45.50612" lon="6.60467">
        <ele>1609.5</ele>
        <time>2012-02-17T14:32:22Z</time>
      </trkpt>
      <trkpt lat="45.5062" lon="6.6047">
        <ele>1608.4</ele>
        <time>2012-02-17T14:32:35Z</time>
      </trkpt>
      <trkpt lat="45.50627" lon="6.60469">
        <ele>1607.3</ele>
        <time>2012-02-17T14:32:41Z</time>
      </trkpt>
      <trkpt lat="45.50634" lon="6.60466">
        <ele>1605.1</ele>
        <time>2012-02-17T14:32:45Z</time>
      </trkpt>
      <trkpt lat="45.50642" lon="6.60462">
        <ele>1603.4</ele>
        <time>2012-02-17T14:32:50Z</time>
      </trkpt>
      <trkpt lat="45.50651" lon="6.60458">
        <ele>1601</ele>
        <time>2012-02-17T14:33:15Z</time>
      </trkpt>
      <trkpt lat="45.50651" lon="6.60458">
        <ele>1601.3</ele>
        <time>2012-02-17T14:33:16Z</time>
      </trkpt>
      <trkpt lat="45.5064" lon="6.60438">
        <ele>1594.6</ele>
        <time>2012-02-17T14:34:05Z</time>
      </trkpt>
      <trkpt lat="45.50634" lon="6.6043">
        <ele>1592.6</ele>
        <time>2012-02-17T14:34:23Z</time>
      </trkpt>
      <trkpt lat="45.50633" lon="6.6043">
        <ele>1592</ele>
        <time>2012-02-17T14:34:24Z</time>
      </trkpt>
      <trkpt lat="45.5062" lon="6.60416">
        <ele>1586.9</ele>
        <time>2012-02-17T14:34:52Z</time>
      </trkpt>
      <trkpt lat="45.50611" lon="6.60415">
        <ele>1585.4</ele>
        <time>2012-02-17T14:35:22Z</time>
      </trkpt>
      <trkpt lat="45.50606" lon="6.60405">
        <ele>1582</ele>
        <time>2012-02-17T14:35:38Z</time>
      </trkpt>
      <trkpt lat="45.50606" lon="6.60404">
        <ele>1581.8</ele>
        <time>2012-02-17T14:35:39Z</time>
      </trkpt>
      <trkpt lat="45.50593" lon="6.60387">
        <ele>1576.1</ele>
        <time>2012-02-17T14:36:16Z</time>
      </trkpt>
      <trkpt lat="45.50587" lon="6.60379">
        <ele>1574.1</ele>
        <time>2012-02-17T14:36:35Z</time>
      </trkpt>
      <trkpt lat="45.5058" lon="6.60375">
        <ele>1572.6</ele>
        <time>2012-02-17T14:36:43Z</time>
      </trkpt>
      <trkpt lat="45.50579" lon="6.60373">
        <ele>1572.6</ele>
        <time>2012-02-17T14:36:44Z</time>
      </trkpt>
      <trkpt lat="45.50594" lon="6.60366">
        <ele>1562.5</ele>
        <time>2012-02-17T14:37:20Z</time>
      </trkpt>
      <trkpt lat="45.50602" lon="6.60361">
        <ele>1563.5</ele>
        <time>2012-02-17T14:37:34Z</time>
      </trkpt>
      <trkpt lat="45.50611" lon="6.60363">
        <ele>1560</ele>
        <time>2012-02-17T14:38:00Z</time>
      </trkpt>
      <trkpt lat="45.50612" lon="6.60363">
        <ele>1559.6</ele>
        <time>2012-02-17T14:38:01Z</time>
      </trkpt>
      <trkpt lat="45.50609" lon="6.60344">
        <ele>1557.1</ele>
        <time>2012-02-17T14:38:39Z</time>
      </trkpt>
      <trkpt lat="45.50602" lon="6.60339">
        <ele>1554.6</ele>
        <time>2012-02-17T14:38:47Z</time>
      </trkpt>
      <trkpt lat="45.50594" lon="6.60333">
        <ele>1552.4</ele>
        <time>2012-02-17T14:38:55Z</time>
      </trkpt>
      <trkpt lat="45.50592" lon="6.60321">
        <ele>1550</ele>
        <time>2012-02-17T14:39:18Z</time>
      </trkpt>
      <trkpt lat="45.50592" lon="6.6032">
        <ele>1550</ele>
        <time>2012-02-17T14:39:19Z</time>
      </trkpt>
      <trkpt lat="45.50605" lon="6.60305">
        <ele>1548.3</ele>
        <time>2012-02-17T14:40:27Z</time>
      </trkpt>
      <trkpt lat="45.50605" lon="6.60304">
        <ele>1548.3</ele>
        <time>2012-02-17T14:40:28Z</time>
      </trkpt>
      <trkpt lat="45.50604" lon="6.60281">
        <ele>1541.3</ele>
        <time>2012-02-17T14:40:42Z</time>
      </trkpt>
      <trkpt lat="45.5061" lon="6.60275">
        <ele>1539.5</ele>
        <time>2012-02-17T14:40:44Z</time>
      </trkpt>
      <trkpt lat="45.50615" lon="6.60286">
        <ele>1533.8</ele>
        <time>2012-02-17T14:41:01Z</time>
      </trkpt>
      <trkpt lat="45.50619" lon="6.60277">
        <ele>1532.3</ele>
        <time>2012-02-17T14:41:51Z</time>
      </trkpt>
      <trkpt lat="45.50619" lon="6.60271">
        <ele>1531.5</ele>
        <time>2012-02-17T14:41:52Z</time>
      </trkpt>
      <trkpt lat="45.50617" lon="6.60258">
        <ele>1528.4</ele>
        <time>2012-02-17T14:41:55Z</time>
      </trkpt>
      <trkpt lat="45.50619" lon="6.60245">
        <ele>1526.1</ele>
        <time>2012-02-17T14:41:57Z</time>
      </trkpt>
      <trkpt lat="45.5062" lon="6.60238">
        <ele>1524.1</ele>
        <time>2012-02-17T14:41:58Z</time>
      </trkpt>
      <trkpt lat="45.50622" lon="6.60231">
        <ele>1522.6</ele>
        <time>2012-02-17T14:41:59Z</time>
      </trkpt>
      <trkpt lat="45.50624" lon="6.60223">
        <ele>1521.5</ele>
        <time>2012-02-17T14:42:00Z</time>
      </trkpt>
      <trkpt lat="45.50625" lon="6.60215">
        <ele>1519.4</ele>
        <time>2012-02-17T14:42:01Z</time>
      </trkpt>
      <trkpt lat="45.50625" lon="6.60206">
        <ele>1517.8</ele>
        <time>2012-02-17T14:42:02Z</time>
      </trkpt>
      <trkpt lat="45.50625" lon="6.60198">
        <ele>1515.1</ele>
        <time>2012-02-17T14:42:03Z</time>
      </trkpt>
      <trkpt lat="45.50625" lon="6.6019">
        <ele>1513.1</ele>
        <time>2012-02-17T14:42:04Z</time>
      </trkpt>
      <trkpt lat="45.50624" lon="6.60182">
        <ele>1511.1</ele>
        <time>2012-02-17T14:42:05Z</time>
      </trkpt>
      <trkpt lat="45.50629" lon="6.60173">
        <ele>1508.5</ele>
        <time>2012-02-17T14:42:07Z</time>
      </trkpt>
      <trkpt lat="45.50637" lon="6.60168">
        <ele>1504.1</ele>
        <time>2012-02-17T14:42:11Z</time>
      </trkpt>
      <trkpt lat="45.50629" lon="6.60162">
        <ele>1501.9</ele>
        <time>2012-02-17T14:42:44Z</time>
      </trkpt>
      <trkpt lat="45.50634" lon="6.60155">
        <ele>1501.4</ele>
        <time>2012-02-17T14:45:44Z</time>
      </trkpt>
      <trkpt lat="45.50637" lon="6.60153">
        <ele>1501.3</ele>
        <time>2012-02-17T14:45:45Z</time>
      </trkpt>
      <trkpt lat="45.50644" lon="6.60142">
        <ele>1500.1</ele>
        <time>2012-02-17T14:45:48Z</time>
      </trkpt>
      <trkpt lat="45.50649" lon="6.60133">
        <ele>1498.3</ele>
        <time>2012-02-17T14:45:50Z</time>
      </trkpt>
      <trkpt lat="45.50655" lon="6.60125">
        <ele>1495.5</ele>
        <time>2012-02-17T14:45:52Z</time>
      </trkpt>
      <trkpt lat="45.5066" lon="6.60116">
        <ele>1492.6</ele>
        <time>2012-02-17T14:45:54Z</time>
      </trkpt>
      <trkpt lat="45.50663" lon="6.60111">
        <ele>1491.8</ele>
        <time>2012-02-17T14:45:55Z</time>
      </trkpt>
      <trkpt lat="45.50667" lon="6.60106">
        <ele>1489.6</ele>
        <time>2012-02-17T14:45:56Z</time>
      </trkpt>
      <trkpt lat="45.50672" lon="6.60096">
        <ele>1485.4</ele>
        <time>2012-02-17T14:45:58Z</time>
      </trkpt>
      <trkpt lat="45.50674" lon="6.6009">
        <ele>1483.3</ele>
        <time>2012-02-17T14:45:59Z</time>
      </trkpt>
      <trkpt lat="45.50676" lon="6.60083">
        <ele>1480.3</ele>
        <time>2012-02-17T14:46:00Z</time>
      </trkpt>
      <trkpt lat="45.50673" lon="6.6007">
        <ele>1476.3</ele>
        <time>2012-02-17T14:46:02Z</time>
      </trkpt>
      <trkpt lat="45.50681" lon="6.60075">
        <ele>1468.5</ele>
        <time>2012-02-17T14:46:27Z</time>
      </trkpt>
      <trkpt lat="45.50688" lon="6.60078">
        <ele>1467.1</ele>
        <time>2012-02-17T14:46:31Z</time>
      </trkpt>
      <trkpt lat="45.50694" lon="6.60085">
        <ele>1464.8</ele>
        <time>2012-02-17T14:46:44Z</time>
      </trkpt>
      <trkpt lat="45.507" lon="6.60091">
        <ele>1464.8</ele>
        <time>2012-02-17T14:46:47Z</time>
      </trkpt>
      <trkpt lat="45.50703" lon="6.60093">
        <ele>1464.6</ele>
        <time>2012-02-17T14:46:48Z</time>
      </trkpt>
      <trkpt lat="45.50713" lon="6.60099">
        <ele>1463.8</ele>
        <time>2012-02-17T14:46:51Z</time>
      </trkpt>
      <trkpt lat="45.5072" lon="6.60106">
        <ele>1463</ele>
        <time>2012-02-17T14:46:53Z</time>
      </trkpt>
      <trkpt lat="45.50724" lon="6.60109">
        <ele>1462.6</ele>
        <time>2012-02-17T14:46:54Z</time>
      </trkpt>
      <trkpt lat="45.50728" lon="6.60113">
        <ele>1462.1</ele>
        <time>2012-02-17T14:46:55Z</time>
      </trkpt>
      <trkpt lat="45.50732" lon="6.60118">
        <ele>1461.8</ele>
        <time>2012-02-17T14:46:56Z</time>
      </trkpt>
      <trkpt lat="45.50736" lon="6.60123">
        <ele>1461.3</ele>
        <time>2012-02-17T14:46:57Z</time>
      </trkpt>
      <trkpt lat="45.5074" lon="6.60127">
        <ele>1460.9</ele>
        <time>2012-02-17T14:46:58Z</time>
      </trkpt>
      <trkpt lat="45.50744" lon="6.6013">
        <ele>1460.5</ele>
        <time>2012-02-17T14:46:59Z</time>
      </trkpt>
      <trkpt lat="45.50748" lon="6.60132">
        <ele>1459.5</ele>
        <time>2012-02-17T14:47:00Z</time>
      </trkpt>
      <trkpt lat="45.50753" lon="6.60135">
        <ele>1458.6</ele>
        <time>2012-02-17T14:47:01Z</time>
      </trkpt>
      <trkpt lat="45.50757" lon="6.60138">
        <ele>1457.8</ele>
        <time>2012-02-17T14:47:02Z</time>
      </trkpt>
      <trkpt lat="45.50761" lon="6.60142">
        <ele>1457.1</ele>
        <time>2012-02-17T14:47:03Z</time>
      </trkpt>
      <trkpt lat="45.50765" lon="6.60146">
        <ele>1456.6</ele>
        <time>2012-02-17T14:47:04Z</time>
      </trkpt>
      <trkpt lat="45.50769" lon="6.6015">
        <ele>1456.1</ele>
        <time>2012-02-17T14:47:05Z</time>
      </trkpt>
      <trkpt lat="45.50773" lon="6.60155">
        <ele>1455.9</ele>
        <time>2012-02-17T14:47:06Z</time>
      </trkpt>
      <trkpt lat="45.50776" lon="6.6016">
        <ele>1455.8</ele>
        <time>2012-02-17T14:47:07Z</time>
      </trkpt>
      <trkpt lat="45.5078" lon="6.60165">
        <ele>1455.8</ele>
        <time>2012-02-17T14:47:08Z</time>
      </trkpt>
      <trkpt lat="45.50787" lon="6.60172">
        <ele>1455.3</ele>
        <time>2012-02-17T14:47:10Z</time>
      </trkpt>
      <trkpt lat="45.5079" lon="6.60176">
        <ele>1455</ele>
        <time>2012-02-17T14:47:11Z</time>
      </trkpt>
      <trkpt lat="45.50794" lon="6.6018">
        <ele>1455.3</ele>
        <time>2012-02-17T14:47:12Z</time>
      </trkpt>
      <trkpt lat="45.50798" lon="6.60184">
        <ele>1455.4</ele>
        <time>2012-02-17T14:47:13Z</time>
      </trkpt>
      <trkpt lat="45.50803" lon="6.60188">
        <ele>1454.9</ele>
        <time>2012-02-17T14:47:14Z</time>
      </trkpt>
      <trkpt lat="45.50806" lon="6.60192">
        <ele>1454.5</ele>
        <time>2012-02-17T14:47:15Z</time>
      </trkpt>
      <trkpt lat="45.5081" lon="6.60196">
        <ele>1453.5</ele>
        <time>2012-02-17T14:47:16Z</time>
      </trkpt>
      <trkpt lat="45.50815" lon="6.602">
        <ele>1452.6</ele>
        <time>2012-02-17T14:47:17Z</time>
      </trkpt>
      <trkpt lat="45.5082" lon="6.60203">
        <ele>1452.1</ele>
        <time>2012-02-17T14:47:18Z</time>
      </trkpt>
      <trkpt lat="45.50826" lon="6.60209">
        <ele>1451.4</ele>
        <time>2012-02-17T14:47:19Z</time>
      </trkpt>
      <trkpt lat="45.50831" lon="6.60214">
        <ele>1450.8</ele>
        <time>2012-02-17T14:47:20Z</time>
      </trkpt>
      <trkpt lat="45.50836" lon="6.6022">
        <ele>1449.5</ele>
        <time>2012-02-17T14:47:21Z</time>
      </trkpt>
      <trkpt lat="45.50841" lon="6.60225">
        <ele>1448.5</ele>
        <time>2012-02-17T14:47:22Z</time>
      </trkpt>
      <trkpt lat="45.50845" lon="6.60231">
        <ele>1447.5</ele>
        <time>2012-02-17T14:47:23Z</time>
      </trkpt>
      <trkpt lat="45.50847" lon="6.60221">
        <ele>1443.5</ele>
        <time>2012-02-17T14:47:31Z</time>
      </trkpt>
      <trkpt lat="45.50842" lon="6.60215">
        <ele>1442.1</ele>
        <time>2012-02-17T14:47:33Z</time>
      </trkpt>
      <trkpt lat="45.50835" lon="6.60209">
        <ele>1440.5</ele>
        <time>2012-02-17T14:47:36Z</time>
      </trkpt>
      <trkpt lat="45.50827" lon="6.60201">
        <ele>1439.5</ele>
        <time>2012-02-17T14:47:38Z</time>
      </trkpt>
      <trkpt lat="45.50823" lon="6.60198">
        <ele>1439</ele>
        <time>2012-02-17T14:47:39Z</time>
      </trkpt>
      <trkpt lat="45.50818" lon="6.60193">
        <ele>1438.5</ele>
        <time>2012-02-17T14:47:40Z</time>
      </trkpt>
      <trkpt lat="45.50814" lon="6.60188">
        <ele>1438.3</ele>
        <time>2012-02-17T14:47:41Z</time>
      </trkpt>
      <trkpt lat="45.5081" lon="6.60184">
        <ele>1438</ele>
        <time>2012-02-17T14:47:42Z</time>
      </trkpt>
      <trkpt lat="45.50807" lon="6.60179">
        <ele>1437.4</ele>
        <time>2012-02-17T14:47:43Z</time>
      </trkpt>
      <trkpt lat="45.50803" lon="6.60174">
        <ele>1436.9</ele>
        <time>2012-02-17T14:47:44Z</time>
      </trkpt>
      <trkpt lat="45.50799" lon="6.60168">
        <ele>1436.1</ele>
        <time>2012-02-17T14:47:45Z</time>
      </trkpt>
      <trkpt lat="45.50796" lon="6.60161">
        <ele>1435.5</ele>
        <time>2012-02-17T14:47:46Z</time>
      </trkpt>
      <trkpt lat="45.50793" lon="6.60155">
        <ele>1434.8</ele>
        <time>2012-02-17T14:47:47Z</time>
      </trkpt>
      <trkpt lat="45.50789" lon="6.60148">
        <ele>1434.1</ele>
        <time>2012-02-17T14:47:48Z</time>
      </trkpt>
      <trkpt lat="45.50787" lon="6.60142">
        <ele>1433.6</ele>
        <time>2012-02-17T14:47:49Z</time>
      </trkpt>
      <trkpt lat="45.50783" lon="6.60136">
        <ele>1432.6</ele>
        <time>2012-02-17T14:47:50Z</time>
      </trkpt>
      <trkpt lat="45.50781" lon="6.6013">
        <ele>1432</ele>
        <time>2012-02-17T14:47:51Z</time>
      </trkpt>
      <trkpt lat="45.50777" lon="6.60124">
        <ele>1431.5</ele>
        <time>2012-02-17T14:47:52Z</time>
      </trkpt>
      <trkpt lat="45.50773" lon="6.60119">
        <ele>1431.3</ele>
        <time>2012-02-17T14:47:53Z</time>
      </trkpt>
      <trkpt lat="45.50771" lon="6.60112">
        <ele>1430.5</ele>
        <time>2012-02-17T14:47:54Z</time>
      </trkpt>
      <trkpt lat="45.50768" lon="6.60106">
        <ele>1429.9</ele>
        <time>2012-02-17T14:47:55Z</time>
      </trkpt>
      <trkpt lat="45.50765" lon="6.60098">
        <ele>1429.4</ele>
        <time>2012-02-17T14:47:56Z</time>
      </trkpt>
      <trkpt lat="45.50763" lon="6.60092">
        <ele>1428.5</ele>
        <time>2012-02-17T14:47:57Z</time>
      </trkpt>
      <trkpt lat="45.5076" lon="6.60086">
        <ele>1428</ele>
        <time>2012-02-17T14:47:58Z</time>
      </trkpt>
      <trkpt lat="45.50758" lon="6.60079">
        <ele>1427</ele>
        <time>2012-02-17T14:47:59Z</time>
      </trkpt>
      <trkpt lat="45.50756" lon="6.60073">
        <ele>1426.3</ele>
        <time>2012-02-17T14:48:00Z</time>
      </trkpt>
      <trkpt lat="45.50753" lon="6.60067">
        <ele>1425.8</ele>
        <time>2012-02-17T14:48:01Z</time>
      </trkpt>
      <trkpt lat="45.50751" lon="6.6006">
        <ele>1425.6</ele>
        <time>2012-02-17T14:48:02Z</time>
      </trkpt>
      <trkpt lat="45.50748" lon="6.60053">
        <ele>1425.5</ele>
        <time>2012-02-17T14:48:03Z</time>
      </trkpt>
      <trkpt lat="45.50745" lon="6.60046">
        <ele>1424.6</ele>
        <time>2012-02-17T14:48:04Z</time>
      </trkpt>
      <trkpt lat="45.50742" lon="6.60035">
        <ele>1422.6</ele>
        <time>2012-02-17T14:48:08Z</time>
      </trkpt>
      <trkpt lat="45.50738" lon="6.60024">
        <ele>1421.9</ele>
        <time>2012-02-17T14:48:12Z</time>
      </trkpt>
      <trkpt lat="45.50734" lon="6.60014">
        <ele>1422</ele>
        <time>2012-02-17T14:48:15Z</time>
      </trkpt>
      <trkpt lat="45.50731" lon="6.60005">
        <ele>1421.6</ele>
        <time>2012-02-17T14:48:17Z</time>
      </trkpt>
      <trkpt lat="45.50728" lon="6.59999">
        <ele>1421.4</ele>
        <time>2012-02-17T14:48:18Z</time>
      </trkpt>
      <trkpt lat="45.50725" lon="6.59989">
        <ele>1421</ele>
        <time>2012-02-17T14:48:20Z</time>
      </trkpt>
      <trkpt lat="45.50721" lon="6.5998">
        <ele>1418.6</ele>
        <time>2012-02-17T14:48:23Z</time>
      </trkpt>
      <trkpt lat="45.50718" lon="6.59968">
        <ele>1418</ele>
        <time>2012-02-17T14:48:31Z</time>
      </trkpt>
      <trkpt lat="45.5072" lon="6.59956">
        <ele>1418</ele>
        <time>2012-02-17T14:48:56Z</time>
      </trkpt>
      <trkpt lat="45.5072" lon="6.59956">
        <ele>1417.9</ele>
        <time>2012-02-17T14:48:57Z</time>
      </trkpt>
      <trkpt lat="45.50715" lon="6.59945">
        <ele>1416.8</ele>
        <time>2012-02-17T14:51:22Z</time>
      </trkpt>
      <trkpt lat="45.50701" lon="6.59938">
        <ele>1415.9</ele>
        <time>2012-02-17T14:51:31Z</time>
      </trkpt>
      <trkpt lat="45.50695" lon="6.59929">
        <ele>1415</ele>
        <time>2012-02-17T14:51:34Z</time>
      </trkpt>
      <trkpt lat="45.50691" lon="6.59922">
        <ele>1414</ele>
        <time>2012-02-17T14:51:36Z</time>
      </trkpt>
      <trkpt lat="45.50689" lon="6.59911">
        <ele>1413.5</ele>
        <time>2012-02-17T14:51:39Z</time>
      </trkpt>
      <trkpt lat="45.50689" lon="6.599">
        <ele>1412.5</ele>
        <time>2012-02-17T14:51:42Z</time>
      </trkpt>
      <trkpt lat="45.50691" lon="6.59891">
        <ele>1411.8</ele>
        <time>2012-02-17T14:51:44Z</time>
      </trkpt>
      <trkpt lat="45.50692" lon="6.59879">
        <ele>1411.5</ele>
        <time>2012-02-17T14:51:48Z</time>
      </trkpt>
      <trkpt lat="45.50695" lon="6.59869">
        <ele>1410.4</ele>
        <time>2012-02-17T14:51:53Z</time>
      </trkpt>
      <trkpt lat="45.507" lon="6.59862">
        <ele>1409.1</ele>
        <time>2012-02-17T14:51:55Z</time>
      </trkpt>
      <trkpt lat="45.50704" lon="6.59858">
        <ele>1407.6</ele>
        <time>2012-02-17T14:51:56Z</time>
      </trkpt>
      <trkpt lat="45.5071" lon="6.59857">
        <ele>1406.5</ele>
        <time>2012-02-17T14:51:57Z</time>
      </trkpt>
      <trkpt lat="45.50716" lon="6.59853">
        <ele>1405.8</ele>
        <time>2012-02-17T14:51:58Z</time>
      </trkpt>
      <trkpt lat="45.50722" lon="6.59847">
        <ele>1403.1</ele>
        <time>2012-02-17T14:51:59Z</time>
      </trkpt>
      <trkpt lat="45.5073" lon="6.59843">
        <ele>1401.4</ele>
        <time>2012-02-17T14:52:00Z</time>
      </trkpt>
      <trkpt lat="45.50738" lon="6.59836">
        <ele>1397</ele>
        <time>2012-02-17T14:52:01Z</time>
      </trkpt>
      <trkpt lat="45.50746" lon="6.59832">
        <ele>1393.9</ele>
        <time>2012-02-17T14:52:02Z</time>
      </trkpt>
      <trkpt lat="45.50756" lon="6.59832">
        <ele>1391.5</ele>
        <time>2012-02-17T14:52:03Z</time>
      </trkpt>
      <trkpt lat="45.50765" lon="6.59831">
        <ele>1387.5</ele>
        <time>2012-02-17T14:52:04Z</time>
      </trkpt>
      <trkpt lat="45.50775" lon="6.59832">
        <ele>1384.5</ele>
        <time>2012-02-17T14:52:05Z</time>
      </trkpt>
      <trkpt lat="45.50786" lon="6.59831">
        <ele>1380.1</ele>
        <time>2012-02-17T14:52:06Z</time>
      </trkpt>
      <trkpt lat="45.50796" lon="6.59829">
        <ele>1377</ele>
        <time>2012-02-17T14:52:07Z</time>
      </trkpt>
      <trkpt lat="45.50805" lon="6.5983">
        <ele>1372.8</ele>
        <time>2012-02-17T14:52:08Z</time>
      </trkpt>
      <trkpt lat="45.5081" lon="6.59833">
        <ele>1369.6</ele>
        <time>2012-02-17T14:52:09Z</time>
      </trkpt>
      <trkpt lat="45.50816" lon="6.59842">
        <ele>1363.4</ele>
        <time>2012-02-17T14:52:13Z</time>
      </trkpt>
      <trkpt lat="45.5082" lon="6.59854">
        <ele>1362</ele>
        <time>2012-02-17T14:52:25Z</time>
      </trkpt>
      <trkpt lat="45.50821" lon="6.59855">
        <ele>1362</ele>
        <time>2012-02-17T14:52:26Z</time>
      </trkpt>
      <trkpt lat="45.50834" lon="6.59865">
        <ele>1360.9</ele>
        <time>2012-02-17T14:52:31Z</time>
      </trkpt>
      <trkpt lat="45.5084" lon="6.59875">
        <ele>1359.5</ele>
        <time>2012-02-17T14:52:35Z</time>
      </trkpt>
      <trkpt lat="45.50845" lon="6.59884">
        <ele>1357.1</ele>
        <time>2012-02-17T14:52:55Z</time>
      </trkpt>
      <trkpt lat="45.50849" lon="6.59883">
        <ele>1356.8</ele>
        <time>2012-02-17T14:52:56Z</time>
      </trkpt>
      <trkpt lat="45.50855" lon="6.5988">
        <ele>1356.4</ele>
        <time>2012-02-17T14:52:57Z</time>
      </trkpt>
      <trkpt lat="45.5086" lon="6.59875">
        <ele>1355</ele>
        <time>2012-02-17T14:52:58Z</time>
      </trkpt>
      <trkpt lat="45.50866" lon="6.5987">
        <ele>1354</ele>
        <time>2012-02-17T14:52:59Z</time>
      </trkpt>
      <trkpt lat="45.50872" lon="6.59865">
        <ele>1353.1</ele>
        <time>2012-02-17T14:53:00Z</time>
      </trkpt>
      <trkpt lat="45.50879" lon="6.59862">
        <ele>1351.6</ele>
        <time>2012-02-17T14:53:01Z</time>
      </trkpt>
      <trkpt lat="45.50886" lon="6.59857">
        <ele>1350.6</ele>
        <time>2012-02-17T14:53:02Z</time>
      </trkpt>
      <trkpt lat="45.50893" lon="6.59855">
        <ele>1348.5</ele>
        <time>2012-02-17T14:53:03Z</time>
      </trkpt>
      <trkpt lat="45.509" lon="6.59853">
        <ele>1347</ele>
        <time>2012-02-17T14:53:04Z</time>
      </trkpt>
      <trkpt lat="45.50906" lon="6.5985">
        <ele>1344.8</ele>
        <time>2012-02-17T14:53:05Z</time>
      </trkpt>
      <trkpt lat="45.50913" lon="6.5985">
        <ele>1343</ele>
        <time>2012-02-17T14:53:06Z</time>
      </trkpt>
      <trkpt lat="45.50919" lon="6.59847">
        <ele>1341.8</ele>
        <time>2012-02-17T14:53:07Z</time>
      </trkpt>
      <trkpt lat="45.50923" lon="6.59842">
        <ele>1340.4</ele>
        <time>2012-02-17T14:53:08Z</time>
      </trkpt>
      <trkpt lat="45.50929" lon="6.59838">
        <ele>1339.4</ele>
        <time>2012-02-17T14:53:09Z</time>
      </trkpt>
      <trkpt lat="45.50935" lon="6.59831">
        <ele>1336.5</ele>
        <time>2012-02-17T14:53:10Z</time>
      </trkpt>
      <trkpt lat="45.50942" lon="6.59826">
        <ele>1334.5</ele>
        <time>2012-02-17T14:53:11Z</time>
      </trkpt>
      <trkpt lat="45.5095" lon="6.59824">
        <ele>1331.4</ele>
        <time>2012-02-17T14:53:12Z</time>
      </trkpt>
      <trkpt lat="45.50956" lon="6.59819">
        <ele>1329</ele>
        <time>2012-02-17T14:53:13Z</time>
      </trkpt>
      <trkpt lat="45.50962" lon="6.59818">
        <ele>1327.3</ele>
        <time>2012-02-17T14:53:14Z</time>
      </trkpt>
      <trkpt lat="45.50969" lon="6.59817">
        <ele>1324</ele>
        <time>2012-02-17T14:53:15Z</time>
      </trkpt>
      <trkpt lat="45.50974" lon="6.59812">
        <ele>1321.8</ele>
        <time>2012-02-17T14:53:16Z</time>
      </trkpt>
      <trkpt lat="45.5098" lon="6.59808">
        <ele>1318.3</ele>
        <time>2012-02-17T14:53:17Z</time>
      </trkpt>
      <trkpt lat="45.50986" lon="6.59802">
        <ele>1315.6</ele>
        <time>2012-02-17T14:53:18Z</time>
      </trkpt>
      <trkpt lat="45.50995" lon="6.59796">
        <ele>1313.8</ele>
        <time>2012-02-17T14:53:19Z</time>
      </trkpt>
      <trkpt lat="45.51001" lon="6.59786">
        <ele>1309.9</ele>
        <time>2012-02-17T14:53:20Z</time>
      </trkpt>
      <trkpt lat="45.51005" lon="6.59773">
        <ele>1306.9</ele>
        <time>2012-02-17T14:53:21Z</time>
      </trkpt>
      <trkpt lat="45.51008" lon="6.59759">
        <ele>1302.3</ele>
        <time>2012-02-17T14:53:22Z</time>
      </trkpt>
      <trkpt lat="45.51009" lon="6.59745">
        <ele>1298.9</ele>
        <time>2012-02-17T14:53:23Z</time>
      </trkpt>
      <trkpt lat="45.51012" lon="6.59733">
        <ele>1295.8</ele>
        <time>2012-02-17T14:53:24Z</time>
      </trkpt>
      <trkpt lat="45.51012" lon="6.59722">
        <ele>1293.5</ele>
        <time>2012-02-17T14:53:25Z</time>
      </trkpt>
      <trkpt lat="45.51012" lon="6.59713">
        <ele>1291.8</ele>
        <time>2012-02-17T14:53:26Z</time>
      </trkpt>
      <trkpt lat="45.51011" lon="6.59703">
        <ele>1290.5</ele>
        <time>2012-02-17T14:53:27Z</time>
      </trkpt>
      <trkpt lat="45.5101" lon="6.59693">
        <ele>1289.6</ele>
        <time>2012-02-17T14:53:28Z</time>
      </trkpt>
      <trkpt lat="45.5101" lon="6.59683">
        <ele>1288</ele>
        <time>2012-02-17T14:53:29Z</time>
      </trkpt>
      <trkpt lat="45.51008" lon="6.59672">
        <ele>1286.6</ele>
        <time>2012-02-17T14:53:30Z</time>
      </trkpt>
      <trkpt lat="45.51007" lon="6.59662">
        <ele>1285</ele>
        <time>2012-02-17T14:53:31Z</time>
      </trkpt>
      <trkpt lat="45.51005" lon="6.59651">
        <ele>1283.8</ele>
        <time>2012-02-17T14:53:32Z</time>
      </trkpt>
      <trkpt lat="45.51004" lon="6.5964">
        <ele>1282.9</ele>
        <time>2012-02-17T14:53:33Z</time>
      </trkpt>
      <trkpt lat="45.51002" lon="6.59629">
        <ele>1281.8</ele>
        <time>2012-02-17T14:53:34Z</time>
      </trkpt>
      <trkpt lat="45.51" lon="6.59618">
        <ele>1281</ele>
        <time>2012-02-17T14:53:35Z</time>
      </trkpt>
      <trkpt lat="45.50999" lon="6.59607">
        <ele>1280</ele>
        <time>2012-02-17T14:53:36Z</time>
      </trkpt>
      <trkpt lat="45.50999" lon="6.59596">
        <ele>1279.5</ele>
        <time>2012-02-17T14:53:37Z</time>
      </trkpt>
      <trkpt lat="45.50998" lon="6.59584">
        <ele>1278</ele>
        <time>2012-02-17T14:53:38Z</time>
      </trkpt>
      <trkpt lat="45.50997" lon="6.59572">
        <ele>1276.8</ele>
        <time>2012-02-17T14:53:39Z</time>
      </trkpt>
      <trkpt lat="45.50997" lon="6.59561">
        <ele>1275.9</ele>
        <time>2012-02-17T14:53:40Z</time>
      </trkpt>
      <trkpt lat="45.50996" lon="6.59549">
        <ele>1274.9</ele>
        <time>2012-02-17T14:53:41Z</time>
      </trkpt>
      <trkpt lat="45.50994" lon="6.59538">
        <ele>1274</ele>
        <time>2012-02-17T14:53:42Z</time>
      </trkpt>
      <trkpt lat="45.50993" lon="6.59527">
        <ele>1273.3</ele>
        <time>2012-02-17T14:53:43Z</time>
      </trkpt>
      <trkpt lat="45.50992" lon="6.59517">
        <ele>1272.6</ele>
        <time>2012-02-17T14:53:44Z</time>
      </trkpt>
      <trkpt lat="45.5099" lon="6.59507">
        <ele>1272.1</ele>
        <time>2012-02-17T14:53:45Z</time>
      </trkpt>
      <trkpt lat="45.50989" lon="6.59498">
        <ele>1271.6</ele>
        <time>2012-02-17T14:53:46Z</time>
      </trkpt>
      <trkpt lat="45.50988" lon="6.59488">
        <ele>1271.3</ele>
        <time>2012-02-17T14:53:47Z</time>
      </trkpt>
      <trkpt lat="45.50987" lon="6.59478">
        <ele>1271</ele>
        <time>2012-02-17T14:53:48Z</time>
      </trkpt>
      <trkpt lat="45.50986" lon="6.59469">
        <ele>1270.8</ele>
        <time>2012-02-17T14:53:49Z</time>
      </trkpt>
      <trkpt lat="45.50984" lon="6.59459">
        <ele>1269.9</ele>
        <time>2012-02-17T14:53:50Z</time>
      </trkpt>
      <trkpt lat="45.50983" lon="6.59449">
        <ele>1269.3</ele>
        <time>2012-02-17T14:53:51Z</time>
      </trkpt>
      <trkpt lat="45.50981" lon="6.59439">
        <ele>1268.8</ele>
        <time>2012-02-17T14:53:52Z</time>
      </trkpt>
      <trkpt lat="45.50979" lon="6.59429">
        <ele>1268</ele>
        <time>2012-02-17T14:53:53Z</time>
      </trkpt>
      <trkpt lat="45.50976" lon="6.5942">
        <ele>1267.3</ele>
        <time>2012-02-17T14:53:54Z</time>
      </trkpt>
      <trkpt lat="45.50973" lon="6.59412">
        <ele>1266</ele>
        <time>2012-02-17T14:53:55Z</time>
      </trkpt>
      <trkpt lat="45.50968" lon="6.59406">
        <ele>1265.1</ele>
        <time>2012-02-17T14:53:56Z</time>
      </trkpt>
      <trkpt lat="45.50966" lon="6.594">
        <ele>1265</ele>
        <time>2012-02-17T14:53:57Z</time>
      </trkpt>
      <trkpt lat="45.50962" lon="6.59389">
        <ele>1264.8</ele>
        <time>2012-02-17T14:53:59Z</time>
      </trkpt>
      <trkpt lat="45.50962" lon="6.59378">
        <ele>1264.5</ele>
        <time>2012-02-17T14:54:01Z</time>
      </trkpt>
      <trkpt lat="45.5097" lon="6.59372">
        <ele>1261.5</ele>
        <time>2012-02-17T14:54:30Z</time>
      </trkpt>
      <trkpt lat="45.5097" lon="6.59371">
        <ele>1261.6</ele>
        <time>2012-02-17T14:54:31Z</time>
      </trkpt>
      <trkpt lat="45.50973" lon="6.59375">
        <ele>1263</ele>
        <time>2012-02-17T14:54:58Z</time>
      </trkpt>
    </trkseg>
  </trk>
</gpx>